<?xml version="1.0" encoding="UTF-8" standalone="no" ?>
<gpx xmlns="http://www.topografix.com/GPX/1/1" xmlns:xsi="http://www.w3.org/2001/XMLSchema-instance" xsi:schemaLocation="http://www.topografix.com/GPX/1/1 http://www.topografix.com/GPX/1/1/gpx.xsd" version="1.1" creator="VisuGPX - https://www.visugpx.com">
  <metadata>
    <name>Circuit des garrigues</name>
  </metadata>
  <trk>
    <name><![CDATA[Circuit des garrigues]]></name>
    <trkseg>
      <trkpt lat="44.1087" lon="4.98692">
        <ele>47</ele>
        <time>2012-08-02T17:11:58Z</time>
      </trkpt>
      <trkpt lat="44.1087" lon="4.98704">
        <ele>51</ele>
        <time>2012-08-02T17:12:05Z</time>
      </trkpt>
      <trkpt lat="44.10876" lon="4.98713">
        <ele>53</ele>
        <time>2012-08-02T17:12:11Z</time>
      </trkpt>
      <trkpt lat="44.1088" lon="4.98722">
        <ele>56</ele>
        <time>2012-08-02T17:12:18Z</time>
      </trkpt>
      <trkpt lat="44.10885" lon="4.98732">
        <ele>52</ele>
        <time>2012-08-02T17:12:26Z</time>
      </trkpt>
      <trkpt lat="44.1089" lon="4.98742">
        <ele>53</ele>
        <time>2012-08-02T17:12:36Z</time>
      </trkpt>
      <trkpt lat="44.1089" lon="4.98743">
        <ele>53</ele>
        <time>2012-08-02T17:12:37Z</time>
      </trkpt>
      <trkpt lat="44.109" lon="4.98761">
        <ele>54</ele>
        <time>2012-08-02T17:12:51Z</time>
      </trkpt>
      <trkpt lat="44.10904" lon="4.98771">
        <ele>50</ele>
        <time>2012-08-02T17:12:57Z</time>
      </trkpt>
      <trkpt lat="44.10908" lon="4.98783">
        <ele>47</ele>
        <time>2012-08-02T17:13:04Z</time>
      </trkpt>
      <trkpt lat="44.10913" lon="4.98791">
        <ele>44</ele>
        <time>2012-08-02T17:13:11Z</time>
      </trkpt>
      <trkpt lat="44.10919" lon="4.988">
        <ele>43</ele>
        <time>2012-08-02T17:13:18Z</time>
      </trkpt>
      <trkpt lat="44.10922" lon="4.9881">
        <ele>40</ele>
        <time>2012-08-02T17:13:25Z</time>
      </trkpt>
      <trkpt lat="44.10927" lon="4.9882">
        <ele>38</ele>
        <time>2012-08-02T17:13:33Z</time>
      </trkpt>
      <trkpt lat="44.10933" lon="4.98829">
        <ele>39</ele>
        <time>2012-08-02T17:13:41Z</time>
      </trkpt>
      <trkpt lat="44.10934" lon="4.9883">
        <ele>38</ele>
        <time>2012-08-02T17:13:42Z</time>
      </trkpt>
      <trkpt lat="44.10946" lon="4.98834">
        <ele>44</ele>
        <time>2012-08-02T17:13:55Z</time>
      </trkpt>
      <trkpt lat="44.10953" lon="4.98833">
        <ele>43</ele>
        <time>2012-08-02T17:13:59Z</time>
      </trkpt>
      <trkpt lat="44.10961" lon="4.98833">
        <ele>44</ele>
        <time>2012-08-02T17:14:03Z</time>
      </trkpt>
      <trkpt lat="44.10969" lon="4.9883">
        <ele>45</ele>
        <time>2012-08-02T17:14:07Z</time>
      </trkpt>
      <trkpt lat="44.10977" lon="4.98827">
        <ele>47</ele>
        <time>2012-08-02T17:14:19Z</time>
      </trkpt>
      <trkpt lat="44.10984" lon="4.9882">
        <ele>44</ele>
        <time>2012-08-02T17:14:25Z</time>
      </trkpt>
      <trkpt lat="44.1099" lon="4.98814">
        <ele>45</ele>
        <time>2012-08-02T17:14:31Z</time>
      </trkpt>
      <trkpt lat="44.10999" lon="4.98811">
        <ele>47</ele>
        <time>2012-08-02T17:14:39Z</time>
      </trkpt>
      <trkpt lat="44.11007" lon="4.98806">
        <ele>48</ele>
        <time>2012-08-02T17:14:53Z</time>
      </trkpt>
      <trkpt lat="44.11008" lon="4.98806">
        <ele>47</ele>
        <time>2012-08-02T17:14:54Z</time>
      </trkpt>
      <trkpt lat="44.11022" lon="4.98798">
        <ele>48</ele>
        <time>2012-08-02T17:15:10Z</time>
      </trkpt>
      <trkpt lat="44.11029" lon="4.98795">
        <ele>46</ele>
        <time>2012-08-02T17:15:15Z</time>
      </trkpt>
      <trkpt lat="44.11036" lon="4.98788">
        <ele>46</ele>
        <time>2012-08-02T17:15:22Z</time>
      </trkpt>
      <trkpt lat="44.11043" lon="4.98786">
        <ele>49</ele>
        <time>2012-08-02T17:15:26Z</time>
      </trkpt>
      <trkpt lat="44.11051" lon="4.98785">
        <ele>50</ele>
        <time>2012-08-02T17:15:31Z</time>
      </trkpt>
      <trkpt lat="44.11057" lon="4.9878">
        <ele>49</ele>
        <time>2012-08-02T17:15:36Z</time>
      </trkpt>
      <trkpt lat="44.11064" lon="4.98782">
        <ele>50</ele>
        <time>2012-08-02T17:15:39Z</time>
      </trkpt>
      <trkpt lat="44.11072" lon="4.98787">
        <ele>49</ele>
        <time>2012-08-02T17:15:43Z</time>
      </trkpt>
      <trkpt lat="44.1108" lon="4.98784">
        <ele>52</ele>
        <time>2012-08-02T17:15:47Z</time>
      </trkpt>
      <trkpt lat="44.11086" lon="4.98778">
        <ele>55</ele>
        <time>2012-08-02T17:15:49Z</time>
      </trkpt>
      <trkpt lat="44.11093" lon="4.98774">
        <ele>55</ele>
        <time>2012-08-02T17:15:51Z</time>
      </trkpt>
      <trkpt lat="44.11093" lon="4.98786">
        <ele>41</ele>
        <time>2012-08-02T17:16:00Z</time>
      </trkpt>
      <trkpt lat="44.11094" lon="4.98787">
        <ele>39</ele>
        <time>2012-08-02T17:16:01Z</time>
      </trkpt>
      <trkpt lat="44.11111" lon="4.9879">
        <ele>52</ele>
        <time>2012-08-02T17:16:24Z</time>
      </trkpt>
      <trkpt lat="44.11119" lon="4.98789">
        <ele>57</ele>
        <time>2012-08-02T17:18:08Z</time>
      </trkpt>
      <trkpt lat="44.11121" lon="4.98788">
        <ele>56</ele>
        <time>2012-08-02T17:18:09Z</time>
      </trkpt>
      <trkpt lat="44.11134" lon="4.98782">
        <ele>56</ele>
        <time>2012-08-02T17:18:20Z</time>
      </trkpt>
      <trkpt lat="44.11141" lon="4.98777">
        <ele>57</ele>
        <time>2012-08-02T17:18:26Z</time>
      </trkpt>
      <trkpt lat="44.11149" lon="4.98772">
        <ele>55</ele>
        <time>2012-08-02T17:18:34Z</time>
      </trkpt>
      <trkpt lat="44.11157" lon="4.98773">
        <ele>54</ele>
        <time>2012-08-02T17:18:41Z</time>
      </trkpt>
      <trkpt lat="44.11165" lon="4.98769">
        <ele>58</ele>
        <time>2012-08-02T17:18:47Z</time>
      </trkpt>
      <trkpt lat="44.11173" lon="4.98765">
        <ele>57</ele>
        <time>2012-08-02T17:18:52Z</time>
      </trkpt>
      <trkpt lat="44.1118" lon="4.98771">
        <ele>58</ele>
        <time>2012-08-02T17:18:58Z</time>
      </trkpt>
      <trkpt lat="44.11188" lon="4.98772">
        <ele>58</ele>
        <time>2012-08-02T17:19:03Z</time>
      </trkpt>
      <trkpt lat="44.11197" lon="4.9877">
        <ele>61</ele>
        <time>2012-08-02T17:19:10Z</time>
      </trkpt>
      <trkpt lat="44.11198" lon="4.98769">
        <ele>61</ele>
        <time>2012-08-02T17:19:11Z</time>
      </trkpt>
      <trkpt lat="44.11198" lon="4.98746">
        <ele>63</ele>
        <time>2012-08-02T17:19:28Z</time>
      </trkpt>
      <trkpt lat="44.11203" lon="4.98736">
        <ele>62</ele>
        <time>2012-08-02T17:19:34Z</time>
      </trkpt>
      <trkpt lat="44.11208" lon="4.98726">
        <ele>62</ele>
        <time>2012-08-02T17:19:40Z</time>
      </trkpt>
      <trkpt lat="44.11212" lon="4.98717">
        <ele>61</ele>
        <time>2012-08-02T17:19:45Z</time>
      </trkpt>
      <trkpt lat="44.11215" lon="4.98707">
        <ele>60</ele>
        <time>2012-08-02T17:19:51Z</time>
      </trkpt>
      <trkpt lat="44.11219" lon="4.98696">
        <ele>58</ele>
        <time>2012-08-02T17:19:57Z</time>
      </trkpt>
      <trkpt lat="44.11222" lon="4.98685">
        <ele>58</ele>
        <time>2012-08-02T17:20:03Z</time>
      </trkpt>
      <trkpt lat="44.11227" lon="4.98675">
        <ele>57</ele>
        <time>2012-08-02T17:20:09Z</time>
      </trkpt>
      <trkpt lat="44.11231" lon="4.98666">
        <ele>57</ele>
        <time>2012-08-02T17:20:15Z</time>
      </trkpt>
      <trkpt lat="44.11232" lon="4.98665">
        <ele>57</ele>
        <time>2012-08-02T17:20:16Z</time>
      </trkpt>
      <trkpt lat="44.11241" lon="4.98648">
        <ele>58</ele>
        <time>2012-08-02T17:20:27Z</time>
      </trkpt>
      <trkpt lat="44.11246" lon="4.98639">
        <ele>60</ele>
        <time>2012-08-02T17:20:33Z</time>
      </trkpt>
      <trkpt lat="44.11251" lon="4.9863">
        <ele>59</ele>
        <time>2012-08-02T17:20:41Z</time>
      </trkpt>
      <trkpt lat="44.11257" lon="4.98622">
        <ele>60</ele>
        <time>2012-08-02T17:20:46Z</time>
      </trkpt>
      <trkpt lat="44.11261" lon="4.98613">
        <ele>60</ele>
        <time>2012-08-02T17:20:50Z</time>
      </trkpt>
      <trkpt lat="44.11268" lon="4.98606">
        <ele>61</ele>
        <time>2012-08-02T17:20:56Z</time>
      </trkpt>
      <trkpt lat="44.11274" lon="4.98597">
        <ele>59</ele>
        <time>2012-08-02T17:21:03Z</time>
      </trkpt>
      <trkpt lat="44.11277" lon="4.98586">
        <ele>60</ele>
        <time>2012-08-02T17:21:10Z</time>
      </trkpt>
      <trkpt lat="44.11281" lon="4.98575">
        <ele>59</ele>
        <time>2012-08-02T17:21:17Z</time>
      </trkpt>
      <trkpt lat="44.11282" lon="4.98573">
        <ele>58</ele>
        <time>2012-08-02T17:21:18Z</time>
      </trkpt>
      <trkpt lat="44.11289" lon="4.98555">
        <ele>57</ele>
        <time>2012-08-02T17:21:31Z</time>
      </trkpt>
      <trkpt lat="44.11293" lon="4.98544">
        <ele>58</ele>
        <time>2012-08-02T17:21:37Z</time>
      </trkpt>
      <trkpt lat="44.11299" lon="4.98535">
        <ele>59</ele>
        <time>2012-08-02T17:21:43Z</time>
      </trkpt>
      <trkpt lat="44.11304" lon="4.98525">
        <ele>58</ele>
        <time>2012-08-02T17:21:50Z</time>
      </trkpt>
      <trkpt lat="44.11307" lon="4.98515">
        <ele>60</ele>
        <time>2012-08-02T17:21:56Z</time>
      </trkpt>
      <trkpt lat="44.1131" lon="4.98504">
        <ele>62</ele>
        <time>2012-08-02T17:22:01Z</time>
      </trkpt>
      <trkpt lat="44.11313" lon="4.98493">
        <ele>60</ele>
        <time>2012-08-02T17:22:07Z</time>
      </trkpt>
      <trkpt lat="44.11318" lon="4.98484">
        <ele>58</ele>
        <time>2012-08-02T17:22:14Z</time>
      </trkpt>
      <trkpt lat="44.11323" lon="4.98476">
        <ele>58</ele>
        <time>2012-08-02T17:22:20Z</time>
      </trkpt>
      <trkpt lat="44.11324" lon="4.98474">
        <ele>58</ele>
        <time>2012-08-02T17:22:21Z</time>
      </trkpt>
      <trkpt lat="44.11333" lon="4.98456">
        <ele>57</ele>
        <time>2012-08-02T17:22:33Z</time>
      </trkpt>
      <trkpt lat="44.11337" lon="4.98446">
        <ele>57</ele>
        <time>2012-08-02T17:22:40Z</time>
      </trkpt>
      <trkpt lat="44.11341" lon="4.98437">
        <ele>58</ele>
        <time>2012-08-02T17:22:46Z</time>
      </trkpt>
      <trkpt lat="44.11346" lon="4.98427">
        <ele>57</ele>
        <time>2012-08-02T17:22:52Z</time>
      </trkpt>
      <trkpt lat="44.1135" lon="4.98418">
        <ele>57</ele>
        <time>2012-08-02T17:22:57Z</time>
      </trkpt>
      <trkpt lat="44.11355" lon="4.98407">
        <ele>56</ele>
        <time>2012-08-02T17:23:05Z</time>
      </trkpt>
      <trkpt lat="44.1136" lon="4.98398">
        <ele>57</ele>
        <time>2012-08-02T17:23:12Z</time>
      </trkpt>
      <trkpt lat="44.11364" lon="4.98388">
        <ele>58</ele>
        <time>2012-08-02T17:23:18Z</time>
      </trkpt>
      <trkpt lat="44.11367" lon="4.98378">
        <ele>57</ele>
        <time>2012-08-02T17:23:24Z</time>
      </trkpt>
      <trkpt lat="44.11368" lon="4.98377">
        <ele>57</ele>
        <time>2012-08-02T17:23:25Z</time>
      </trkpt>
      <trkpt lat="44.11376" lon="4.98359">
        <ele>56</ele>
        <time>2012-08-02T17:23:36Z</time>
      </trkpt>
      <trkpt lat="44.11382" lon="4.98349">
        <ele>56</ele>
        <time>2012-08-02T17:23:44Z</time>
      </trkpt>
      <trkpt lat="44.11385" lon="4.98338">
        <ele>56</ele>
        <time>2012-08-02T17:23:51Z</time>
      </trkpt>
      <trkpt lat="44.1139" lon="4.98329">
        <ele>55</ele>
        <time>2012-08-02T17:23:58Z</time>
      </trkpt>
      <trkpt lat="44.11394" lon="4.98319">
        <ele>56</ele>
        <time>2012-08-02T17:24:05Z</time>
      </trkpt>
      <trkpt lat="44.11399" lon="4.98311">
        <ele>57</ele>
        <time>2012-08-02T17:24:12Z</time>
      </trkpt>
      <trkpt lat="44.11403" lon="4.98301">
        <ele>59</ele>
        <time>2012-08-02T17:24:18Z</time>
      </trkpt>
      <trkpt lat="44.11409" lon="4.98293">
        <ele>56</ele>
        <time>2012-08-02T17:24:24Z</time>
      </trkpt>
      <trkpt lat="44.1141" lon="4.98291">
        <ele>57</ele>
        <time>2012-08-02T17:24:25Z</time>
      </trkpt>
      <trkpt lat="44.11422" lon="4.98278">
        <ele>58</ele>
        <time>2012-08-02T17:24:41Z</time>
      </trkpt>
      <trkpt lat="44.11428" lon="4.9827">
        <ele>56</ele>
        <time>2012-08-02T17:24:48Z</time>
      </trkpt>
      <trkpt lat="44.11434" lon="4.9826">
        <ele>59</ele>
        <time>2012-08-02T17:24:56Z</time>
      </trkpt>
      <trkpt lat="44.11438" lon="4.98251">
        <ele>58</ele>
        <time>2012-08-02T17:25:03Z</time>
      </trkpt>
      <trkpt lat="44.11443" lon="4.98242">
        <ele>63</ele>
        <time>2012-08-02T17:25:08Z</time>
      </trkpt>
      <trkpt lat="44.11449" lon="4.98233">
        <ele>67</ele>
        <time>2012-08-02T17:25:15Z</time>
      </trkpt>
      <trkpt lat="44.11454" lon="4.98224">
        <ele>65</ele>
        <time>2012-08-02T17:25:21Z</time>
      </trkpt>
      <trkpt lat="44.11459" lon="4.98215">
        <ele>64</ele>
        <time>2012-08-02T17:25:29Z</time>
      </trkpt>
      <trkpt lat="44.1146" lon="4.98214">
        <ele>61</ele>
        <time>2012-08-02T17:25:30Z</time>
      </trkpt>
      <trkpt lat="44.11466" lon="4.98195">
        <ele>57</ele>
        <time>2012-08-02T17:25:42Z</time>
      </trkpt>
      <trkpt lat="44.11466" lon="4.98184">
        <ele>58</ele>
        <time>2012-08-02T17:25:47Z</time>
      </trkpt>
      <trkpt lat="44.11466" lon="4.98172">
        <ele>58</ele>
        <time>2012-08-02T17:25:53Z</time>
      </trkpt>
      <trkpt lat="44.11465" lon="4.98161">
        <ele>63</ele>
        <time>2012-08-02T17:26:01Z</time>
      </trkpt>
      <trkpt lat="44.11464" lon="4.98149">
        <ele>62</ele>
        <time>2012-08-02T17:26:08Z</time>
      </trkpt>
      <trkpt lat="44.11467" lon="4.98137">
        <ele>62</ele>
        <time>2012-08-02T17:26:16Z</time>
      </trkpt>
      <trkpt lat="44.11466" lon="4.98126">
        <ele>69</ele>
        <time>2012-08-02T17:26:21Z</time>
      </trkpt>
      <trkpt lat="44.11461" lon="4.98116">
        <ele>65</ele>
        <time>2012-08-02T17:26:28Z</time>
      </trkpt>
      <trkpt lat="44.11461" lon="4.98105">
        <ele>63</ele>
        <time>2012-08-02T17:26:36Z</time>
      </trkpt>
      <trkpt lat="44.11461" lon="4.98102">
        <ele>60</ele>
        <time>2012-08-02T17:26:37Z</time>
      </trkpt>
      <trkpt lat="44.11462" lon="4.98083">
        <ele>59</ele>
        <time>2012-08-02T17:26:51Z</time>
      </trkpt>
      <trkpt lat="44.11462" lon="4.98072">
        <ele>58</ele>
        <time>2012-08-02T17:26:56Z</time>
      </trkpt>
      <trkpt lat="44.11463" lon="4.9806">
        <ele>64</ele>
        <time>2012-08-02T17:27:02Z</time>
      </trkpt>
      <trkpt lat="44.11464" lon="4.98048">
        <ele>63</ele>
        <time>2012-08-02T17:27:09Z</time>
      </trkpt>
      <trkpt lat="44.11467" lon="4.98038">
        <ele>65</ele>
        <time>2012-08-02T17:27:14Z</time>
      </trkpt>
      <trkpt lat="44.11469" lon="4.98026">
        <ele>62</ele>
        <time>2012-08-02T17:27:19Z</time>
      </trkpt>
      <trkpt lat="44.11471" lon="4.98015">
        <ele>61</ele>
        <time>2012-08-02T17:27:25Z</time>
      </trkpt>
      <trkpt lat="44.11471" lon="4.98003">
        <ele>58</ele>
        <time>2012-08-02T17:27:32Z</time>
      </trkpt>
      <trkpt lat="44.11472" lon="4.97992">
        <ele>58</ele>
        <time>2012-08-02T17:27:38Z</time>
      </trkpt>
      <trkpt lat="44.11473" lon="4.9799">
        <ele>58</ele>
        <time>2012-08-02T17:27:39Z</time>
      </trkpt>
      <trkpt lat="44.11475" lon="4.97969">
        <ele>59</ele>
        <time>2012-08-02T17:27:51Z</time>
      </trkpt>
      <trkpt lat="44.11477" lon="4.97959">
        <ele>63</ele>
        <time>2012-08-02T17:27:56Z</time>
      </trkpt>
      <trkpt lat="44.11476" lon="4.97948">
        <ele>63</ele>
        <time>2012-08-02T17:28:02Z</time>
      </trkpt>
      <trkpt lat="44.11475" lon="4.97936">
        <ele>62</ele>
        <time>2012-08-02T17:28:09Z</time>
      </trkpt>
      <trkpt lat="44.11476" lon="4.97924">
        <ele>62</ele>
        <time>2012-08-02T17:28:16Z</time>
      </trkpt>
      <trkpt lat="44.11479" lon="4.97914">
        <ele>61</ele>
        <time>2012-08-02T17:28:27Z</time>
      </trkpt>
      <trkpt lat="44.11477" lon="4.97902">
        <ele>63</ele>
        <time>2012-08-02T17:28:37Z</time>
      </trkpt>
      <trkpt lat="44.11477" lon="4.97891">
        <ele>63</ele>
        <time>2012-08-02T17:28:46Z</time>
      </trkpt>
      <trkpt lat="44.11476" lon="4.97888">
        <ele>62</ele>
        <time>2012-08-02T17:28:47Z</time>
      </trkpt>
      <trkpt lat="44.11473" lon="4.97869">
        <ele>62</ele>
        <time>2012-08-02T17:28:59Z</time>
      </trkpt>
      <trkpt lat="44.11474" lon="4.97857">
        <ele>62</ele>
        <time>2012-08-02T17:29:06Z</time>
      </trkpt>
      <trkpt lat="44.11472" lon="4.97847">
        <ele>61</ele>
        <time>2012-08-02T17:29:12Z</time>
      </trkpt>
      <trkpt lat="44.11473" lon="4.97834">
        <ele>61</ele>
        <time>2012-08-02T17:29:19Z</time>
      </trkpt>
      <trkpt lat="44.11473" lon="4.97824">
        <ele>61</ele>
        <time>2012-08-02T17:29:24Z</time>
      </trkpt>
      <trkpt lat="44.11475" lon="4.97812">
        <ele>63</ele>
        <time>2012-08-02T17:29:30Z</time>
      </trkpt>
      <trkpt lat="44.11474" lon="4.97801">
        <ele>62</ele>
        <time>2012-08-02T17:29:36Z</time>
      </trkpt>
      <trkpt lat="44.11474" lon="4.97789">
        <ele>61</ele>
        <time>2012-08-02T17:29:41Z</time>
      </trkpt>
      <trkpt lat="44.11473" lon="4.97778">
        <ele>63</ele>
        <time>2012-08-02T17:29:50Z</time>
      </trkpt>
      <trkpt lat="44.11473" lon="4.97776">
        <ele>64</ele>
        <time>2012-08-02T17:29:51Z</time>
      </trkpt>
      <trkpt lat="44.11478" lon="4.97757">
        <ele>66</ele>
        <time>2012-08-02T17:30:17Z</time>
      </trkpt>
      <trkpt lat="44.11479" lon="4.97746">
        <ele>67</ele>
        <time>2012-08-02T17:30:22Z</time>
      </trkpt>
      <trkpt lat="44.11483" lon="4.97735">
        <ele>67</ele>
        <time>2012-08-02T17:30:30Z</time>
      </trkpt>
      <trkpt lat="44.11486" lon="4.97724">
        <ele>69</ele>
        <time>2012-08-02T17:30:38Z</time>
      </trkpt>
      <trkpt lat="44.1149" lon="4.97715">
        <ele>69</ele>
        <time>2012-08-02T17:30:43Z</time>
      </trkpt>
      <trkpt lat="44.11493" lon="4.97704">
        <ele>71</ele>
        <time>2012-08-02T17:30:49Z</time>
      </trkpt>
      <trkpt lat="44.11497" lon="4.97694">
        <ele>72</ele>
        <time>2012-08-02T17:30:55Z</time>
      </trkpt>
      <trkpt lat="44.11498" lon="4.97692">
        <ele>72</ele>
        <time>2012-08-02T17:30:56Z</time>
      </trkpt>
      <trkpt lat="44.11502" lon="4.97672">
        <ele>70</ele>
        <time>2012-08-02T17:31:08Z</time>
      </trkpt>
      <trkpt lat="44.11507" lon="4.97663">
        <ele>71</ele>
        <time>2012-08-02T17:31:13Z</time>
      </trkpt>
      <trkpt lat="44.11511" lon="4.97652">
        <ele>73</ele>
        <time>2012-08-02T17:31:20Z</time>
      </trkpt>
      <trkpt lat="44.11514" lon="4.97642">
        <ele>76</ele>
        <time>2012-08-02T17:31:29Z</time>
      </trkpt>
      <trkpt lat="44.1151" lon="4.97632">
        <ele>76</ele>
        <time>2012-08-02T17:31:36Z</time>
      </trkpt>
      <trkpt lat="44.11511" lon="4.97621">
        <ele>74</ele>
        <time>2012-08-02T17:31:40Z</time>
      </trkpt>
      <trkpt lat="44.11516" lon="4.9761">
        <ele>75</ele>
        <time>2012-08-02T17:31:44Z</time>
      </trkpt>
      <trkpt lat="44.1152" lon="4.976">
        <ele>77</ele>
        <time>2012-08-02T17:31:49Z</time>
      </trkpt>
      <trkpt lat="44.1152" lon="4.97589">
        <ele>82</ele>
        <time>2012-08-02T17:31:58Z</time>
      </trkpt>
      <trkpt lat="44.1152" lon="4.97587">
        <ele>83</ele>
        <time>2012-08-02T17:31:59Z</time>
      </trkpt>
      <trkpt lat="44.11514" lon="4.9757">
        <ele>75</ele>
        <time>2012-08-02T17:32:11Z</time>
      </trkpt>
      <trkpt lat="44.11506" lon="4.97569">
        <ele>74</ele>
        <time>2012-08-02T17:32:17Z</time>
      </trkpt>
      <trkpt lat="44.11506" lon="4.97557">
        <ele>75</ele>
        <time>2012-08-02T17:32:26Z</time>
      </trkpt>
      <trkpt lat="44.11505" lon="4.97545">
        <ele>79</ele>
        <time>2012-08-02T17:32:38Z</time>
      </trkpt>
      <trkpt lat="44.11513" lon="4.97549">
        <ele>81</ele>
        <time>2012-08-02T17:32:49Z</time>
      </trkpt>
      <trkpt lat="44.1152" lon="4.97557">
        <ele>83</ele>
        <time>2012-08-02T17:32:54Z</time>
      </trkpt>
      <trkpt lat="44.11527" lon="4.97562">
        <ele>82</ele>
        <time>2012-08-02T17:32:59Z</time>
      </trkpt>
      <trkpt lat="44.11528" lon="4.97565">
        <ele>82</ele>
        <time>2012-08-02T17:33:00Z</time>
      </trkpt>
      <trkpt lat="44.11538" lon="4.97579">
        <ele>81</ele>
        <time>2012-08-02T17:33:06Z</time>
      </trkpt>
      <trkpt lat="44.11546" lon="4.97575">
        <ele>84</ele>
        <time>2012-08-02T17:33:14Z</time>
      </trkpt>
      <trkpt lat="44.11554" lon="4.97574">
        <ele>84</ele>
        <time>2012-08-02T17:33:20Z</time>
      </trkpt>
      <trkpt lat="44.11563" lon="4.97573">
        <ele>82</ele>
        <time>2012-08-02T17:33:26Z</time>
      </trkpt>
      <trkpt lat="44.11571" lon="4.97573">
        <ele>80</ele>
        <time>2012-08-02T17:33:31Z</time>
      </trkpt>
      <trkpt lat="44.1158" lon="4.9757">
        <ele>79</ele>
        <time>2012-08-02T17:33:37Z</time>
      </trkpt>
      <trkpt lat="44.11588" lon="4.97565">
        <ele>80</ele>
        <time>2012-08-02T17:33:44Z</time>
      </trkpt>
      <trkpt lat="44.11596" lon="4.97564">
        <ele>82</ele>
        <time>2012-08-02T17:33:51Z</time>
      </trkpt>
      <trkpt lat="44.11605" lon="4.97564">
        <ele>82</ele>
        <time>2012-08-02T17:33:58Z</time>
      </trkpt>
      <trkpt lat="44.11614" lon="4.97562">
        <ele>81</ele>
        <time>2012-08-02T17:34:03Z</time>
      </trkpt>
      <trkpt lat="44.11617" lon="4.97562">
        <ele>81</ele>
        <time>2012-08-02T17:34:04Z</time>
      </trkpt>
      <trkpt lat="44.11628" lon="4.97559">
        <ele>75</ele>
        <time>2012-08-02T17:34:21Z</time>
      </trkpt>
      <trkpt lat="44.11636" lon="4.9756">
        <ele>79</ele>
        <time>2012-08-02T17:34:26Z</time>
      </trkpt>
      <trkpt lat="44.11643" lon="4.97566">
        <ele>83</ele>
        <time>2012-08-02T17:34:30Z</time>
      </trkpt>
      <trkpt lat="44.11647" lon="4.97573">
        <ele>84</ele>
        <time>2012-08-02T17:34:32Z</time>
      </trkpt>
      <trkpt lat="44.11651" lon="4.97581">
        <ele>85</ele>
        <time>2012-08-02T17:34:34Z</time>
      </trkpt>
      <trkpt lat="44.11654" lon="4.97588">
        <ele>85</ele>
        <time>2012-08-02T17:34:36Z</time>
      </trkpt>
      <trkpt lat="44.11656" lon="4.97598">
        <ele>85</ele>
        <time>2012-08-02T17:34:38Z</time>
      </trkpt>
      <trkpt lat="44.11657" lon="4.9761">
        <ele>82</ele>
        <time>2012-08-02T17:34:41Z</time>
      </trkpt>
      <trkpt lat="44.1166" lon="4.9762">
        <ele>83</ele>
        <time>2012-08-02T17:34:45Z</time>
      </trkpt>
      <trkpt lat="44.11664" lon="4.9763">
        <ele>86</ele>
        <time>2012-08-02T17:34:47Z</time>
      </trkpt>
      <trkpt lat="44.11667" lon="4.9764">
        <ele>85</ele>
        <time>2012-08-02T17:34:51Z</time>
      </trkpt>
      <trkpt lat="44.11669" lon="4.97652">
        <ele>86</ele>
        <time>2012-08-02T17:34:55Z</time>
      </trkpt>
      <trkpt lat="44.11677" lon="4.97657">
        <ele>92</ele>
        <time>2012-08-02T17:34:58Z</time>
      </trkpt>
      <trkpt lat="44.11683" lon="4.9766">
        <ele>93</ele>
        <time>2012-08-02T17:35:00Z</time>
      </trkpt>
      <trkpt lat="44.1169" lon="4.97664">
        <ele>92</ele>
        <time>2012-08-02T17:35:02Z</time>
      </trkpt>
      <trkpt lat="44.11698" lon="4.97666">
        <ele>93</ele>
        <time>2012-08-02T17:35:05Z</time>
      </trkpt>
      <trkpt lat="44.11701" lon="4.97666">
        <ele>92</ele>
        <time>2012-08-02T17:35:06Z</time>
      </trkpt>
      <trkpt lat="44.11713" lon="4.97663">
        <ele>92</ele>
        <time>2012-08-02T17:35:13Z</time>
      </trkpt>
      <trkpt lat="44.11721" lon="4.97659">
        <ele>89</ele>
        <time>2012-08-02T17:35:17Z</time>
      </trkpt>
      <trkpt lat="44.11727" lon="4.97659">
        <ele>89</ele>
        <time>2012-08-02T17:35:19Z</time>
      </trkpt>
      <trkpt lat="44.11734" lon="4.9766">
        <ele>89</ele>
        <time>2012-08-02T17:35:21Z</time>
      </trkpt>
      <trkpt lat="44.11743" lon="4.9766">
        <ele>88</ele>
        <time>2012-08-02T17:35:24Z</time>
      </trkpt>
      <trkpt lat="44.11751" lon="4.97661">
        <ele>88</ele>
        <time>2012-08-02T17:35:27Z</time>
      </trkpt>
      <trkpt lat="44.11757" lon="4.97662">
        <ele>88</ele>
        <time>2012-08-02T17:35:29Z</time>
      </trkpt>
      <trkpt lat="44.11764" lon="4.97663">
        <ele>87</ele>
        <time>2012-08-02T17:35:31Z</time>
      </trkpt>
      <trkpt lat="44.11771" lon="4.97666">
        <ele>86</ele>
        <time>2012-08-02T17:35:33Z</time>
      </trkpt>
      <trkpt lat="44.11777" lon="4.97668">
        <ele>85</ele>
        <time>2012-08-02T17:35:35Z</time>
      </trkpt>
      <trkpt lat="44.11785" lon="4.97671">
        <ele>87</ele>
        <time>2012-08-02T17:35:37Z</time>
      </trkpt>
      <trkpt lat="44.11793" lon="4.97676">
        <ele>87</ele>
        <time>2012-08-02T17:35:39Z</time>
      </trkpt>
      <trkpt lat="44.11799" lon="4.97682">
        <ele>88</ele>
        <time>2012-08-02T17:35:41Z</time>
      </trkpt>
      <trkpt lat="44.11806" lon="4.97686">
        <ele>89</ele>
        <time>2012-08-02T17:35:43Z</time>
      </trkpt>
      <trkpt lat="44.11813" lon="4.9769">
        <ele>93</ele>
        <time>2012-08-02T17:35:45Z</time>
      </trkpt>
      <trkpt lat="44.11819" lon="4.97692">
        <ele>94</ele>
        <time>2012-08-02T17:35:47Z</time>
      </trkpt>
      <trkpt lat="44.11826" lon="4.97695">
        <ele>93</ele>
        <time>2012-08-02T17:35:49Z</time>
      </trkpt>
      <trkpt lat="44.11833" lon="4.97697">
        <ele>93</ele>
        <time>2012-08-02T17:35:51Z</time>
      </trkpt>
      <trkpt lat="44.11839" lon="4.97702">
        <ele>91</ele>
        <time>2012-08-02T17:35:52Z</time>
      </trkpt>
      <trkpt lat="44.11844" lon="4.97705">
        <ele>91</ele>
        <time>2012-08-02T17:35:53Z</time>
      </trkpt>
      <trkpt lat="44.11852" lon="4.97709">
        <ele>92</ele>
        <time>2012-08-02T17:35:55Z</time>
      </trkpt>
      <trkpt lat="44.11857" lon="4.97713">
        <ele>91</ele>
        <time>2012-08-02T17:35:56Z</time>
      </trkpt>
      <trkpt lat="44.11861" lon="4.97715">
        <ele>91</ele>
        <time>2012-08-02T17:35:57Z</time>
      </trkpt>
      <trkpt lat="44.11866" lon="4.97718">
        <ele>92</ele>
        <time>2012-08-02T17:35:58Z</time>
      </trkpt>
      <trkpt lat="44.11875" lon="4.97726">
        <ele>92</ele>
        <time>2012-08-02T17:35:59Z</time>
      </trkpt>
      <trkpt lat="44.11879" lon="4.97729">
        <ele>92</ele>
        <time>2012-08-02T17:36:00Z</time>
      </trkpt>
      <trkpt lat="44.11887" lon="4.97735">
        <ele>91</ele>
        <time>2012-08-02T17:36:01Z</time>
      </trkpt>
      <trkpt lat="44.11894" lon="4.97741">
        <ele>91</ele>
        <time>2012-08-02T17:36:03Z</time>
      </trkpt>
      <trkpt lat="44.11901" lon="4.97744">
        <ele>93</ele>
        <time>2012-08-02T17:36:04Z</time>
      </trkpt>
      <trkpt lat="44.11906" lon="4.97746">
        <ele>94</ele>
        <time>2012-08-02T17:36:05Z</time>
      </trkpt>
      <trkpt lat="44.11915" lon="4.97751">
        <ele>94</ele>
        <time>2012-08-02T17:36:06Z</time>
      </trkpt>
      <trkpt lat="44.11921" lon="4.97753">
        <ele>94</ele>
        <time>2012-08-02T17:36:07Z</time>
      </trkpt>
      <trkpt lat="44.11925" lon="4.97752">
        <ele>93</ele>
        <time>2012-08-02T17:36:08Z</time>
      </trkpt>
      <trkpt lat="44.11933" lon="4.97747">
        <ele>93</ele>
        <time>2012-08-02T17:36:10Z</time>
      </trkpt>
      <trkpt lat="44.11939" lon="4.97748">
        <ele>92</ele>
        <time>2012-08-02T17:36:11Z</time>
      </trkpt>
      <trkpt lat="44.11946" lon="4.97748">
        <ele>92</ele>
        <time>2012-08-02T17:36:13Z</time>
      </trkpt>
      <trkpt lat="44.11955" lon="4.97749">
        <ele>93</ele>
        <time>2012-08-02T17:36:15Z</time>
      </trkpt>
      <trkpt lat="44.1196" lon="4.97747">
        <ele>91</ele>
        <time>2012-08-02T17:36:16Z</time>
      </trkpt>
      <trkpt lat="44.11969" lon="4.97749">
        <ele>90</ele>
        <time>2012-08-02T17:36:19Z</time>
      </trkpt>
      <trkpt lat="44.11974" lon="4.97748">
        <ele>88</ele>
        <time>2012-08-02T17:36:20Z</time>
      </trkpt>
      <trkpt lat="44.11979" lon="4.97748">
        <ele>89</ele>
        <time>2012-08-02T17:36:21Z</time>
      </trkpt>
      <trkpt lat="44.11989" lon="4.97756">
        <ele>87</ele>
        <time>2012-08-02T17:36:22Z</time>
      </trkpt>
      <trkpt lat="44.11996" lon="4.97756">
        <ele>85</ele>
        <time>2012-08-02T17:36:23Z</time>
      </trkpt>
      <trkpt lat="44.12005" lon="4.97755">
        <ele>86</ele>
        <time>2012-08-02T17:36:25Z</time>
      </trkpt>
      <trkpt lat="44.12009" lon="4.97755">
        <ele>86</ele>
        <time>2012-08-02T17:36:26Z</time>
      </trkpt>
      <trkpt lat="44.12014" lon="4.97753">
        <ele>86</ele>
        <time>2012-08-02T17:36:27Z</time>
      </trkpt>
      <trkpt lat="44.12018" lon="4.97754">
        <ele>86</ele>
        <time>2012-08-02T17:36:28Z</time>
      </trkpt>
      <trkpt lat="44.12024" lon="4.97752">
        <ele>81</ele>
        <time>2012-08-02T17:36:29Z</time>
      </trkpt>
      <trkpt lat="44.12028" lon="4.97751">
        <ele>78</ele>
        <time>2012-08-02T17:36:30Z</time>
      </trkpt>
      <trkpt lat="44.12033" lon="4.97749">
        <ele>78</ele>
        <time>2012-08-02T17:36:31Z</time>
      </trkpt>
      <trkpt lat="44.12039" lon="4.97747">
        <ele>79</ele>
        <time>2012-08-02T17:36:32Z</time>
      </trkpt>
      <trkpt lat="44.12046" lon="4.97744">
        <ele>79</ele>
        <time>2012-08-02T17:36:33Z</time>
      </trkpt>
      <trkpt lat="44.12051" lon="4.97746">
        <ele>80</ele>
        <time>2012-08-02T17:36:34Z</time>
      </trkpt>
      <trkpt lat="44.12056" lon="4.97745">
        <ele>80</ele>
        <time>2012-08-02T17:36:35Z</time>
      </trkpt>
      <trkpt lat="44.12061" lon="4.97745">
        <ele>82</ele>
        <time>2012-08-02T17:36:37Z</time>
      </trkpt>
      <trkpt lat="44.12067" lon="4.97749">
        <ele>80</ele>
        <time>2012-08-02T17:36:37Z</time>
      </trkpt>
      <trkpt lat="44.12072" lon="4.97748">
        <ele>80</ele>
        <time>2012-08-02T17:36:38Z</time>
      </trkpt>
      <trkpt lat="44.12078" lon="4.97749">
        <ele>80</ele>
        <time>2012-08-02T17:36:39Z</time>
      </trkpt>
      <trkpt lat="44.12085" lon="4.97745">
        <ele>80</ele>
        <time>2012-08-02T17:36:41Z</time>
      </trkpt>
      <trkpt lat="44.12091" lon="4.97744">
        <ele>80</ele>
        <time>2012-08-02T17:36:42Z</time>
      </trkpt>
      <trkpt lat="44.121" lon="4.97741">
        <ele>81</ele>
        <time>2012-08-02T17:36:44Z</time>
      </trkpt>
      <trkpt lat="44.12108" lon="4.97739">
        <ele>81</ele>
        <time>2012-08-02T17:36:46Z</time>
      </trkpt>
      <trkpt lat="44.12115" lon="4.97734">
        <ele>82</ele>
        <time>2012-08-02T17:36:48Z</time>
      </trkpt>
      <trkpt lat="44.12121" lon="4.97733">
        <ele>84</ele>
        <time>2012-08-02T17:36:50Z</time>
      </trkpt>
      <trkpt lat="44.12129" lon="4.97732">
        <ele>84</ele>
        <time>2012-08-02T17:36:52Z</time>
      </trkpt>
      <trkpt lat="44.12133" lon="4.9773">
        <ele>84</ele>
        <time>2012-08-02T17:36:53Z</time>
      </trkpt>
      <trkpt lat="44.12139" lon="4.97735">
        <ele>84</ele>
        <time>2012-08-02T17:36:54Z</time>
      </trkpt>
      <trkpt lat="44.12148" lon="4.97735">
        <ele>85</ele>
        <time>2012-08-02T17:36:56Z</time>
      </trkpt>
      <trkpt lat="44.12156" lon="4.97735">
        <ele>85</ele>
        <time>2012-08-02T17:36:58Z</time>
      </trkpt>
      <trkpt lat="44.12164" lon="4.97737">
        <ele>87</ele>
        <time>2012-08-02T17:37:00Z</time>
      </trkpt>
      <trkpt lat="44.12172" lon="4.97735">
        <ele>87</ele>
        <time>2012-08-02T17:37:01Z</time>
      </trkpt>
      <trkpt lat="44.12177" lon="4.97736">
        <ele>88</ele>
        <time>2012-08-02T17:37:02Z</time>
      </trkpt>
      <trkpt lat="44.12181" lon="4.97731">
        <ele>87</ele>
        <time>2012-08-02T17:37:03Z</time>
      </trkpt>
      <trkpt lat="44.12188" lon="4.97733">
        <ele>85</ele>
        <time>2012-08-02T17:37:04Z</time>
      </trkpt>
      <trkpt lat="44.12197" lon="4.97731">
        <ele>85</ele>
        <time>2012-08-02T17:37:06Z</time>
      </trkpt>
      <trkpt lat="44.12203" lon="4.97732">
        <ele>85</ele>
        <time>2012-08-02T17:37:07Z</time>
      </trkpt>
      <trkpt lat="44.1221" lon="4.97732">
        <ele>86</ele>
        <time>2012-08-02T17:37:08Z</time>
      </trkpt>
      <trkpt lat="44.12215" lon="4.9773">
        <ele>84</ele>
        <time>2012-08-02T17:37:09Z</time>
      </trkpt>
      <trkpt lat="44.12219" lon="4.97726">
        <ele>87</ele>
        <time>2012-08-02T17:37:10Z</time>
      </trkpt>
      <trkpt lat="44.12226" lon="4.9772">
        <ele>87</ele>
        <time>2012-08-02T17:37:12Z</time>
      </trkpt>
      <trkpt lat="44.12229" lon="4.97718">
        <ele>87</ele>
        <time>2012-08-02T17:37:13Z</time>
      </trkpt>
      <trkpt lat="44.12235" lon="4.97716">
        <ele>88</ele>
        <time>2012-08-02T17:37:14Z</time>
      </trkpt>
      <trkpt lat="44.1224" lon="4.97716">
        <ele>88</ele>
        <time>2012-08-02T17:37:15Z</time>
      </trkpt>
      <trkpt lat="44.12247" lon="4.97718">
        <ele>86</ele>
        <time>2012-08-02T17:37:16Z</time>
      </trkpt>
      <trkpt lat="44.12253" lon="4.97719">
        <ele>86</ele>
        <time>2012-08-02T17:37:17Z</time>
      </trkpt>
      <trkpt lat="44.12257" lon="4.9772">
        <ele>87</ele>
        <time>2012-08-02T17:37:18Z</time>
      </trkpt>
      <trkpt lat="44.12262" lon="4.9772">
        <ele>89</ele>
        <time>2012-08-02T17:37:19Z</time>
      </trkpt>
      <trkpt lat="44.12267" lon="4.97718">
        <ele>91</ele>
        <time>2012-08-02T17:37:20Z</time>
      </trkpt>
      <trkpt lat="44.12272" lon="4.97718">
        <ele>90</ele>
        <time>2012-08-02T17:37:21Z</time>
      </trkpt>
      <trkpt lat="44.12277" lon="4.97716">
        <ele>90</ele>
        <time>2012-08-02T17:37:22Z</time>
      </trkpt>
      <trkpt lat="44.12284" lon="4.97718">
        <ele>90</ele>
        <time>2012-08-02T17:37:23Z</time>
      </trkpt>
      <trkpt lat="44.12288" lon="4.97721">
        <ele>89</ele>
        <time>2012-08-02T17:37:24Z</time>
      </trkpt>
      <trkpt lat="44.12293" lon="4.97722">
        <ele>89</ele>
        <time>2012-08-02T17:37:25Z</time>
      </trkpt>
      <trkpt lat="44.12301" lon="4.97725">
        <ele>90</ele>
        <time>2012-08-02T17:37:26Z</time>
      </trkpt>
      <trkpt lat="44.12309" lon="4.97724">
        <ele>88</ele>
        <time>2012-08-02T17:37:28Z</time>
      </trkpt>
      <trkpt lat="44.12316" lon="4.97726">
        <ele>95</ele>
        <time>2012-08-02T17:37:30Z</time>
      </trkpt>
      <trkpt lat="44.12324" lon="4.97727">
        <ele>96</ele>
        <time>2012-08-02T17:37:32Z</time>
      </trkpt>
      <trkpt lat="44.12333" lon="4.97728">
        <ele>97</ele>
        <time>2012-08-02T17:37:33Z</time>
      </trkpt>
      <trkpt lat="44.12339" lon="4.97729">
        <ele>97</ele>
        <time>2012-08-02T17:37:34Z</time>
      </trkpt>
      <trkpt lat="44.12346" lon="4.97732">
        <ele>99</ele>
        <time>2012-08-02T17:37:35Z</time>
      </trkpt>
      <trkpt lat="44.12351" lon="4.97733">
        <ele>99</ele>
        <time>2012-08-02T17:37:36Z</time>
      </trkpt>
      <trkpt lat="44.12358" lon="4.97727">
        <ele>99</ele>
        <time>2012-08-02T17:37:37Z</time>
      </trkpt>
      <trkpt lat="44.12366" lon="4.97727">
        <ele>99</ele>
        <time>2012-08-02T17:37:38Z</time>
      </trkpt>
      <trkpt lat="44.12372" lon="4.97726">
        <ele>98</ele>
        <time>2012-08-02T17:37:39Z</time>
      </trkpt>
      <trkpt lat="44.12377" lon="4.97736">
        <ele>96</ele>
        <time>2012-08-02T17:37:41Z</time>
      </trkpt>
      <trkpt lat="44.12385" lon="4.97739">
        <ele>96</ele>
        <time>2012-08-02T17:37:46Z</time>
      </trkpt>
      <trkpt lat="44.12392" lon="4.97734">
        <ele>96</ele>
        <time>2012-08-02T17:37:49Z</time>
      </trkpt>
      <trkpt lat="44.12399" lon="4.97731">
        <ele>98</ele>
        <time>2012-08-02T17:37:54Z</time>
      </trkpt>
      <trkpt lat="44.12407" lon="4.97732">
        <ele>94</ele>
        <time>2012-08-02T17:37:57Z</time>
      </trkpt>
      <trkpt lat="44.12414" lon="4.97731">
        <ele>92</ele>
        <time>2012-08-02T17:37:59Z</time>
      </trkpt>
      <trkpt lat="44.1242" lon="4.97729">
        <ele>91</ele>
        <time>2012-08-02T17:38:01Z</time>
      </trkpt>
      <trkpt lat="44.12427" lon="4.97728">
        <ele>92</ele>
        <time>2012-08-02T17:38:04Z</time>
      </trkpt>
      <trkpt lat="44.12436" lon="4.97725">
        <ele>93</ele>
        <time>2012-08-02T17:38:07Z</time>
      </trkpt>
      <trkpt lat="44.12439" lon="4.97724">
        <ele>93</ele>
        <time>2012-08-02T17:38:08Z</time>
      </trkpt>
      <trkpt lat="44.1245" lon="4.97719">
        <ele>90</ele>
        <time>2012-08-02T17:38:12Z</time>
      </trkpt>
      <trkpt lat="44.12457" lon="4.97715">
        <ele>88</ele>
        <time>2012-08-02T17:38:15Z</time>
      </trkpt>
      <trkpt lat="44.12463" lon="4.97713">
        <ele>89</ele>
        <time>2012-08-02T17:38:18Z</time>
      </trkpt>
      <trkpt lat="44.1247" lon="4.97712">
        <ele>88</ele>
        <time>2012-08-02T17:38:20Z</time>
      </trkpt>
      <trkpt lat="44.12477" lon="4.97711">
        <ele>89</ele>
        <time>2012-08-02T17:38:22Z</time>
      </trkpt>
      <trkpt lat="44.12486" lon="4.97711">
        <ele>89</ele>
        <time>2012-08-02T17:38:24Z</time>
      </trkpt>
      <trkpt lat="44.12493" lon="4.97712">
        <ele>90</ele>
        <time>2012-08-02T17:38:26Z</time>
      </trkpt>
      <trkpt lat="44.12501" lon="4.97712">
        <ele>91</ele>
        <time>2012-08-02T17:38:29Z</time>
      </trkpt>
      <trkpt lat="44.12509" lon="4.97707">
        <ele>91</ele>
        <time>2012-08-02T17:38:31Z</time>
      </trkpt>
      <trkpt lat="44.12513" lon="4.97703">
        <ele>89</ele>
        <time>2012-08-02T17:38:32Z</time>
      </trkpt>
      <trkpt lat="44.1252" lon="4.97697">
        <ele>89</ele>
        <time>2012-08-02T17:38:34Z</time>
      </trkpt>
      <trkpt lat="44.12526" lon="4.9769">
        <ele>92</ele>
        <time>2012-08-02T17:38:36Z</time>
      </trkpt>
      <trkpt lat="44.12532" lon="4.97684">
        <ele>90</ele>
        <time>2012-08-02T17:38:38Z</time>
      </trkpt>
      <trkpt lat="44.12539" lon="4.97677">
        <ele>90</ele>
        <time>2012-08-02T17:38:41Z</time>
      </trkpt>
      <trkpt lat="44.12544" lon="4.97688">
        <ele>92</ele>
        <time>2012-08-02T17:38:54Z</time>
      </trkpt>
      <trkpt lat="44.12551" lon="4.97684">
        <ele>95</ele>
        <time>2012-08-02T17:38:59Z</time>
      </trkpt>
      <trkpt lat="44.12557" lon="4.97676">
        <ele>95</ele>
        <time>2012-08-02T17:39:06Z</time>
      </trkpt>
      <trkpt lat="44.12563" lon="4.97673">
        <ele>95</ele>
        <time>2012-08-02T17:39:10Z</time>
      </trkpt>
      <trkpt lat="44.12566" lon="4.97672">
        <ele>96</ele>
        <time>2012-08-02T17:39:11Z</time>
      </trkpt>
      <trkpt lat="44.12576" lon="4.97666">
        <ele>96</ele>
        <time>2012-08-02T17:39:16Z</time>
      </trkpt>
      <trkpt lat="44.12583" lon="4.97662">
        <ele>96</ele>
        <time>2012-08-02T17:39:20Z</time>
      </trkpt>
      <trkpt lat="44.12589" lon="4.97657">
        <ele>95</ele>
        <time>2012-08-02T17:39:24Z</time>
      </trkpt>
      <trkpt lat="44.12597" lon="4.97652">
        <ele>92</ele>
        <time>2012-08-02T17:39:32Z</time>
      </trkpt>
      <trkpt lat="44.12598" lon="4.9764">
        <ele>89</ele>
        <time>2012-08-02T17:39:47Z</time>
      </trkpt>
      <trkpt lat="44.12604" lon="4.9763">
        <ele>87</ele>
        <time>2012-08-02T17:39:52Z</time>
      </trkpt>
      <trkpt lat="44.12612" lon="4.97628">
        <ele>87</ele>
        <time>2012-08-02T17:39:55Z</time>
      </trkpt>
      <trkpt lat="44.12619" lon="4.9762">
        <ele>86</ele>
        <time>2012-08-02T17:40:02Z</time>
      </trkpt>
      <trkpt lat="44.12617" lon="4.97608">
        <ele>91</ele>
        <time>2012-08-02T17:40:08Z</time>
      </trkpt>
      <trkpt lat="44.12619" lon="4.97596">
        <ele>89</ele>
        <time>2012-08-02T17:40:17Z</time>
      </trkpt>
      <trkpt lat="44.12619" lon="4.97596">
        <ele>88</ele>
        <time>2012-08-02T17:40:18Z</time>
      </trkpt>
      <trkpt lat="44.12634" lon="4.97587">
        <ele>83</ele>
        <time>2012-08-02T17:40:36Z</time>
      </trkpt>
      <trkpt lat="44.12641" lon="4.9758">
        <ele>84</ele>
        <time>2012-08-02T17:40:44Z</time>
      </trkpt>
      <trkpt lat="44.12649" lon="4.97578">
        <ele>85</ele>
        <time>2012-08-02T17:40:48Z</time>
      </trkpt>
      <trkpt lat="44.12657" lon="4.97572">
        <ele>86</ele>
        <time>2012-08-02T17:40:55Z</time>
      </trkpt>
      <trkpt lat="44.12662" lon="4.97563">
        <ele>85</ele>
        <time>2012-08-02T17:41:03Z</time>
      </trkpt>
      <trkpt lat="44.1266" lon="4.97553">
        <ele>86</ele>
        <time>2012-08-02T17:41:07Z</time>
      </trkpt>
      <trkpt lat="44.12665" lon="4.97544">
        <ele>89</ele>
        <time>2012-08-02T17:41:10Z</time>
      </trkpt>
      <trkpt lat="44.12672" lon="4.97539">
        <ele>91</ele>
        <time>2012-08-02T17:41:13Z</time>
      </trkpt>
      <trkpt lat="44.12678" lon="4.97538">
        <ele>90</ele>
        <time>2012-08-02T17:41:14Z</time>
      </trkpt>
      <trkpt lat="44.12685" lon="4.97534">
        <ele>90</ele>
        <time>2012-08-02T17:41:16Z</time>
      </trkpt>
      <trkpt lat="44.1269" lon="4.97531">
        <ele>90</ele>
        <time>2012-08-02T17:41:18Z</time>
      </trkpt>
      <trkpt lat="44.12695" lon="4.97529">
        <ele>95</ele>
        <time>2012-08-02T17:41:19Z</time>
      </trkpt>
      <trkpt lat="44.12703" lon="4.97523">
        <ele>98</ele>
        <time>2012-08-02T17:41:22Z</time>
      </trkpt>
      <trkpt lat="44.12708" lon="4.97518">
        <ele>97</ele>
        <time>2012-08-02T17:41:24Z</time>
      </trkpt>
      <trkpt lat="44.12715" lon="4.97514">
        <ele>90</ele>
        <time>2012-08-02T17:41:26Z</time>
      </trkpt>
      <trkpt lat="44.12722" lon="4.97511">
        <ele>89</ele>
        <time>2012-08-02T17:41:28Z</time>
      </trkpt>
      <trkpt lat="44.1273" lon="4.97509">
        <ele>89</ele>
        <time>2012-08-02T17:41:30Z</time>
      </trkpt>
      <trkpt lat="44.12737" lon="4.97507">
        <ele>90</ele>
        <time>2012-08-02T17:41:32Z</time>
      </trkpt>
      <trkpt lat="44.12744" lon="4.97508">
        <ele>87</ele>
        <time>2012-08-02T17:41:34Z</time>
      </trkpt>
      <trkpt lat="44.12751" lon="4.97506">
        <ele>89</ele>
        <time>2012-08-02T17:41:36Z</time>
      </trkpt>
      <trkpt lat="44.12756" lon="4.975">
        <ele>92</ele>
        <time>2012-08-02T17:41:38Z</time>
      </trkpt>
      <trkpt lat="44.12759" lon="4.97496">
        <ele>92</ele>
        <time>2012-08-02T17:41:39Z</time>
      </trkpt>
      <trkpt lat="44.12761" lon="4.97489">
        <ele>91</ele>
        <time>2012-08-02T17:41:40Z</time>
      </trkpt>
      <trkpt lat="44.12764" lon="4.97479">
        <ele>90</ele>
        <time>2012-08-02T17:41:42Z</time>
      </trkpt>
      <trkpt lat="44.12765" lon="4.9747">
        <ele>89</ele>
        <time>2012-08-02T17:41:44Z</time>
      </trkpt>
      <trkpt lat="44.12767" lon="4.97461">
        <ele>89</ele>
        <time>2012-08-02T17:41:46Z</time>
      </trkpt>
      <trkpt lat="44.12771" lon="4.97451">
        <ele>90</ele>
        <time>2012-08-02T17:41:49Z</time>
      </trkpt>
      <trkpt lat="44.12773" lon="4.97441">
        <ele>91</ele>
        <time>2012-08-02T17:41:53Z</time>
      </trkpt>
      <trkpt lat="44.1278" lon="4.97438">
        <ele>93</ele>
        <time>2012-08-02T17:42:04Z</time>
      </trkpt>
      <trkpt lat="44.12788" lon="4.97443">
        <ele>94</ele>
        <time>2012-08-02T17:42:07Z</time>
      </trkpt>
      <trkpt lat="44.12797" lon="4.97444">
        <ele>91</ele>
        <time>2012-08-02T17:42:11Z</time>
      </trkpt>
      <trkpt lat="44.12805" lon="4.97444">
        <ele>92</ele>
        <time>2012-08-02T17:42:14Z</time>
      </trkpt>
      <trkpt lat="44.1281" lon="4.9744">
        <ele>94</ele>
        <time>2012-08-02T17:42:16Z</time>
      </trkpt>
      <trkpt lat="44.12817" lon="4.97436">
        <ele>93</ele>
        <time>2012-08-02T17:42:18Z</time>
      </trkpt>
      <trkpt lat="44.1282" lon="4.97435">
        <ele>94</ele>
        <time>2012-08-02T17:42:19Z</time>
      </trkpt>
      <trkpt lat="44.1283" lon="4.97427">
        <ele>92</ele>
        <time>2012-08-02T17:42:23Z</time>
      </trkpt>
      <trkpt lat="44.12836" lon="4.97423">
        <ele>93</ele>
        <time>2012-08-02T17:42:25Z</time>
      </trkpt>
      <trkpt lat="44.12842" lon="4.97421">
        <ele>89</ele>
        <time>2012-08-02T17:42:27Z</time>
      </trkpt>
      <trkpt lat="44.12849" lon="4.97418">
        <ele>89</ele>
        <time>2012-08-02T17:42:29Z</time>
      </trkpt>
      <trkpt lat="44.12855" lon="4.97415">
        <ele>91</ele>
        <time>2012-08-02T17:42:31Z</time>
      </trkpt>
      <trkpt lat="44.12861" lon="4.97409">
        <ele>91</ele>
        <time>2012-08-02T17:42:33Z</time>
      </trkpt>
      <trkpt lat="44.12867" lon="4.97407">
        <ele>88</ele>
        <time>2012-08-02T17:42:35Z</time>
      </trkpt>
      <trkpt lat="44.12874" lon="4.97404">
        <ele>87</ele>
        <time>2012-08-02T17:42:37Z</time>
      </trkpt>
      <trkpt lat="44.1288" lon="4.97403">
        <ele>89</ele>
        <time>2012-08-02T17:42:39Z</time>
      </trkpt>
      <trkpt lat="44.12888" lon="4.97398">
        <ele>85</ele>
        <time>2012-08-02T17:42:42Z</time>
      </trkpt>
      <trkpt lat="44.12894" lon="4.97395">
        <ele>83</ele>
        <time>2012-08-02T17:42:44Z</time>
      </trkpt>
      <trkpt lat="44.12902" lon="4.97392">
        <ele>85</ele>
        <time>2012-08-02T17:42:46Z</time>
      </trkpt>
      <trkpt lat="44.12908" lon="4.9739">
        <ele>80</ele>
        <time>2012-08-02T17:42:48Z</time>
      </trkpt>
      <trkpt lat="44.12914" lon="4.97387">
        <ele>81</ele>
        <time>2012-08-02T17:42:50Z</time>
      </trkpt>
      <trkpt lat="44.12922" lon="4.97384">
        <ele>84</ele>
        <time>2012-08-02T17:42:53Z</time>
      </trkpt>
      <trkpt lat="44.12929" lon="4.97382">
        <ele>85</ele>
        <time>2012-08-02T17:42:56Z</time>
      </trkpt>
      <trkpt lat="44.12936" lon="4.97377">
        <ele>84</ele>
        <time>2012-08-02T17:42:59Z</time>
      </trkpt>
      <trkpt lat="44.12944" lon="4.97373">
        <ele>87</ele>
        <time>2012-08-02T17:43:02Z</time>
      </trkpt>
      <trkpt lat="44.1295" lon="4.97366">
        <ele>89</ele>
        <time>2012-08-02T17:43:05Z</time>
      </trkpt>
      <trkpt lat="44.12957" lon="4.97359">
        <ele>89</ele>
        <time>2012-08-02T17:43:08Z</time>
      </trkpt>
      <trkpt lat="44.12963" lon="4.97356">
        <ele>90</ele>
        <time>2012-08-02T17:43:10Z</time>
      </trkpt>
      <trkpt lat="44.1297" lon="4.97355">
        <ele>93</ele>
        <time>2012-08-02T17:43:12Z</time>
      </trkpt>
      <trkpt lat="44.12978" lon="4.97353">
        <ele>94</ele>
        <time>2012-08-02T17:43:15Z</time>
      </trkpt>
      <trkpt lat="44.12985" lon="4.97347">
        <ele>94</ele>
        <time>2012-08-02T17:43:18Z</time>
      </trkpt>
      <trkpt lat="44.12992" lon="4.97341">
        <ele>91</ele>
        <time>2012-08-02T17:43:21Z</time>
      </trkpt>
      <trkpt lat="44.12995" lon="4.9734">
        <ele>90</ele>
        <time>2012-08-02T17:43:22Z</time>
      </trkpt>
      <trkpt lat="44.13005" lon="4.97337">
        <ele>90</ele>
        <time>2012-08-02T17:43:25Z</time>
      </trkpt>
      <trkpt lat="44.13013" lon="4.97338">
        <ele>90</ele>
        <time>2012-08-02T17:43:27Z</time>
      </trkpt>
      <trkpt lat="44.13022" lon="4.97337">
        <ele>90</ele>
        <time>2012-08-02T17:43:29Z</time>
      </trkpt>
      <trkpt lat="44.13027" lon="4.97336">
        <ele>91</ele>
        <time>2012-08-02T17:43:30Z</time>
      </trkpt>
      <trkpt lat="44.13035" lon="4.97334">
        <ele>91</ele>
        <time>2012-08-02T17:43:32Z</time>
      </trkpt>
      <trkpt lat="44.13041" lon="4.97331">
        <ele>87</ele>
        <time>2012-08-02T17:43:33Z</time>
      </trkpt>
      <trkpt lat="44.13045" lon="4.97329">
        <ele>87</ele>
        <time>2012-08-02T17:43:34Z</time>
      </trkpt>
      <trkpt lat="44.13055" lon="4.97329">
        <ele>86</ele>
        <time>2012-08-02T17:43:35Z</time>
      </trkpt>
      <trkpt lat="44.13057" lon="4.97322">
        <ele>85</ele>
        <time>2012-08-02T17:43:36Z</time>
      </trkpt>
      <trkpt lat="44.13061" lon="4.97319">
        <ele>84</ele>
        <time>2012-08-02T17:43:37Z</time>
      </trkpt>
      <trkpt lat="44.13066" lon="4.97317">
        <ele>84</ele>
        <time>2012-08-02T17:43:38Z</time>
      </trkpt>
      <trkpt lat="44.13074" lon="4.97313">
        <ele>86</ele>
        <time>2012-08-02T17:43:40Z</time>
      </trkpt>
      <trkpt lat="44.13079" lon="4.97312">
        <ele>85</ele>
        <time>2012-08-02T17:43:41Z</time>
      </trkpt>
      <trkpt lat="44.13083" lon="4.9731">
        <ele>85</ele>
        <time>2012-08-02T17:43:42Z</time>
      </trkpt>
      <trkpt lat="44.1309" lon="4.97311">
        <ele>85</ele>
        <time>2012-08-02T17:43:43Z</time>
      </trkpt>
      <trkpt lat="44.13097" lon="4.97315">
        <ele>84</ele>
        <time>2012-08-02T17:43:44Z</time>
      </trkpt>
      <trkpt lat="44.13104" lon="4.97316">
        <ele>84</ele>
        <time>2012-08-02T17:43:45Z</time>
      </trkpt>
      <trkpt lat="44.13109" lon="4.97317">
        <ele>84</ele>
        <time>2012-08-02T17:43:46Z</time>
      </trkpt>
      <trkpt lat="44.13115" lon="4.97314">
        <ele>85</ele>
        <time>2012-08-02T17:43:47Z</time>
      </trkpt>
      <trkpt lat="44.13122" lon="4.97311">
        <ele>85</ele>
        <time>2012-08-02T17:43:49Z</time>
      </trkpt>
      <trkpt lat="44.13128" lon="4.9731">
        <ele>85</ele>
        <time>2012-08-02T17:43:49Z</time>
      </trkpt>
      <trkpt lat="44.13134" lon="4.97313">
        <ele>85</ele>
        <time>2012-08-02T17:43:50Z</time>
      </trkpt>
      <trkpt lat="44.13138" lon="4.9731">
        <ele>85</ele>
        <time>2012-08-02T17:43:51Z</time>
      </trkpt>
      <trkpt lat="44.13144" lon="4.97307">
        <ele>79</ele>
        <time>2012-08-02T17:43:52Z</time>
      </trkpt>
      <trkpt lat="44.13149" lon="4.97304">
        <ele>78</ele>
        <time>2012-08-02T17:43:53Z</time>
      </trkpt>
      <trkpt lat="44.13157" lon="4.97301">
        <ele>77</ele>
        <time>2012-08-02T17:43:55Z</time>
      </trkpt>
      <trkpt lat="44.13161" lon="4.97299">
        <ele>79</ele>
        <time>2012-08-02T17:43:57Z</time>
      </trkpt>
      <trkpt lat="44.13165" lon="4.97297">
        <ele>78</ele>
        <time>2012-08-02T17:43:57Z</time>
      </trkpt>
      <trkpt lat="44.13174" lon="4.97294">
        <ele>83</ele>
        <time>2012-08-02T17:43:59Z</time>
      </trkpt>
      <trkpt lat="44.13179" lon="4.97293">
        <ele>84</ele>
        <time>2012-08-02T17:44:00Z</time>
      </trkpt>
      <trkpt lat="44.13183" lon="4.97292">
        <ele>84</ele>
        <time>2012-08-02T17:44:01Z</time>
      </trkpt>
      <trkpt lat="44.1319" lon="4.97292">
        <ele>84</ele>
        <time>2012-08-02T17:44:02Z</time>
      </trkpt>
      <trkpt lat="44.13195" lon="4.97289">
        <ele>86</ele>
        <time>2012-08-02T17:44:03Z</time>
      </trkpt>
      <trkpt lat="44.132" lon="4.97288">
        <ele>85</ele>
        <time>2012-08-02T17:44:04Z</time>
      </trkpt>
      <trkpt lat="44.13206" lon="4.97287">
        <ele>86</ele>
        <time>2012-08-02T17:44:05Z</time>
      </trkpt>
      <trkpt lat="44.13212" lon="4.97287">
        <ele>85</ele>
        <time>2012-08-02T17:44:06Z</time>
      </trkpt>
      <trkpt lat="44.13218" lon="4.97287">
        <ele>84</ele>
        <time>2012-08-02T17:44:07Z</time>
      </trkpt>
      <trkpt lat="44.13223" lon="4.97286">
        <ele>83</ele>
        <time>2012-08-02T17:44:08Z</time>
      </trkpt>
      <trkpt lat="44.13229" lon="4.97285">
        <ele>85</ele>
        <time>2012-08-02T17:44:09Z</time>
      </trkpt>
      <trkpt lat="44.13238" lon="4.97284">
        <ele>88</ele>
        <time>2012-08-02T17:44:11Z</time>
      </trkpt>
      <trkpt lat="44.13244" lon="4.97285">
        <ele>88</ele>
        <time>2012-08-02T17:44:12Z</time>
      </trkpt>
      <trkpt lat="44.13249" lon="4.97284">
        <ele>88</ele>
        <time>2012-08-02T17:44:13Z</time>
      </trkpt>
      <trkpt lat="44.13255" lon="4.97281">
        <ele>88</ele>
        <time>2012-08-02T17:44:14Z</time>
      </trkpt>
      <trkpt lat="44.1326" lon="4.97287">
        <ele>87</ele>
        <time>2012-08-02T17:44:15Z</time>
      </trkpt>
      <trkpt lat="44.13268" lon="4.97285">
        <ele>87</ele>
        <time>2012-08-02T17:44:17Z</time>
      </trkpt>
      <trkpt lat="44.13276" lon="4.97281">
        <ele>85</ele>
        <time>2012-08-02T17:44:19Z</time>
      </trkpt>
      <trkpt lat="44.13281" lon="4.97276">
        <ele>88</ele>
        <time>2012-08-02T17:44:21Z</time>
      </trkpt>
      <trkpt lat="44.13284" lon="4.97274">
        <ele>88</ele>
        <time>2012-08-02T17:44:22Z</time>
      </trkpt>
      <trkpt lat="44.13296" lon="4.97268">
        <ele>88</ele>
        <time>2012-08-02T17:44:27Z</time>
      </trkpt>
      <trkpt lat="44.13304" lon="4.97263">
        <ele>87</ele>
        <time>2012-08-02T17:44:31Z</time>
      </trkpt>
      <trkpt lat="44.13312" lon="4.97262">
        <ele>87</ele>
        <time>2012-08-02T17:44:36Z</time>
      </trkpt>
      <trkpt lat="44.13319" lon="4.97269">
        <ele>88</ele>
        <time>2012-08-02T17:44:39Z</time>
      </trkpt>
      <trkpt lat="44.13328" lon="4.97271">
        <ele>87</ele>
        <time>2012-08-02T17:44:47Z</time>
      </trkpt>
      <trkpt lat="44.13336" lon="4.97268">
        <ele>85</ele>
        <time>2012-08-02T17:44:55Z</time>
      </trkpt>
      <trkpt lat="44.13345" lon="4.97264">
        <ele>87</ele>
        <time>2012-08-02T17:45:07Z</time>
      </trkpt>
      <trkpt lat="44.13353" lon="4.97267">
        <ele>89</ele>
        <time>2012-08-02T17:45:17Z</time>
      </trkpt>
      <trkpt lat="44.13361" lon="4.97271">
        <ele>88</ele>
        <time>2012-08-02T17:45:26Z</time>
      </trkpt>
      <trkpt lat="44.13362" lon="4.97272">
        <ele>88</ele>
        <time>2012-08-02T17:45:27Z</time>
      </trkpt>
      <trkpt lat="44.13375" lon="4.97285">
        <ele>88</ele>
        <time>2012-08-02T17:45:41Z</time>
      </trkpt>
      <trkpt lat="44.13381" lon="4.97292">
        <ele>89</ele>
        <time>2012-08-02T17:45:45Z</time>
      </trkpt>
      <trkpt lat="44.13388" lon="4.97299">
        <ele>91</ele>
        <time>2012-08-02T17:45:51Z</time>
      </trkpt>
      <trkpt lat="44.13395" lon="4.97303">
        <ele>91</ele>
        <time>2012-08-02T17:45:57Z</time>
      </trkpt>
      <trkpt lat="44.13404" lon="4.97302">
        <ele>87</ele>
        <time>2012-08-02T17:46:03Z</time>
      </trkpt>
      <trkpt lat="44.13406" lon="4.97291">
        <ele>86</ele>
        <time>2012-08-02T17:46:16Z</time>
      </trkpt>
      <trkpt lat="44.13408" lon="4.97279">
        <ele>87</ele>
        <time>2012-08-02T17:46:25Z</time>
      </trkpt>
      <trkpt lat="44.13411" lon="4.97268">
        <ele>89</ele>
        <time>2012-08-02T17:46:36Z</time>
      </trkpt>
      <trkpt lat="44.13411" lon="4.97266">
        <ele>89</ele>
        <time>2012-08-02T17:46:37Z</time>
      </trkpt>
      <trkpt lat="44.13413" lon="4.97244">
        <ele>90</ele>
        <time>2012-08-02T17:46:56Z</time>
      </trkpt>
      <trkpt lat="44.13417" lon="4.97234">
        <ele>87</ele>
        <time>2012-08-02T17:47:02Z</time>
      </trkpt>
      <trkpt lat="44.1342" lon="4.97223">
        <ele>87</ele>
        <time>2012-08-02T17:47:07Z</time>
      </trkpt>
      <trkpt lat="44.13424" lon="4.97214">
        <ele>85</ele>
        <time>2012-08-02T17:47:11Z</time>
      </trkpt>
      <trkpt lat="44.13428" lon="4.97206">
        <ele>86</ele>
        <time>2012-08-02T17:47:14Z</time>
      </trkpt>
      <trkpt lat="44.13432" lon="4.97197">
        <ele>86</ele>
        <time>2012-08-02T17:47:18Z</time>
      </trkpt>
      <trkpt lat="44.13436" lon="4.97189">
        <ele>88</ele>
        <time>2012-08-02T17:47:21Z</time>
      </trkpt>
      <trkpt lat="44.1344" lon="4.9718">
        <ele>85</ele>
        <time>2012-08-02T17:47:25Z</time>
      </trkpt>
      <trkpt lat="44.13444" lon="4.97171">
        <ele>83</ele>
        <time>2012-08-02T17:47:31Z</time>
      </trkpt>
      <trkpt lat="44.13452" lon="4.97163">
        <ele>85</ele>
        <time>2012-08-02T17:47:37Z</time>
      </trkpt>
      <trkpt lat="44.13453" lon="4.97162">
        <ele>84</ele>
        <time>2012-08-02T17:47:38Z</time>
      </trkpt>
      <trkpt lat="44.13465" lon="4.97149">
        <ele>85</ele>
        <time>2012-08-02T17:47:52Z</time>
      </trkpt>
      <trkpt lat="44.13469" lon="4.9714">
        <ele>84</ele>
        <time>2012-08-02T17:47:57Z</time>
      </trkpt>
      <trkpt lat="44.13473" lon="4.97131">
        <ele>84</ele>
        <time>2012-08-02T17:48:03Z</time>
      </trkpt>
      <trkpt lat="44.13478" lon="4.9712">
        <ele>84</ele>
        <time>2012-08-02T17:48:11Z</time>
      </trkpt>
      <trkpt lat="44.13479" lon="4.9711">
        <ele>84</ele>
        <time>2012-08-02T17:48:16Z</time>
      </trkpt>
      <trkpt lat="44.13481" lon="4.971">
        <ele>83</ele>
        <time>2012-08-02T17:48:19Z</time>
      </trkpt>
      <trkpt lat="44.13482" lon="4.97088">
        <ele>84</ele>
        <time>2012-08-02T17:48:23Z</time>
      </trkpt>
      <trkpt lat="44.13486" lon="4.97077">
        <ele>90</ele>
        <time>2012-08-02T17:48:36Z</time>
      </trkpt>
      <trkpt lat="44.13486" lon="4.97066">
        <ele>89</ele>
        <time>2012-08-02T17:48:39Z</time>
      </trkpt>
      <trkpt lat="44.13486" lon="4.97063">
        <ele>89</ele>
        <time>2012-08-02T17:48:40Z</time>
      </trkpt>
      <trkpt lat="44.13483" lon="4.97046">
        <ele>88</ele>
        <time>2012-08-02T17:48:46Z</time>
      </trkpt>
      <trkpt lat="44.13477" lon="4.97037">
        <ele>90</ele>
        <time>2012-08-02T17:48:50Z</time>
      </trkpt>
      <trkpt lat="44.13471" lon="4.97028">
        <ele>95</ele>
        <time>2012-08-02T17:49:00Z</time>
      </trkpt>
      <trkpt lat="44.13468" lon="4.97016">
        <ele>93</ele>
        <time>2012-08-02T17:49:08Z</time>
      </trkpt>
      <trkpt lat="44.13465" lon="4.97006">
        <ele>93</ele>
        <time>2012-08-02T17:49:17Z</time>
      </trkpt>
      <trkpt lat="44.13464" lon="4.96994">
        <ele>92</ele>
        <time>2012-08-02T17:49:21Z</time>
      </trkpt>
      <trkpt lat="44.13465" lon="4.96982">
        <ele>93</ele>
        <time>2012-08-02T17:49:25Z</time>
      </trkpt>
      <trkpt lat="44.13466" lon="4.96971">
        <ele>93</ele>
        <time>2012-08-02T17:49:28Z</time>
      </trkpt>
      <trkpt lat="44.13461" lon="4.96962">
        <ele>98</ele>
        <time>2012-08-02T17:49:39Z</time>
      </trkpt>
      <trkpt lat="44.1346" lon="4.96951">
        <ele>99</ele>
        <time>2012-08-02T17:49:45Z</time>
      </trkpt>
      <trkpt lat="44.1346" lon="4.96949">
        <ele>98</ele>
        <time>2012-08-02T17:49:46Z</time>
      </trkpt>
      <trkpt lat="44.1346" lon="4.96928">
        <ele>100</ele>
        <time>2012-08-02T17:49:56Z</time>
      </trkpt>
      <trkpt lat="44.13461" lon="4.96916">
        <ele>102</ele>
        <time>2012-08-02T17:50:04Z</time>
      </trkpt>
      <trkpt lat="44.13461" lon="4.96905">
        <ele>102</ele>
        <time>2012-08-02T17:50:10Z</time>
      </trkpt>
      <trkpt lat="44.13457" lon="4.96896">
        <ele>103</ele>
        <time>2012-08-02T17:50:22Z</time>
      </trkpt>
      <trkpt lat="44.13455" lon="4.96883">
        <ele>101</ele>
        <time>2012-08-02T17:50:29Z</time>
      </trkpt>
      <trkpt lat="44.13449" lon="4.96876">
        <ele>100</ele>
        <time>2012-08-02T17:50:36Z</time>
      </trkpt>
      <trkpt lat="44.1344" lon="4.96872">
        <ele>98</ele>
        <time>2012-08-02T17:50:41Z</time>
      </trkpt>
      <trkpt lat="44.13432" lon="4.96877">
        <ele>98</ele>
        <time>2012-08-02T17:50:48Z</time>
      </trkpt>
      <trkpt lat="44.13431" lon="4.96878">
        <ele>97</ele>
        <time>2012-08-02T17:50:49Z</time>
      </trkpt>
      <trkpt lat="44.1342" lon="4.96894">
        <ele>105</ele>
        <time>2012-08-02T17:51:07Z</time>
      </trkpt>
      <trkpt lat="44.13413" lon="4.96892">
        <ele>106</ele>
        <time>2012-08-02T17:51:13Z</time>
      </trkpt>
      <trkpt lat="44.13405" lon="4.96898">
        <ele>104</ele>
        <time>2012-08-02T17:51:20Z</time>
      </trkpt>
      <trkpt lat="44.13397" lon="4.96903">
        <ele>102</ele>
        <time>2012-08-02T17:51:26Z</time>
      </trkpt>
      <trkpt lat="44.13388" lon="4.96905">
        <ele>101</ele>
        <time>2012-08-02T17:51:32Z</time>
      </trkpt>
      <trkpt lat="44.1338" lon="4.96906">
        <ele>101</ele>
        <time>2012-08-02T17:51:37Z</time>
      </trkpt>
      <trkpt lat="44.13372" lon="4.96911">
        <ele>100</ele>
        <time>2012-08-02T17:51:44Z</time>
      </trkpt>
      <trkpt lat="44.13364" lon="4.96907">
        <ele>104</ele>
        <time>2012-08-02T17:51:51Z</time>
      </trkpt>
      <trkpt lat="44.13364" lon="4.96904">
        <ele>102</ele>
        <time>2012-08-02T17:51:52Z</time>
      </trkpt>
      <trkpt lat="44.13366" lon="4.96885">
        <ele>102</ele>
        <time>2012-08-02T17:51:59Z</time>
      </trkpt>
      <trkpt lat="44.13369" lon="4.96874">
        <ele>105</ele>
        <time>2012-08-02T17:52:03Z</time>
      </trkpt>
      <trkpt lat="44.13373" lon="4.96865">
        <ele>106</ele>
        <time>2012-08-02T17:52:08Z</time>
      </trkpt>
      <trkpt lat="44.13378" lon="4.96857">
        <ele>109</ele>
        <time>2012-08-02T17:52:13Z</time>
      </trkpt>
      <trkpt lat="44.1338" lon="4.96845">
        <ele>108</ele>
        <time>2012-08-02T17:52:20Z</time>
      </trkpt>
      <trkpt lat="44.13384" lon="4.96837">
        <ele>113</ele>
        <time>2012-08-02T17:52:25Z</time>
      </trkpt>
      <trkpt lat="44.13393" lon="4.96835">
        <ele>115</ele>
        <time>2012-08-02T17:52:31Z</time>
      </trkpt>
      <trkpt lat="44.13401" lon="4.96829">
        <ele>115</ele>
        <time>2012-08-02T17:52:36Z</time>
      </trkpt>
      <trkpt lat="44.13408" lon="4.96825">
        <ele>114</ele>
        <time>2012-08-02T17:52:40Z</time>
      </trkpt>
      <trkpt lat="44.13414" lon="4.96821">
        <ele>115</ele>
        <time>2012-08-02T17:52:44Z</time>
      </trkpt>
      <trkpt lat="44.13423" lon="4.96818">
        <ele>117</ele>
        <time>2012-08-02T17:52:48Z</time>
      </trkpt>
      <trkpt lat="44.1343" lon="4.96815">
        <ele>116</ele>
        <time>2012-08-02T17:52:56Z</time>
      </trkpt>
      <trkpt lat="44.13431" lon="4.96814">
        <ele>116</ele>
        <time>2012-08-02T17:52:57Z</time>
      </trkpt>
      <trkpt lat="44.13437" lon="4.96796">
        <ele>114</ele>
        <time>2012-08-02T17:53:06Z</time>
      </trkpt>
      <trkpt lat="44.13442" lon="4.96788">
        <ele>116</ele>
        <time>2012-08-02T17:53:13Z</time>
      </trkpt>
      <trkpt lat="44.13448" lon="4.9678">
        <ele>116</ele>
        <time>2012-08-02T17:53:21Z</time>
      </trkpt>
      <trkpt lat="44.13455" lon="4.96772">
        <ele>116</ele>
        <time>2012-08-02T17:53:26Z</time>
      </trkpt>
      <trkpt lat="44.1346" lon="4.96766">
        <ele>116</ele>
        <time>2012-08-02T17:53:29Z</time>
      </trkpt>
      <trkpt lat="44.13462" lon="4.96755">
        <ele>115</ele>
        <time>2012-08-02T17:53:32Z</time>
      </trkpt>
      <trkpt lat="44.13462" lon="4.96744">
        <ele>117</ele>
        <time>2012-08-02T17:53:36Z</time>
      </trkpt>
      <trkpt lat="44.13463" lon="4.96734">
        <ele>120</ele>
        <time>2012-08-02T17:53:39Z</time>
      </trkpt>
      <trkpt lat="44.13462" lon="4.96722">
        <ele>117</ele>
        <time>2012-08-02T17:53:43Z</time>
      </trkpt>
      <trkpt lat="44.13464" lon="4.96711">
        <ele>117</ele>
        <time>2012-08-02T17:53:48Z</time>
      </trkpt>
      <trkpt lat="44.13466" lon="4.967">
        <ele>118</ele>
        <time>2012-08-02T17:53:55Z</time>
      </trkpt>
      <trkpt lat="44.13468" lon="4.96689">
        <ele>116</ele>
        <time>2012-08-02T17:54:00Z</time>
      </trkpt>
      <trkpt lat="44.13469" lon="4.96686">
        <ele>116</ele>
        <time>2012-08-02T17:54:01Z</time>
      </trkpt>
      <trkpt lat="44.1347" lon="4.96668">
        <ele>112</ele>
        <time>2012-08-02T17:54:08Z</time>
      </trkpt>
      <trkpt lat="44.13474" lon="4.96658">
        <ele>113</ele>
        <time>2012-08-02T17:54:12Z</time>
      </trkpt>
      <trkpt lat="44.13476" lon="4.96646">
        <ele>115</ele>
        <time>2012-08-02T17:54:19Z</time>
      </trkpt>
      <trkpt lat="44.13479" lon="4.96635">
        <ele>102</ele>
        <time>2012-08-02T17:54:24Z</time>
      </trkpt>
      <trkpt lat="44.13479" lon="4.96624">
        <ele>104</ele>
        <time>2012-08-02T17:54:32Z</time>
      </trkpt>
      <trkpt lat="44.13472" lon="4.96616">
        <ele>109</ele>
        <time>2012-08-02T17:54:43Z</time>
      </trkpt>
      <trkpt lat="44.13473" lon="4.96604">
        <ele>112</ele>
        <time>2012-08-02T17:54:48Z</time>
      </trkpt>
      <trkpt lat="44.1347" lon="4.96593">
        <ele>106</ele>
        <time>2012-08-02T17:54:56Z</time>
      </trkpt>
      <trkpt lat="44.13469" lon="4.96582">
        <ele>105</ele>
        <time>2012-08-02T17:55:05Z</time>
      </trkpt>
      <trkpt lat="44.13469" lon="4.9658">
        <ele>105</ele>
        <time>2012-08-02T17:55:06Z</time>
      </trkpt>
      <trkpt lat="44.13469" lon="4.9656">
        <ele>104</ele>
        <time>2012-08-02T17:55:15Z</time>
      </trkpt>
      <trkpt lat="44.13465" lon="4.96548">
        <ele>103</ele>
        <time>2012-08-02T17:55:23Z</time>
      </trkpt>
      <trkpt lat="44.13469" lon="4.96537">
        <ele>102</ele>
        <time>2012-08-02T17:55:28Z</time>
      </trkpt>
      <trkpt lat="44.13471" lon="4.96527">
        <ele>101</ele>
        <time>2012-08-02T17:55:32Z</time>
      </trkpt>
      <trkpt lat="44.13472" lon="4.96515">
        <ele>99</ele>
        <time>2012-08-02T17:55:37Z</time>
      </trkpt>
      <trkpt lat="44.13471" lon="4.96505">
        <ele>100</ele>
        <time>2012-08-02T17:55:42Z</time>
      </trkpt>
      <trkpt lat="44.13468" lon="4.96493">
        <ele>103</ele>
        <time>2012-08-02T17:55:50Z</time>
      </trkpt>
      <trkpt lat="44.13471" lon="4.96482">
        <ele>102</ele>
        <time>2012-08-02T17:55:54Z</time>
      </trkpt>
      <trkpt lat="44.13473" lon="4.9647">
        <ele>102</ele>
        <time>2012-08-02T17:56:00Z</time>
      </trkpt>
      <trkpt lat="44.13465" lon="4.96473">
        <ele>104</ele>
        <time>2012-08-02T17:56:08Z</time>
      </trkpt>
      <trkpt lat="44.13464" lon="4.96473">
        <ele>104</ele>
        <time>2012-08-02T17:56:09Z</time>
      </trkpt>
      <trkpt lat="44.13467" lon="4.96454">
        <ele>104</ele>
        <time>2012-08-02T17:56:16Z</time>
      </trkpt>
      <trkpt lat="44.13469" lon="4.96444">
        <ele>102</ele>
        <time>2012-08-02T17:56:19Z</time>
      </trkpt>
      <trkpt lat="44.13472" lon="4.96433">
        <ele>102</ele>
        <time>2012-08-02T17:56:23Z</time>
      </trkpt>
      <trkpt lat="44.13472" lon="4.96421">
        <ele>103</ele>
        <time>2012-08-02T17:56:30Z</time>
      </trkpt>
      <trkpt lat="44.13472" lon="4.96411">
        <ele>105</ele>
        <time>2012-08-02T17:56:34Z</time>
      </trkpt>
      <trkpt lat="44.13472" lon="4.96399">
        <ele>108</ele>
        <time>2012-08-02T17:56:38Z</time>
      </trkpt>
      <trkpt lat="44.13473" lon="4.96387">
        <ele>108</ele>
        <time>2012-08-02T17:56:42Z</time>
      </trkpt>
      <trkpt lat="44.13474" lon="4.96375">
        <ele>106</ele>
        <time>2012-08-02T17:56:47Z</time>
      </trkpt>
      <trkpt lat="44.13474" lon="4.96363">
        <ele>107</ele>
        <time>2012-08-02T17:56:54Z</time>
      </trkpt>
      <trkpt lat="44.13472" lon="4.96351">
        <ele>105</ele>
        <time>2012-08-02T17:57:00Z</time>
      </trkpt>
      <trkpt lat="44.1347" lon="4.96341">
        <ele>108</ele>
        <time>2012-08-02T17:57:04Z</time>
      </trkpt>
      <trkpt lat="44.13469" lon="4.96329">
        <ele>107</ele>
        <time>2012-08-02T17:57:09Z</time>
      </trkpt>
      <trkpt lat="44.13469" lon="4.96328">
        <ele>107</ele>
        <time>2012-08-02T17:57:10Z</time>
      </trkpt>
      <trkpt lat="44.13472" lon="4.96306">
        <ele>108</ele>
        <time>2012-08-02T17:57:21Z</time>
      </trkpt>
      <trkpt lat="44.13472" lon="4.96295">
        <ele>107</ele>
        <time>2012-08-02T17:57:26Z</time>
      </trkpt>
      <trkpt lat="44.13473" lon="4.96284">
        <ele>107</ele>
        <time>2012-08-02T17:57:32Z</time>
      </trkpt>
      <trkpt lat="44.13475" lon="4.96274">
        <ele>110</ele>
        <time>2012-08-02T17:57:36Z</time>
      </trkpt>
      <trkpt lat="44.13477" lon="4.96265">
        <ele>111</ele>
        <time>2012-08-02T17:57:39Z</time>
      </trkpt>
      <trkpt lat="44.13476" lon="4.96253">
        <ele>115</ele>
        <time>2012-08-02T17:57:45Z</time>
      </trkpt>
      <trkpt lat="44.13475" lon="4.96241">
        <ele>114</ele>
        <time>2012-08-02T17:57:51Z</time>
      </trkpt>
      <trkpt lat="44.13474" lon="4.96229">
        <ele>116</ele>
        <time>2012-08-02T17:57:58Z</time>
      </trkpt>
      <trkpt lat="44.13469" lon="4.9622">
        <ele>116</ele>
        <time>2012-08-02T17:58:05Z</time>
      </trkpt>
      <trkpt lat="44.13465" lon="4.9621">
        <ele>120</ele>
        <time>2012-08-02T17:58:17Z</time>
      </trkpt>
      <trkpt lat="44.13466" lon="4.96207">
        <ele>120</ele>
        <time>2012-08-02T17:58:18Z</time>
      </trkpt>
      <trkpt lat="44.13469" lon="4.96191">
        <ele>119</ele>
        <time>2012-08-02T17:58:24Z</time>
      </trkpt>
      <trkpt lat="44.1347" lon="4.96179">
        <ele>121</ele>
        <time>2012-08-02T17:58:28Z</time>
      </trkpt>
      <trkpt lat="44.13471" lon="4.96168">
        <ele>120</ele>
        <time>2012-08-02T17:58:34Z</time>
      </trkpt>
      <trkpt lat="44.13471" lon="4.96158">
        <ele>121</ele>
        <time>2012-08-02T17:58:40Z</time>
      </trkpt>
      <trkpt lat="44.13471" lon="4.96147">
        <ele>120</ele>
        <time>2012-08-02T17:58:44Z</time>
      </trkpt>
      <trkpt lat="44.13473" lon="4.96136">
        <ele>119</ele>
        <time>2012-08-02T17:58:48Z</time>
      </trkpt>
      <trkpt lat="44.13475" lon="4.96127">
        <ele>117</ele>
        <time>2012-08-02T17:58:51Z</time>
      </trkpt>
      <trkpt lat="44.13476" lon="4.96116">
        <ele>114</ele>
        <time>2012-08-02T17:58:54Z</time>
      </trkpt>
      <trkpt lat="44.13477" lon="4.96104">
        <ele>112</ele>
        <time>2012-08-02T17:58:59Z</time>
      </trkpt>
      <trkpt lat="44.13472" lon="4.96095">
        <ele>115</ele>
        <time>2012-08-02T17:59:11Z</time>
      </trkpt>
      <trkpt lat="44.13475" lon="4.96085">
        <ele>115</ele>
        <time>2012-08-02T17:59:16Z</time>
      </trkpt>
      <trkpt lat="44.13477" lon="4.96074">
        <ele>114</ele>
        <time>2012-08-02T17:59:20Z</time>
      </trkpt>
      <trkpt lat="44.13476" lon="4.9607">
        <ele>115</ele>
        <time>2012-08-02T17:59:21Z</time>
      </trkpt>
      <trkpt lat="44.13467" lon="4.96059">
        <ele>112</ele>
        <time>2012-08-02T17:59:29Z</time>
      </trkpt>
      <trkpt lat="44.13461" lon="4.96069">
        <ele>111</ele>
        <time>2012-08-02T17:59:38Z</time>
      </trkpt>
      <trkpt lat="44.13457" lon="4.96058">
        <ele>109</ele>
        <time>2012-08-02T18:02:22Z</time>
      </trkpt>
      <trkpt lat="44.13456" lon="4.96057">
        <ele>110</ele>
        <time>2012-08-02T18:02:23Z</time>
      </trkpt>
      <trkpt lat="44.13442" lon="4.96055">
        <ele>108</ele>
        <time>2012-08-02T18:02:32Z</time>
      </trkpt>
      <trkpt lat="44.13435" lon="4.96048">
        <ele>110</ele>
        <time>2012-08-02T18:02:39Z</time>
      </trkpt>
      <trkpt lat="44.13427" lon="4.96043">
        <ele>104</ele>
        <time>2012-08-02T18:02:46Z</time>
      </trkpt>
      <trkpt lat="44.13419" lon="4.96041">
        <ele>106</ele>
        <time>2012-08-02T18:02:52Z</time>
      </trkpt>
      <trkpt lat="44.13413" lon="4.9604">
        <ele>106</ele>
        <time>2012-08-02T18:02:54Z</time>
      </trkpt>
      <trkpt lat="44.13406" lon="4.96035">
        <ele>105</ele>
        <time>2012-08-02T18:02:56Z</time>
      </trkpt>
      <trkpt lat="44.134" lon="4.96029">
        <ele>106</ele>
        <time>2012-08-02T18:02:58Z</time>
      </trkpt>
      <trkpt lat="44.13391" lon="4.96026">
        <ele>107</ele>
        <time>2012-08-02T18:03:01Z</time>
      </trkpt>
      <trkpt lat="44.13384" lon="4.96027">
        <ele>108</ele>
        <time>2012-08-02T18:03:04Z</time>
      </trkpt>
      <trkpt lat="44.13377" lon="4.96022">
        <ele>109</ele>
        <time>2012-08-02T18:03:07Z</time>
      </trkpt>
      <trkpt lat="44.13369" lon="4.9602">
        <ele>109</ele>
        <time>2012-08-02T18:03:10Z</time>
      </trkpt>
      <trkpt lat="44.13362" lon="4.96017">
        <ele>112</ele>
        <time>2012-08-02T18:03:13Z</time>
      </trkpt>
      <trkpt lat="44.13354" lon="4.96014">
        <ele>112</ele>
        <time>2012-08-02T18:03:16Z</time>
      </trkpt>
      <trkpt lat="44.13346" lon="4.96009">
        <ele>112</ele>
        <time>2012-08-02T18:03:19Z</time>
      </trkpt>
      <trkpt lat="44.13339" lon="4.96002">
        <ele>111</ele>
        <time>2012-08-02T18:03:22Z</time>
      </trkpt>
      <trkpt lat="44.13334" lon="4.95997">
        <ele>109</ele>
        <time>2012-08-02T18:03:24Z</time>
      </trkpt>
      <trkpt lat="44.13331" lon="4.95995">
        <ele>109</ele>
        <time>2012-08-02T18:03:25Z</time>
      </trkpt>
      <trkpt lat="44.1332" lon="4.95988">
        <ele>109</ele>
        <time>2012-08-02T18:03:29Z</time>
      </trkpt>
      <trkpt lat="44.13315" lon="4.95983">
        <ele>110</ele>
        <time>2012-08-02T18:03:31Z</time>
      </trkpt>
      <trkpt lat="44.1331" lon="4.95979">
        <ele>110</ele>
        <time>2012-08-02T18:03:33Z</time>
      </trkpt>
      <trkpt lat="44.13302" lon="4.95974">
        <ele>109</ele>
        <time>2012-08-02T18:03:36Z</time>
      </trkpt>
      <trkpt lat="44.13296" lon="4.95968">
        <ele>107</ele>
        <time>2012-08-02T18:03:38Z</time>
      </trkpt>
      <trkpt lat="44.13289" lon="4.95963">
        <ele>108</ele>
        <time>2012-08-02T18:03:41Z</time>
      </trkpt>
      <trkpt lat="44.13281" lon="4.95956">
        <ele>109</ele>
        <time>2012-08-02T18:03:45Z</time>
      </trkpt>
      <trkpt lat="44.13273" lon="4.9595">
        <ele>108</ele>
        <time>2012-08-02T18:03:52Z</time>
      </trkpt>
      <trkpt lat="44.13271" lon="4.95939">
        <ele>111</ele>
        <time>2012-08-02T18:03:59Z</time>
      </trkpt>
      <trkpt lat="44.13263" lon="4.95934">
        <ele>114</ele>
        <time>2012-08-02T18:04:19Z</time>
      </trkpt>
      <trkpt lat="44.13263" lon="4.95942">
        <ele>119</ele>
        <time>2012-08-02T18:04:28Z</time>
      </trkpt>
      <trkpt lat="44.13264" lon="4.95948">
        <ele>120</ele>
        <time>2012-08-02T18:04:29Z</time>
      </trkpt>
      <trkpt lat="44.13265" lon="4.95955">
        <ele>120</ele>
        <time>2012-08-02T18:04:30Z</time>
      </trkpt>
      <trkpt lat="44.13263" lon="4.95944">
        <ele>119</ele>
        <time>2012-08-02T18:04:42Z</time>
      </trkpt>
      <trkpt lat="44.13268" lon="4.95934">
        <ele>119</ele>
        <time>2012-08-02T18:04:57Z</time>
      </trkpt>
      <trkpt lat="44.13262" lon="4.95933">
        <ele>114</ele>
        <time>2012-08-02T18:05:10Z</time>
      </trkpt>
      <trkpt lat="44.13254" lon="4.95927">
        <ele>112</ele>
        <time>2012-08-02T18:05:13Z</time>
      </trkpt>
      <trkpt lat="44.13248" lon="4.95923">
        <ele>112</ele>
        <time>2012-08-02T18:05:15Z</time>
      </trkpt>
      <trkpt lat="44.13241" lon="4.9592">
        <ele>113</ele>
        <time>2012-08-02T18:05:17Z</time>
      </trkpt>
      <trkpt lat="44.13235" lon="4.95916">
        <ele>113</ele>
        <time>2012-08-02T18:05:19Z</time>
      </trkpt>
      <trkpt lat="44.1323" lon="4.95912">
        <ele>112</ele>
        <time>2012-08-02T18:05:21Z</time>
      </trkpt>
      <trkpt lat="44.13225" lon="4.95907">
        <ele>112</ele>
        <time>2012-08-02T18:05:23Z</time>
      </trkpt>
      <trkpt lat="44.1322" lon="4.95902">
        <ele>113</ele>
        <time>2012-08-02T18:05:25Z</time>
      </trkpt>
      <trkpt lat="44.13215" lon="4.95897">
        <ele>113</ele>
        <time>2012-08-02T18:05:27Z</time>
      </trkpt>
      <trkpt lat="44.1321" lon="4.95892">
        <ele>112</ele>
        <time>2012-08-02T18:05:29Z</time>
      </trkpt>
      <trkpt lat="44.13207" lon="4.9589">
        <ele>112</ele>
        <time>2012-08-02T18:05:30Z</time>
      </trkpt>
      <trkpt lat="44.13196" lon="4.95883">
        <ele>111</ele>
        <time>2012-08-02T18:05:34Z</time>
      </trkpt>
      <trkpt lat="44.13188" lon="4.95878">
        <ele>111</ele>
        <time>2012-08-02T18:05:37Z</time>
      </trkpt>
      <trkpt lat="44.13182" lon="4.9587">
        <ele>110</ele>
        <time>2012-08-02T18:05:40Z</time>
      </trkpt>
      <trkpt lat="44.13175" lon="4.95864">
        <ele>109</ele>
        <time>2012-08-02T18:05:43Z</time>
      </trkpt>
      <trkpt lat="44.13167" lon="4.9586">
        <ele>110</ele>
        <time>2012-08-02T18:05:46Z</time>
      </trkpt>
      <trkpt lat="44.1316" lon="4.95855">
        <ele>110</ele>
        <time>2012-08-02T18:05:49Z</time>
      </trkpt>
      <trkpt lat="44.13153" lon="4.95848">
        <ele>110</ele>
        <time>2012-08-02T18:05:52Z</time>
      </trkpt>
      <trkpt lat="44.13148" lon="4.95842">
        <ele>109</ele>
        <time>2012-08-02T18:05:54Z</time>
      </trkpt>
      <trkpt lat="44.1314" lon="4.95838">
        <ele>112</ele>
        <time>2012-08-02T18:05:57Z</time>
      </trkpt>
      <trkpt lat="44.13131" lon="4.95837">
        <ele>111</ele>
        <time>2012-08-02T18:06:00Z</time>
      </trkpt>
      <trkpt lat="44.13123" lon="4.95835">
        <ele>110</ele>
        <time>2012-08-02T18:06:07Z</time>
      </trkpt>
      <trkpt lat="44.13114" lon="4.95834">
        <ele>110</ele>
        <time>2012-08-02T18:06:20Z</time>
      </trkpt>
      <trkpt lat="44.13107" lon="4.95834">
        <ele>109</ele>
        <time>2012-08-02T18:06:24Z</time>
      </trkpt>
      <trkpt lat="44.13099" lon="4.95834">
        <ele>111</ele>
        <time>2012-08-02T18:06:29Z</time>
      </trkpt>
      <trkpt lat="44.13091" lon="4.95837">
        <ele>113</ele>
        <time>2012-08-02T18:06:37Z</time>
      </trkpt>
      <trkpt lat="44.1309" lon="4.95837">
        <ele>113</ele>
        <time>2012-08-02T18:06:38Z</time>
      </trkpt>
      <trkpt lat="44.13079" lon="4.95828">
        <ele>110</ele>
        <time>2012-08-02T18:06:45Z</time>
      </trkpt>
      <trkpt lat="44.13071" lon="4.95826">
        <ele>108</ele>
        <time>2012-08-02T18:06:48Z</time>
      </trkpt>
      <trkpt lat="44.13063" lon="4.95825">
        <ele>107</ele>
        <time>2012-08-02T18:06:50Z</time>
      </trkpt>
      <trkpt lat="44.13059" lon="4.95824">
        <ele>106</ele>
        <time>2012-08-02T18:06:51Z</time>
      </trkpt>
      <trkpt lat="44.13052" lon="4.95819">
        <ele>106</ele>
        <time>2012-08-02T18:06:54Z</time>
      </trkpt>
      <trkpt lat="44.13043" lon="4.95819">
        <ele>104</ele>
        <time>2012-08-02T18:06:57Z</time>
      </trkpt>
      <trkpt lat="44.13036" lon="4.95818">
        <ele>105</ele>
        <time>2012-08-02T18:06:59Z</time>
      </trkpt>
      <trkpt lat="44.13029" lon="4.95818">
        <ele>106</ele>
        <time>2012-08-02T18:07:01Z</time>
      </trkpt>
      <trkpt lat="44.13022" lon="4.95818">
        <ele>106</ele>
        <time>2012-08-02T18:07:03Z</time>
      </trkpt>
      <trkpt lat="44.13015" lon="4.95816">
        <ele>104</ele>
        <time>2012-08-02T18:07:05Z</time>
      </trkpt>
      <trkpt lat="44.13009" lon="4.95815">
        <ele>105</ele>
        <time>2012-08-02T18:07:07Z</time>
      </trkpt>
      <trkpt lat="44.13003" lon="4.95814">
        <ele>106</ele>
        <time>2012-08-02T18:07:09Z</time>
      </trkpt>
      <trkpt lat="44.12997" lon="4.95813">
        <ele>106</ele>
        <time>2012-08-02T18:07:11Z</time>
      </trkpt>
      <trkpt lat="44.1299" lon="4.95811">
        <ele>106</ele>
        <time>2012-08-02T18:07:13Z</time>
      </trkpt>
      <trkpt lat="44.12983" lon="4.9581">
        <ele>105</ele>
        <time>2012-08-02T18:07:15Z</time>
      </trkpt>
      <trkpt lat="44.12976" lon="4.95808">
        <ele>106</ele>
        <time>2012-08-02T18:07:17Z</time>
      </trkpt>
      <trkpt lat="44.1297" lon="4.95806">
        <ele>105</ele>
        <time>2012-08-02T18:07:19Z</time>
      </trkpt>
      <trkpt lat="44.12964" lon="4.95804">
        <ele>103</ele>
        <time>2012-08-02T18:07:21Z</time>
      </trkpt>
      <trkpt lat="44.12958" lon="4.95803">
        <ele>103</ele>
        <time>2012-08-02T18:07:23Z</time>
      </trkpt>
      <trkpt lat="44.12951" lon="4.95803">
        <ele>103</ele>
        <time>2012-08-02T18:07:25Z</time>
      </trkpt>
      <trkpt lat="44.12943" lon="4.95803">
        <ele>103</ele>
        <time>2012-08-02T18:07:27Z</time>
      </trkpt>
      <trkpt lat="44.12935" lon="4.95801">
        <ele>103</ele>
        <time>2012-08-02T18:07:29Z</time>
      </trkpt>
      <trkpt lat="44.12929" lon="4.95798">
        <ele>104</ele>
        <time>2012-08-02T18:07:30Z</time>
      </trkpt>
      <trkpt lat="44.12925" lon="4.95798">
        <ele>105</ele>
        <time>2012-08-02T18:07:31Z</time>
      </trkpt>
      <trkpt lat="44.1292" lon="4.95794">
        <ele>105</ele>
        <time>2012-08-02T18:07:32Z</time>
      </trkpt>
      <trkpt lat="44.12914" lon="4.95792">
        <ele>105</ele>
        <time>2012-08-02T18:07:33Z</time>
      </trkpt>
      <trkpt lat="44.1291" lon="4.95791">
        <ele>104</ele>
        <time>2012-08-02T18:07:34Z</time>
      </trkpt>
      <trkpt lat="44.12905" lon="4.95789">
        <ele>102</ele>
        <time>2012-08-02T18:07:35Z</time>
      </trkpt>
      <trkpt lat="44.129" lon="4.95788">
        <ele>102</ele>
        <time>2012-08-02T18:07:36Z</time>
      </trkpt>
      <trkpt lat="44.12895" lon="4.95788">
        <ele>103</ele>
        <time>2012-08-02T18:07:37Z</time>
      </trkpt>
      <trkpt lat="44.12889" lon="4.95787">
        <ele>103</ele>
        <time>2012-08-02T18:07:38Z</time>
      </trkpt>
      <trkpt lat="44.12883" lon="4.95786">
        <ele>103</ele>
        <time>2012-08-02T18:07:39Z</time>
      </trkpt>
      <trkpt lat="44.12878" lon="4.95785">
        <ele>104</ele>
        <time>2012-08-02T18:07:40Z</time>
      </trkpt>
      <trkpt lat="44.12869" lon="4.95783">
        <ele>105</ele>
        <time>2012-08-02T18:07:42Z</time>
      </trkpt>
      <trkpt lat="44.1286" lon="4.95781">
        <ele>105</ele>
        <time>2012-08-02T18:07:44Z</time>
      </trkpt>
      <trkpt lat="44.12856" lon="4.95779">
        <ele>105</ele>
        <time>2012-08-02T18:07:45Z</time>
      </trkpt>
      <trkpt lat="44.12851" lon="4.95777">
        <ele>103</ele>
        <time>2012-08-02T18:07:46Z</time>
      </trkpt>
      <trkpt lat="44.12846" lon="4.95775">
        <ele>103</ele>
        <time>2012-08-02T18:07:47Z</time>
      </trkpt>
      <trkpt lat="44.12841" lon="4.95774">
        <ele>102</ele>
        <time>2012-08-02T18:07:48Z</time>
      </trkpt>
      <trkpt lat="44.12836" lon="4.95772">
        <ele>103</ele>
        <time>2012-08-02T18:07:49Z</time>
      </trkpt>
      <trkpt lat="44.1283" lon="4.95772">
        <ele>103</ele>
        <time>2012-08-02T18:07:50Z</time>
      </trkpt>
      <trkpt lat="44.12821" lon="4.95771">
        <ele>102</ele>
        <time>2012-08-02T18:07:52Z</time>
      </trkpt>
      <trkpt lat="44.12816" lon="4.9577">
        <ele>102</ele>
        <time>2012-08-02T18:07:53Z</time>
      </trkpt>
      <trkpt lat="44.1281" lon="4.95769">
        <ele>102</ele>
        <time>2012-08-02T18:07:54Z</time>
      </trkpt>
      <trkpt lat="44.12806" lon="4.95768">
        <ele>102</ele>
        <time>2012-08-02T18:07:55Z</time>
      </trkpt>
      <trkpt lat="44.12801" lon="4.95766">
        <ele>102</ele>
        <time>2012-08-02T18:07:56Z</time>
      </trkpt>
      <trkpt lat="44.12796" lon="4.95765">
        <ele>103</ele>
        <time>2012-08-02T18:07:57Z</time>
      </trkpt>
      <trkpt lat="44.1279" lon="4.95763">
        <ele>103</ele>
        <time>2012-08-02T18:07:58Z</time>
      </trkpt>
      <trkpt lat="44.12784" lon="4.95762">
        <ele>103</ele>
        <time>2012-08-02T18:07:59Z</time>
      </trkpt>
      <trkpt lat="44.12775" lon="4.9576">
        <ele>102</ele>
        <time>2012-08-02T18:08:01Z</time>
      </trkpt>
      <trkpt lat="44.1277" lon="4.9576">
        <ele>102</ele>
        <time>2012-08-02T18:08:02Z</time>
      </trkpt>
      <trkpt lat="44.12762" lon="4.9576">
        <ele>102</ele>
        <time>2012-08-02T18:08:04Z</time>
      </trkpt>
      <trkpt lat="44.12757" lon="4.95757">
        <ele>102</ele>
        <time>2012-08-02T18:08:05Z</time>
      </trkpt>
      <trkpt lat="44.12748" lon="4.95755">
        <ele>100</ele>
        <time>2012-08-02T18:08:07Z</time>
      </trkpt>
      <trkpt lat="44.1274" lon="4.95754">
        <ele>99</ele>
        <time>2012-08-02T18:08:09Z</time>
      </trkpt>
      <trkpt lat="44.12731" lon="4.95753">
        <ele>98</ele>
        <time>2012-08-02T18:08:11Z</time>
      </trkpt>
      <trkpt lat="44.12723" lon="4.95751">
        <ele>98</ele>
        <time>2012-08-02T18:08:13Z</time>
      </trkpt>
      <trkpt lat="44.12715" lon="4.95748">
        <ele>99</ele>
        <time>2012-08-02T18:08:16Z</time>
      </trkpt>
      <trkpt lat="44.12707" lon="4.95746">
        <ele>100</ele>
        <time>2012-08-02T18:08:19Z</time>
      </trkpt>
      <trkpt lat="44.12699" lon="4.95743">
        <ele>99</ele>
        <time>2012-08-02T18:08:24Z</time>
      </trkpt>
      <trkpt lat="44.12691" lon="4.9574">
        <ele>99</ele>
        <time>2012-08-02T18:08:30Z</time>
      </trkpt>
      <trkpt lat="44.12683" lon="4.95737">
        <ele>100</ele>
        <time>2012-08-02T18:08:35Z</time>
      </trkpt>
      <trkpt lat="44.12674" lon="4.95736">
        <ele>100</ele>
        <time>2012-08-02T18:08:44Z</time>
      </trkpt>
      <trkpt lat="44.12672" lon="4.95735">
        <ele>101</ele>
        <time>2012-08-02T18:08:45Z</time>
      </trkpt>
      <trkpt lat="44.1266" lon="4.95726">
        <ele>103</ele>
        <time>2012-08-02T18:08:54Z</time>
      </trkpt>
      <trkpt lat="44.12651" lon="4.95728">
        <ele>104</ele>
        <time>2012-08-02T18:09:01Z</time>
      </trkpt>
      <trkpt lat="44.12644" lon="4.9573">
        <ele>102</ele>
        <time>2012-08-02T18:09:06Z</time>
      </trkpt>
      <trkpt lat="44.12636" lon="4.95728">
        <ele>102</ele>
        <time>2012-08-02T18:09:11Z</time>
      </trkpt>
      <trkpt lat="44.12627" lon="4.95725">
        <ele>100</ele>
        <time>2012-08-02T18:09:16Z</time>
      </trkpt>
      <trkpt lat="44.12619" lon="4.95723">
        <ele>100</ele>
        <time>2012-08-02T18:09:22Z</time>
      </trkpt>
      <trkpt lat="44.12612" lon="4.9572">
        <ele>101</ele>
        <time>2012-08-02T18:09:29Z</time>
      </trkpt>
      <trkpt lat="44.12603" lon="4.95717">
        <ele>103</ele>
        <time>2012-08-02T18:09:38Z</time>
      </trkpt>
      <trkpt lat="44.12594" lon="4.95716">
        <ele>102</ele>
        <time>2012-08-02T18:09:45Z</time>
      </trkpt>
      <trkpt lat="44.12593" lon="4.95716">
        <ele>102</ele>
        <time>2012-08-02T18:09:46Z</time>
      </trkpt>
      <trkpt lat="44.12579" lon="4.95712">
        <ele>100</ele>
        <time>2012-08-02T18:09:55Z</time>
      </trkpt>
      <trkpt lat="44.1257" lon="4.95715">
        <ele>101</ele>
        <time>2012-08-02T18:10:08Z</time>
      </trkpt>
      <trkpt lat="44.12564" lon="4.95707">
        <ele>101</ele>
        <time>2012-08-02T18:10:14Z</time>
      </trkpt>
      <trkpt lat="44.12558" lon="4.95701">
        <ele>102</ele>
        <time>2012-08-02T18:10:17Z</time>
      </trkpt>
      <trkpt lat="44.1255" lon="4.957">
        <ele>99</ele>
        <time>2012-08-02T18:10:23Z</time>
      </trkpt>
      <trkpt lat="44.12542" lon="4.95698">
        <ele>99</ele>
        <time>2012-08-02T18:10:27Z</time>
      </trkpt>
      <trkpt lat="44.12533" lon="4.95695">
        <ele>104</ele>
        <time>2012-08-02T18:10:35Z</time>
      </trkpt>
      <trkpt lat="44.12527" lon="4.95687">
        <ele>103</ele>
        <time>2012-08-02T18:10:45Z</time>
      </trkpt>
      <trkpt lat="44.12528" lon="4.95698">
        <ele>105</ele>
        <time>2012-08-02T18:11:12Z</time>
      </trkpt>
      <trkpt lat="44.12527" lon="4.95699">
        <ele>106</ele>
        <time>2012-08-02T18:11:13Z</time>
      </trkpt>
      <trkpt lat="44.12514" lon="4.95686">
        <ele>104</ele>
        <time>2012-08-02T18:11:32Z</time>
      </trkpt>
      <trkpt lat="44.12506" lon="4.95685">
        <ele>102</ele>
        <time>2012-08-02T18:11:39Z</time>
      </trkpt>
      <trkpt lat="44.12498" lon="4.95683">
        <ele>101</ele>
        <time>2012-08-02T18:11:44Z</time>
      </trkpt>
      <trkpt lat="44.1249" lon="4.95682">
        <ele>102</ele>
        <time>2012-08-02T18:11:50Z</time>
      </trkpt>
      <trkpt lat="44.12482" lon="4.9568">
        <ele>103</ele>
        <time>2012-08-02T18:11:59Z</time>
      </trkpt>
      <trkpt lat="44.12474" lon="4.95676">
        <ele>103</ele>
        <time>2012-08-02T18:12:04Z</time>
      </trkpt>
      <trkpt lat="44.12465" lon="4.95674">
        <ele>100</ele>
        <time>2012-08-02T18:12:10Z</time>
      </trkpt>
      <trkpt lat="44.12457" lon="4.95671">
        <ele>101</ele>
        <time>2012-08-02T18:12:16Z</time>
      </trkpt>
      <trkpt lat="44.12456" lon="4.9567">
        <ele>101</ele>
        <time>2012-08-02T18:12:17Z</time>
      </trkpt>
      <trkpt lat="44.12442" lon="4.95666">
        <ele>103</ele>
        <time>2012-08-02T18:12:26Z</time>
      </trkpt>
      <trkpt lat="44.12434" lon="4.95664">
        <ele>103</ele>
        <time>2012-08-02T18:12:33Z</time>
      </trkpt>
      <trkpt lat="44.12426" lon="4.95662">
        <ele>105</ele>
        <time>2012-08-02T18:12:38Z</time>
      </trkpt>
      <trkpt lat="44.12418" lon="4.9566">
        <ele>105</ele>
        <time>2012-08-02T18:12:44Z</time>
      </trkpt>
      <trkpt lat="44.1241" lon="4.95657">
        <ele>105</ele>
        <time>2012-08-02T18:12:50Z</time>
      </trkpt>
      <trkpt lat="44.12401" lon="4.95656">
        <ele>104</ele>
        <time>2012-08-02T18:12:56Z</time>
      </trkpt>
      <trkpt lat="44.12392" lon="4.95654">
        <ele>104</ele>
        <time>2012-08-02T18:13:02Z</time>
      </trkpt>
      <trkpt lat="44.12385" lon="4.95651">
        <ele>105</ele>
        <time>2012-08-02T18:13:08Z</time>
      </trkpt>
      <trkpt lat="44.12376" lon="4.95648">
        <ele>104</ele>
        <time>2012-08-02T18:13:14Z</time>
      </trkpt>
      <trkpt lat="44.12367" lon="4.95646">
        <ele>103</ele>
        <time>2012-08-02T18:13:21Z</time>
      </trkpt>
      <trkpt lat="44.12366" lon="4.95646">
        <ele>104</ele>
        <time>2012-08-02T18:13:22Z</time>
      </trkpt>
      <trkpt lat="44.12351" lon="4.95643">
        <ele>105</ele>
        <time>2012-08-02T18:13:32Z</time>
      </trkpt>
      <trkpt lat="44.12343" lon="4.9564">
        <ele>103</ele>
        <time>2012-08-02T18:13:37Z</time>
      </trkpt>
      <trkpt lat="44.12335" lon="4.95636">
        <ele>101</ele>
        <time>2012-08-02T18:13:42Z</time>
      </trkpt>
      <trkpt lat="44.12327" lon="4.95635">
        <ele>101</ele>
        <time>2012-08-02T18:13:47Z</time>
      </trkpt>
      <trkpt lat="44.1232" lon="4.95631">
        <ele>102</ele>
        <time>2012-08-02T18:13:53Z</time>
      </trkpt>
      <trkpt lat="44.12311" lon="4.95628">
        <ele>99</ele>
        <time>2012-08-02T18:13:59Z</time>
      </trkpt>
      <trkpt lat="44.12303" lon="4.95626">
        <ele>99</ele>
        <time>2012-08-02T18:14:05Z</time>
      </trkpt>
      <trkpt lat="44.12294" lon="4.95625">
        <ele>100</ele>
        <time>2012-08-02T18:14:11Z</time>
      </trkpt>
      <trkpt lat="44.12286" lon="4.95622">
        <ele>99</ele>
        <time>2012-08-02T18:14:16Z</time>
      </trkpt>
      <trkpt lat="44.12279" lon="4.95619">
        <ele>96</ele>
        <time>2012-08-02T18:14:21Z</time>
      </trkpt>
      <trkpt lat="44.12277" lon="4.95619">
        <ele>95</ele>
        <time>2012-08-02T18:14:22Z</time>
      </trkpt>
      <trkpt lat="44.12263" lon="4.95617">
        <ele>94</ele>
        <time>2012-08-02T18:14:30Z</time>
      </trkpt>
      <trkpt lat="44.12255" lon="4.95616">
        <ele>93</ele>
        <time>2012-08-02T18:14:34Z</time>
      </trkpt>
      <trkpt lat="44.12249" lon="4.95609">
        <ele>92</ele>
        <time>2012-08-02T18:14:41Z</time>
      </trkpt>
      <trkpt lat="44.1224" lon="4.95604">
        <ele>90</ele>
        <time>2012-08-02T18:14:50Z</time>
      </trkpt>
      <trkpt lat="44.12233" lon="4.956">
        <ele>92</ele>
        <time>2012-08-02T18:14:55Z</time>
      </trkpt>
      <trkpt lat="44.12225" lon="4.95601">
        <ele>98</ele>
        <time>2012-08-02T18:15:02Z</time>
      </trkpt>
      <trkpt lat="44.12217" lon="4.95598">
        <ele>98</ele>
        <time>2012-08-02T18:15:09Z</time>
      </trkpt>
      <trkpt lat="44.12208" lon="4.95597">
        <ele>96</ele>
        <time>2012-08-02T18:15:16Z</time>
      </trkpt>
      <trkpt lat="44.12199" lon="4.95595">
        <ele>95</ele>
        <time>2012-08-02T18:15:20Z</time>
      </trkpt>
      <trkpt lat="44.12191" lon="4.95594">
        <ele>95</ele>
        <time>2012-08-02T18:15:26Z</time>
      </trkpt>
      <trkpt lat="44.1219" lon="4.95593">
        <ele>95</ele>
        <time>2012-08-02T18:15:27Z</time>
      </trkpt>
      <trkpt lat="44.12175" lon="4.95594">
        <ele>96</ele>
        <time>2012-08-02T18:15:39Z</time>
      </trkpt>
      <trkpt lat="44.12167" lon="4.95593">
        <ele>96</ele>
        <time>2012-08-02T18:15:45Z</time>
      </trkpt>
      <trkpt lat="44.12159" lon="4.9559">
        <ele>94</ele>
        <time>2012-08-02T18:15:51Z</time>
      </trkpt>
      <trkpt lat="44.1215" lon="4.95587">
        <ele>95</ele>
        <time>2012-08-02T18:15:58Z</time>
      </trkpt>
      <trkpt lat="44.12145" lon="4.95577">
        <ele>96</ele>
        <time>2012-08-02T18:16:04Z</time>
      </trkpt>
      <trkpt lat="44.12136" lon="4.95578">
        <ele>96</ele>
        <time>2012-08-02T18:16:11Z</time>
      </trkpt>
      <trkpt lat="44.12129" lon="4.95576">
        <ele>94</ele>
        <time>2012-08-02T18:16:16Z</time>
      </trkpt>
      <trkpt lat="44.12122" lon="4.95572">
        <ele>94</ele>
        <time>2012-08-02T18:16:20Z</time>
      </trkpt>
      <trkpt lat="44.12113" lon="4.9557">
        <ele>89</ele>
        <time>2012-08-02T18:16:26Z</time>
      </trkpt>
      <trkpt lat="44.12105" lon="4.95569">
        <ele>90</ele>
        <time>2012-08-02T18:16:32Z</time>
      </trkpt>
      <trkpt lat="44.12104" lon="4.95569">
        <ele>91</ele>
        <time>2012-08-02T18:16:33Z</time>
      </trkpt>
      <trkpt lat="44.12089" lon="4.95562">
        <ele>92</ele>
        <time>2012-08-02T18:16:46Z</time>
      </trkpt>
      <trkpt lat="44.12081" lon="4.95559">
        <ele>94</ele>
        <time>2012-08-02T18:16:53Z</time>
      </trkpt>
      <trkpt lat="44.12073" lon="4.95556">
        <ele>96</ele>
        <time>2012-08-02T18:17:13Z</time>
      </trkpt>
      <trkpt lat="44.12065" lon="4.95556">
        <ele>96</ele>
        <time>2012-08-02T18:17:19Z</time>
      </trkpt>
      <trkpt lat="44.12057" lon="4.95556">
        <ele>97</ele>
        <time>2012-08-02T18:17:24Z</time>
      </trkpt>
      <trkpt lat="44.12048" lon="4.95558">
        <ele>96</ele>
        <time>2012-08-02T18:17:30Z</time>
      </trkpt>
      <trkpt lat="44.12041" lon="4.95552">
        <ele>96</ele>
        <time>2012-08-02T18:17:36Z</time>
      </trkpt>
      <trkpt lat="44.1204" lon="4.95551">
        <ele>96</ele>
        <time>2012-08-02T18:17:37Z</time>
      </trkpt>
      <trkpt lat="44.12025" lon="4.95547">
        <ele>98</ele>
        <time>2012-08-02T18:17:50Z</time>
      </trkpt>
      <trkpt lat="44.12017" lon="4.95547">
        <ele>97</ele>
        <time>2012-08-02T18:17:56Z</time>
      </trkpt>
      <trkpt lat="44.12009" lon="4.95544">
        <ele>95</ele>
        <time>2012-08-02T18:18:04Z</time>
      </trkpt>
      <trkpt lat="44.12002" lon="4.95539">
        <ele>95</ele>
        <time>2012-08-02T18:18:09Z</time>
      </trkpt>
      <trkpt lat="44.11995" lon="4.95536">
        <ele>96</ele>
        <time>2012-08-02T18:18:14Z</time>
      </trkpt>
      <trkpt lat="44.11989" lon="4.95536">
        <ele>98</ele>
        <time>2012-08-02T18:18:17Z</time>
      </trkpt>
      <trkpt lat="44.11982" lon="4.95534">
        <ele>98</ele>
        <time>2012-08-02T18:18:19Z</time>
      </trkpt>
      <trkpt lat="44.11975" lon="4.95533">
        <ele>98</ele>
        <time>2012-08-02T18:18:21Z</time>
      </trkpt>
      <trkpt lat="44.11967" lon="4.95531">
        <ele>99</ele>
        <time>2012-08-02T18:18:23Z</time>
      </trkpt>
      <trkpt lat="44.1196" lon="4.95529">
        <ele>99</ele>
        <time>2012-08-02T18:18:25Z</time>
      </trkpt>
      <trkpt lat="44.11953" lon="4.95528">
        <ele>100</ele>
        <time>2012-08-02T18:18:27Z</time>
      </trkpt>
      <trkpt lat="44.11947" lon="4.95526">
        <ele>101</ele>
        <time>2012-08-02T18:18:29Z</time>
      </trkpt>
      <trkpt lat="44.11941" lon="4.95524">
        <ele>102</ele>
        <time>2012-08-02T18:18:31Z</time>
      </trkpt>
      <trkpt lat="44.11934" lon="4.95522">
        <ele>102</ele>
        <time>2012-08-02T18:18:33Z</time>
      </trkpt>
      <trkpt lat="44.11927" lon="4.95521">
        <ele>102</ele>
        <time>2012-08-02T18:18:35Z</time>
      </trkpt>
      <trkpt lat="44.11921" lon="4.95521">
        <ele>103</ele>
        <time>2012-08-02T18:18:37Z</time>
      </trkpt>
      <trkpt lat="44.11918" lon="4.9552">
        <ele>103</ele>
        <time>2012-08-02T18:18:38Z</time>
      </trkpt>
      <trkpt lat="44.11908" lon="4.95517">
        <ele>102</ele>
        <time>2012-08-02T18:18:41Z</time>
      </trkpt>
      <trkpt lat="44.11902" lon="4.95515">
        <ele>100</ele>
        <time>2012-08-02T18:18:43Z</time>
      </trkpt>
      <trkpt lat="44.11895" lon="4.95513">
        <ele>99</ele>
        <time>2012-08-02T18:18:45Z</time>
      </trkpt>
      <trkpt lat="44.11889" lon="4.95511">
        <ele>98</ele>
        <time>2012-08-02T18:18:47Z</time>
      </trkpt>
      <trkpt lat="44.11883" lon="4.95508">
        <ele>95</ele>
        <time>2012-08-02T18:18:49Z</time>
      </trkpt>
      <trkpt lat="44.11877" lon="4.95505">
        <ele>96</ele>
        <time>2012-08-02T18:18:51Z</time>
      </trkpt>
      <trkpt lat="44.11871" lon="4.95503">
        <ele>96</ele>
        <time>2012-08-02T18:18:53Z</time>
      </trkpt>
      <trkpt lat="44.11864" lon="4.95501">
        <ele>96</ele>
        <time>2012-08-02T18:18:55Z</time>
      </trkpt>
      <trkpt lat="44.11857" lon="4.95498">
        <ele>99</ele>
        <time>2012-08-02T18:18:57Z</time>
      </trkpt>
      <trkpt lat="44.11851" lon="4.95496">
        <ele>100</ele>
        <time>2012-08-02T18:18:59Z</time>
      </trkpt>
      <trkpt lat="44.11844" lon="4.95493">
        <ele>100</ele>
        <time>2012-08-02T18:19:01Z</time>
      </trkpt>
      <trkpt lat="44.11838" lon="4.95491">
        <ele>98</ele>
        <time>2012-08-02T18:19:03Z</time>
      </trkpt>
      <trkpt lat="44.11829" lon="4.95489">
        <ele>96</ele>
        <time>2012-08-02T18:19:06Z</time>
      </trkpt>
      <trkpt lat="44.11821" lon="4.95485">
        <ele>96</ele>
        <time>2012-08-02T18:19:11Z</time>
      </trkpt>
      <trkpt lat="44.11813" lon="4.95483">
        <ele>95</ele>
        <time>2012-08-02T18:19:17Z</time>
      </trkpt>
      <trkpt lat="44.11805" lon="4.9548">
        <ele>94</ele>
        <time>2012-08-02T18:19:24Z</time>
      </trkpt>
      <trkpt lat="44.11796" lon="4.95476">
        <ele>95</ele>
        <time>2012-08-02T18:19:29Z</time>
      </trkpt>
      <trkpt lat="44.11788" lon="4.95473">
        <ele>94</ele>
        <time>2012-08-02T18:19:33Z</time>
      </trkpt>
      <trkpt lat="44.1178" lon="4.95473">
        <ele>94</ele>
        <time>2012-08-02T18:19:36Z</time>
      </trkpt>
      <trkpt lat="44.11773" lon="4.95472">
        <ele>94</ele>
        <time>2012-08-02T18:19:38Z</time>
      </trkpt>
      <trkpt lat="44.1177" lon="4.95472">
        <ele>95</ele>
        <time>2012-08-02T18:19:39Z</time>
      </trkpt>
      <trkpt lat="44.1176" lon="4.9547">
        <ele>92</ele>
        <time>2012-08-02T18:19:42Z</time>
      </trkpt>
      <trkpt lat="44.11752" lon="4.95467">
        <ele>92</ele>
        <time>2012-08-02T18:19:45Z</time>
      </trkpt>
      <trkpt lat="44.11743" lon="4.95464">
        <ele>92</ele>
        <time>2012-08-02T18:19:48Z</time>
      </trkpt>
      <trkpt lat="44.11736" lon="4.95461">
        <ele>93</ele>
        <time>2012-08-02T18:19:50Z</time>
      </trkpt>
      <trkpt lat="44.11727" lon="4.95458">
        <ele>93</ele>
        <time>2012-08-02T18:19:52Z</time>
      </trkpt>
      <trkpt lat="44.1172" lon="4.95455">
        <ele>90</ele>
        <time>2012-08-02T18:19:54Z</time>
      </trkpt>
      <trkpt lat="44.11711" lon="4.95455">
        <ele>89</ele>
        <time>2012-08-02T18:19:56Z</time>
      </trkpt>
      <trkpt lat="44.11706" lon="4.95454">
        <ele>90</ele>
        <time>2012-08-02T18:19:57Z</time>
      </trkpt>
      <trkpt lat="44.11701" lon="4.95454">
        <ele>90</ele>
        <time>2012-08-02T18:19:58Z</time>
      </trkpt>
      <trkpt lat="44.11696" lon="4.95454">
        <ele>90</ele>
        <time>2012-08-02T18:19:59Z</time>
      </trkpt>
      <trkpt lat="44.11688" lon="4.95452">
        <ele>89</ele>
        <time>2012-08-02T18:20:01Z</time>
      </trkpt>
      <trkpt lat="44.1168" lon="4.95451">
        <ele>89</ele>
        <time>2012-08-02T18:20:03Z</time>
      </trkpt>
      <trkpt lat="44.11673" lon="4.95451">
        <ele>88</ele>
        <time>2012-08-02T18:20:05Z</time>
      </trkpt>
      <trkpt lat="44.11666" lon="4.9545">
        <ele>89</ele>
        <time>2012-08-02T18:20:07Z</time>
      </trkpt>
      <trkpt lat="44.11659" lon="4.9545">
        <ele>87</ele>
        <time>2012-08-02T18:20:09Z</time>
      </trkpt>
      <trkpt lat="44.1165" lon="4.95451">
        <ele>87</ele>
        <time>2012-08-02T18:20:11Z</time>
      </trkpt>
      <trkpt lat="44.11642" lon="4.95451">
        <ele>87</ele>
        <time>2012-08-02T18:20:13Z</time>
      </trkpt>
      <trkpt lat="44.11633" lon="4.95452">
        <ele>87</ele>
        <time>2012-08-02T18:20:15Z</time>
      </trkpt>
      <trkpt lat="44.11625" lon="4.95453">
        <ele>86</ele>
        <time>2012-08-02T18:20:17Z</time>
      </trkpt>
      <trkpt lat="44.11617" lon="4.95452">
        <ele>87</ele>
        <time>2012-08-02T18:20:19Z</time>
      </trkpt>
      <trkpt lat="44.11609" lon="4.95451">
        <ele>86</ele>
        <time>2012-08-02T18:20:21Z</time>
      </trkpt>
      <trkpt lat="44.11601" lon="4.95451">
        <ele>83</ele>
        <time>2012-08-02T18:20:23Z</time>
      </trkpt>
      <trkpt lat="44.11593" lon="4.95449">
        <ele>83</ele>
        <time>2012-08-02T18:20:25Z</time>
      </trkpt>
      <trkpt lat="44.11585" lon="4.95448">
        <ele>83</ele>
        <time>2012-08-02T18:20:27Z</time>
      </trkpt>
      <trkpt lat="44.11577" lon="4.95446">
        <ele>85</ele>
        <time>2012-08-02T18:20:29Z</time>
      </trkpt>
      <trkpt lat="44.1157" lon="4.95446">
        <ele>86</ele>
        <time>2012-08-02T18:20:31Z</time>
      </trkpt>
      <trkpt lat="44.11562" lon="4.95447">
        <ele>86</ele>
        <time>2012-08-02T18:20:34Z</time>
      </trkpt>
      <trkpt lat="44.11556" lon="4.95448">
        <ele>87</ele>
        <time>2012-08-02T18:20:36Z</time>
      </trkpt>
      <trkpt lat="44.1155" lon="4.95448">
        <ele>87</ele>
        <time>2012-08-02T18:20:39Z</time>
      </trkpt>
      <trkpt lat="44.11543" lon="4.95449">
        <ele>87</ele>
        <time>2012-08-02T18:20:40Z</time>
      </trkpt>
      <trkpt lat="44.11539" lon="4.95449">
        <ele>86</ele>
        <time>2012-08-02T18:20:41Z</time>
      </trkpt>
      <trkpt lat="44.11529" lon="4.95449">
        <ele>86</ele>
        <time>2012-08-02T18:20:45Z</time>
      </trkpt>
      <trkpt lat="44.11523" lon="4.95448">
        <ele>87</ele>
        <time>2012-08-02T18:20:46Z</time>
      </trkpt>
      <trkpt lat="44.11516" lon="4.95446">
        <ele>86</ele>
        <time>2012-08-02T18:20:48Z</time>
      </trkpt>
      <trkpt lat="44.11508" lon="4.95446">
        <ele>84</ele>
        <time>2012-08-02T18:20:50Z</time>
      </trkpt>
      <trkpt lat="44.11502" lon="4.95445">
        <ele>82</ele>
        <time>2012-08-02T18:20:52Z</time>
      </trkpt>
      <trkpt lat="44.11493" lon="4.95444">
        <ele>80</ele>
        <time>2012-08-02T18:20:55Z</time>
      </trkpt>
      <trkpt lat="44.11487" lon="4.95442">
        <ele>81</ele>
        <time>2012-08-02T18:20:57Z</time>
      </trkpt>
      <trkpt lat="44.11481" lon="4.95442">
        <ele>81</ele>
        <time>2012-08-02T18:20:59Z</time>
      </trkpt>
      <trkpt lat="44.11472" lon="4.95442">
        <ele>81</ele>
        <time>2012-08-02T18:21:02Z</time>
      </trkpt>
      <trkpt lat="44.11465" lon="4.95445">
        <ele>81</ele>
        <time>2012-08-02T18:21:06Z</time>
      </trkpt>
      <trkpt lat="44.11457" lon="4.95445">
        <ele>80</ele>
        <time>2012-08-02T18:21:13Z</time>
      </trkpt>
      <trkpt lat="44.11448" lon="4.95443">
        <ele>82</ele>
        <time>2012-08-02T18:21:20Z</time>
      </trkpt>
      <trkpt lat="44.1144" lon="4.95445">
        <ele>83</ele>
        <time>2012-08-02T18:21:25Z</time>
      </trkpt>
      <trkpt lat="44.11431" lon="4.95447">
        <ele>84</ele>
        <time>2012-08-02T18:21:31Z</time>
      </trkpt>
      <trkpt lat="44.11424" lon="4.95444">
        <ele>81</ele>
        <time>2012-08-02T18:21:36Z</time>
      </trkpt>
      <trkpt lat="44.11417" lon="4.95444">
        <ele>82</ele>
        <time>2012-08-02T18:21:40Z</time>
      </trkpt>
      <trkpt lat="44.11409" lon="4.95443">
        <ele>83</ele>
        <time>2012-08-02T18:21:45Z</time>
      </trkpt>
      <trkpt lat="44.11408" lon="4.95443">
        <ele>83</ele>
        <time>2012-08-02T18:21:46Z</time>
      </trkpt>
      <trkpt lat="44.11393" lon="4.95448">
        <ele>85</ele>
        <time>2012-08-02T18:21:59Z</time>
      </trkpt>
      <trkpt lat="44.11385" lon="4.95449">
        <ele>90</ele>
        <time>2012-08-02T18:22:15Z</time>
      </trkpt>
      <trkpt lat="44.11377" lon="4.95453">
        <ele>89</ele>
        <time>2012-08-02T18:22:22Z</time>
      </trkpt>
      <trkpt lat="44.11372" lon="4.95462">
        <ele>91</ele>
        <time>2012-08-02T18:22:26Z</time>
      </trkpt>
      <trkpt lat="44.11375" lon="4.95473">
        <ele>93</ele>
        <time>2012-08-02T18:22:30Z</time>
      </trkpt>
      <trkpt lat="44.11375" lon="4.95483">
        <ele>91</ele>
        <time>2012-08-02T18:22:33Z</time>
      </trkpt>
      <trkpt lat="44.11371" lon="4.95489">
        <ele>89</ele>
        <time>2012-08-02T18:22:34Z</time>
      </trkpt>
      <trkpt lat="44.11368" lon="4.95498">
        <ele>92</ele>
        <time>2012-08-02T18:22:36Z</time>
      </trkpt>
      <trkpt lat="44.11368" lon="4.95507">
        <ele>92</ele>
        <time>2012-08-02T18:22:38Z</time>
      </trkpt>
      <trkpt lat="44.11367" lon="4.95516">
        <ele>92</ele>
        <time>2012-08-02T18:22:40Z</time>
      </trkpt>
      <trkpt lat="44.11367" lon="4.95528">
        <ele>92</ele>
        <time>2012-08-02T18:22:43Z</time>
      </trkpt>
      <trkpt lat="44.11366" lon="4.95539">
        <ele>92</ele>
        <time>2012-08-02T18:22:46Z</time>
      </trkpt>
      <trkpt lat="44.11367" lon="4.95544">
        <ele>93</ele>
        <time>2012-08-02T18:22:47Z</time>
      </trkpt>
      <trkpt lat="44.11368" lon="4.95557">
        <ele>95</ele>
        <time>2012-08-02T18:22:50Z</time>
      </trkpt>
      <trkpt lat="44.11368" lon="4.95566">
        <ele>96</ele>
        <time>2012-08-02T18:22:52Z</time>
      </trkpt>
      <trkpt lat="44.11369" lon="4.95576">
        <ele>95</ele>
        <time>2012-08-02T18:22:54Z</time>
      </trkpt>
      <trkpt lat="44.11368" lon="4.95585">
        <ele>97</ele>
        <time>2012-08-02T18:22:56Z</time>
      </trkpt>
      <trkpt lat="44.11367" lon="4.95595">
        <ele>98</ele>
        <time>2012-08-02T18:22:58Z</time>
      </trkpt>
      <trkpt lat="44.11367" lon="4.95604">
        <ele>99</ele>
        <time>2012-08-02T18:23:00Z</time>
      </trkpt>
      <trkpt lat="44.11363" lon="4.95613">
        <ele>98</ele>
        <time>2012-08-02T18:23:02Z</time>
      </trkpt>
      <trkpt lat="44.11356" lon="4.9562">
        <ele>97</ele>
        <time>2012-08-02T18:23:04Z</time>
      </trkpt>
      <trkpt lat="44.1135" lon="4.95629">
        <ele>96</ele>
        <time>2012-08-02T18:23:06Z</time>
      </trkpt>
      <trkpt lat="44.11344" lon="4.95632">
        <ele>94</ele>
        <time>2012-08-02T18:23:07Z</time>
      </trkpt>
      <trkpt lat="44.11337" lon="4.95639">
        <ele>93</ele>
        <time>2012-08-02T18:23:09Z</time>
      </trkpt>
      <trkpt lat="44.1133" lon="4.95644">
        <ele>93</ele>
        <time>2012-08-02T18:23:11Z</time>
      </trkpt>
      <trkpt lat="44.11325" lon="4.9565">
        <ele>96</ele>
        <time>2012-08-02T18:23:13Z</time>
      </trkpt>
      <trkpt lat="44.1132" lon="4.95656">
        <ele>90</ele>
        <time>2012-08-02T18:23:15Z</time>
      </trkpt>
      <trkpt lat="44.11312" lon="4.95663">
        <ele>89</ele>
        <time>2012-08-02T18:23:17Z</time>
      </trkpt>
      <trkpt lat="44.113" lon="4.95663">
        <ele>90</ele>
        <time>2012-08-02T18:23:18Z</time>
      </trkpt>
      <trkpt lat="44.11294" lon="4.95666">
        <ele>90</ele>
        <time>2012-08-02T18:23:19Z</time>
      </trkpt>
      <trkpt lat="44.1129" lon="4.95671">
        <ele>90</ele>
        <time>2012-08-02T18:23:20Z</time>
      </trkpt>
      <trkpt lat="44.11286" lon="4.95675">
        <ele>90</ele>
        <time>2012-08-02T18:23:22Z</time>
      </trkpt>
      <trkpt lat="44.11282" lon="4.95679">
        <ele>90</ele>
        <time>2012-08-02T18:23:22Z</time>
      </trkpt>
      <trkpt lat="44.11278" lon="4.95687">
        <ele>90</ele>
        <time>2012-08-02T18:23:24Z</time>
      </trkpt>
      <trkpt lat="44.11274" lon="4.95694">
        <ele>87</ele>
        <time>2012-08-02T18:23:26Z</time>
      </trkpt>
      <trkpt lat="44.11268" lon="4.95699">
        <ele>86</ele>
        <time>2012-08-02T18:23:28Z</time>
      </trkpt>
      <trkpt lat="44.11263" lon="4.95704">
        <ele>87</ele>
        <time>2012-08-02T18:23:30Z</time>
      </trkpt>
      <trkpt lat="44.11257" lon="4.95709">
        <ele>86</ele>
        <time>2012-08-02T18:23:32Z</time>
      </trkpt>
      <trkpt lat="44.11251" lon="4.95714">
        <ele>87</ele>
        <time>2012-08-02T18:23:34Z</time>
      </trkpt>
      <trkpt lat="44.11251" lon="4.95724">
        <ele>87</ele>
        <time>2012-08-02T18:23:36Z</time>
      </trkpt>
      <trkpt lat="44.11253" lon="4.95731">
        <ele>88</ele>
        <time>2012-08-02T18:23:37Z</time>
      </trkpt>
      <trkpt lat="44.11257" lon="4.95741">
        <ele>90</ele>
        <time>2012-08-02T18:23:40Z</time>
      </trkpt>
      <trkpt lat="44.1126" lon="4.95749">
        <ele>92</ele>
        <time>2012-08-02T18:23:42Z</time>
      </trkpt>
      <trkpt lat="44.11265" lon="4.95755">
        <ele>93</ele>
        <time>2012-08-02T18:23:44Z</time>
      </trkpt>
      <trkpt lat="44.1127" lon="4.95762">
        <ele>93</ele>
        <time>2012-08-02T18:23:46Z</time>
      </trkpt>
      <trkpt lat="44.11274" lon="4.95768">
        <ele>94</ele>
        <time>2012-08-02T18:23:48Z</time>
      </trkpt>
      <trkpt lat="44.11276" lon="4.95772">
        <ele>94</ele>
        <time>2012-08-02T18:23:49Z</time>
      </trkpt>
      <trkpt lat="44.11281" lon="4.95782">
        <ele>95</ele>
        <time>2012-08-02T18:23:51Z</time>
      </trkpt>
      <trkpt lat="44.11286" lon="4.95792">
        <ele>96</ele>
        <time>2012-08-02T18:23:53Z</time>
      </trkpt>
      <trkpt lat="44.11289" lon="4.95796">
        <ele>95</ele>
        <time>2012-08-02T18:23:54Z</time>
      </trkpt>
      <trkpt lat="44.11293" lon="4.95801">
        <ele>93</ele>
        <time>2012-08-02T18:23:55Z</time>
      </trkpt>
      <trkpt lat="44.11296" lon="4.95806">
        <ele>92</ele>
        <time>2012-08-02T18:23:56Z</time>
      </trkpt>
      <trkpt lat="44.11301" lon="4.95819">
        <ele>92</ele>
        <time>2012-08-02T18:23:57Z</time>
      </trkpt>
      <trkpt lat="44.11307" lon="4.95828">
        <ele>90</ele>
        <time>2012-08-02T18:23:59Z</time>
      </trkpt>
      <trkpt lat="44.11307" lon="4.95836">
        <ele>91</ele>
        <time>2012-08-02T18:24:00Z</time>
      </trkpt>
      <trkpt lat="44.11308" lon="4.95842">
        <ele>91</ele>
        <time>2012-08-02T18:24:01Z</time>
      </trkpt>
      <trkpt lat="44.11303" lon="4.95849">
        <ele>91</ele>
        <time>2012-08-02T18:24:02Z</time>
      </trkpt>
      <trkpt lat="44.11297" lon="4.95851">
        <ele>91</ele>
        <time>2012-08-02T18:24:04Z</time>
      </trkpt>
      <trkpt lat="44.11291" lon="4.95858">
        <ele>90</ele>
        <time>2012-08-02T18:24:06Z</time>
      </trkpt>
      <trkpt lat="44.11275" lon="4.95859">
        <ele>84</ele>
        <time>2012-08-02T18:24:07Z</time>
      </trkpt>
      <trkpt lat="44.11267" lon="4.95861">
        <ele>85</ele>
        <time>2012-08-02T18:24:10Z</time>
      </trkpt>
      <trkpt lat="44.11259" lon="4.95863">
        <ele>85</ele>
        <time>2012-08-02T18:24:12Z</time>
      </trkpt>
      <trkpt lat="44.1125" lon="4.95865">
        <ele>86</ele>
        <time>2012-08-02T18:24:14Z</time>
      </trkpt>
      <trkpt lat="44.11242" lon="4.95863">
        <ele>84</ele>
        <time>2012-08-02T18:24:16Z</time>
      </trkpt>
      <trkpt lat="44.11235" lon="4.95862">
        <ele>85</ele>
        <time>2012-08-02T18:24:18Z</time>
      </trkpt>
      <trkpt lat="44.11227" lon="4.95862">
        <ele>84</ele>
        <time>2012-08-02T18:24:20Z</time>
      </trkpt>
      <trkpt lat="44.11219" lon="4.95863">
        <ele>84</ele>
        <time>2012-08-02T18:24:22Z</time>
      </trkpt>
      <trkpt lat="44.11211" lon="4.95862">
        <ele>84</ele>
        <time>2012-08-02T18:24:24Z</time>
      </trkpt>
      <trkpt lat="44.11204" lon="4.95861">
        <ele>86</ele>
        <time>2012-08-02T18:24:26Z</time>
      </trkpt>
      <trkpt lat="44.112" lon="4.95861">
        <ele>86</ele>
        <time>2012-08-02T18:24:27Z</time>
      </trkpt>
      <trkpt lat="44.11193" lon="4.95863">
        <ele>87</ele>
        <time>2012-08-02T18:24:28Z</time>
      </trkpt>
      <trkpt lat="44.11187" lon="4.95862">
        <ele>87</ele>
        <time>2012-08-02T18:24:29Z</time>
      </trkpt>
      <trkpt lat="44.11181" lon="4.95862">
        <ele>87</ele>
        <time>2012-08-02T18:24:30Z</time>
      </trkpt>
      <trkpt lat="44.11176" lon="4.95862">
        <ele>88</ele>
        <time>2012-08-02T18:24:31Z</time>
      </trkpt>
      <trkpt lat="44.1117" lon="4.95864">
        <ele>88</ele>
        <time>2012-08-02T18:24:32Z</time>
      </trkpt>
      <trkpt lat="44.11165" lon="4.95866">
        <ele>86</ele>
        <time>2012-08-02T18:24:33Z</time>
      </trkpt>
      <trkpt lat="44.1116" lon="4.95868">
        <ele>85</ele>
        <time>2012-08-02T18:24:34Z</time>
      </trkpt>
      <trkpt lat="44.11156" lon="4.9587">
        <ele>85</ele>
        <time>2012-08-02T18:24:35Z</time>
      </trkpt>
      <trkpt lat="44.11151" lon="4.95874">
        <ele>86</ele>
        <time>2012-08-02T18:24:36Z</time>
      </trkpt>
      <trkpt lat="44.11146" lon="4.95877">
        <ele>85</ele>
        <time>2012-08-02T18:24:37Z</time>
      </trkpt>
      <trkpt lat="44.11141" lon="4.9588">
        <ele>84</ele>
        <time>2012-08-02T18:24:38Z</time>
      </trkpt>
      <trkpt lat="44.11137" lon="4.95882">
        <ele>83</ele>
        <time>2012-08-02T18:24:39Z</time>
      </trkpt>
      <trkpt lat="44.11132" lon="4.95885">
        <ele>82</ele>
        <time>2012-08-02T18:24:40Z</time>
      </trkpt>
      <trkpt lat="44.11128" lon="4.95888">
        <ele>83</ele>
        <time>2012-08-02T18:24:41Z</time>
      </trkpt>
      <trkpt lat="44.11123" lon="4.95891">
        <ele>81</ele>
        <time>2012-08-02T18:24:42Z</time>
      </trkpt>
      <trkpt lat="44.11118" lon="4.95895">
        <ele>81</ele>
        <time>2012-08-02T18:24:43Z</time>
      </trkpt>
      <trkpt lat="44.11114" lon="4.95899">
        <ele>81</ele>
        <time>2012-08-02T18:24:44Z</time>
      </trkpt>
      <trkpt lat="44.11109" lon="4.95902">
        <ele>82</ele>
        <time>2012-08-02T18:24:45Z</time>
      </trkpt>
      <trkpt lat="44.11106" lon="4.95906">
        <ele>81</ele>
        <time>2012-08-02T18:24:46Z</time>
      </trkpt>
      <trkpt lat="44.11102" lon="4.95911">
        <ele>82</ele>
        <time>2012-08-02T18:24:47Z</time>
      </trkpt>
      <trkpt lat="44.11097" lon="4.95915">
        <ele>83</ele>
        <time>2012-08-02T18:24:48Z</time>
      </trkpt>
      <trkpt lat="44.11093" lon="4.95919">
        <ele>84</ele>
        <time>2012-08-02T18:24:49Z</time>
      </trkpt>
      <trkpt lat="44.11087" lon="4.95921">
        <ele>85</ele>
        <time>2012-08-02T18:24:50Z</time>
      </trkpt>
      <trkpt lat="44.11079" lon="4.95927">
        <ele>83</ele>
        <time>2012-08-02T18:24:52Z</time>
      </trkpt>
      <trkpt lat="44.11072" lon="4.95931">
        <ele>83</ele>
        <time>2012-08-02T18:24:54Z</time>
      </trkpt>
      <trkpt lat="44.11067" lon="4.95938">
        <ele>84</ele>
        <time>2012-08-02T18:25:00Z</time>
      </trkpt>
      <trkpt lat="44.11064" lon="4.95949">
        <ele>84</ele>
        <time>2012-08-02T18:25:05Z</time>
      </trkpt>
      <trkpt lat="44.11069" lon="4.95959">
        <ele>86</ele>
        <time>2012-08-02T18:25:18Z</time>
      </trkpt>
      <trkpt lat="44.11069" lon="4.9597">
        <ele>87</ele>
        <time>2012-08-02T18:25:24Z</time>
      </trkpt>
      <trkpt lat="44.11071" lon="4.95981">
        <ele>85</ele>
        <time>2012-08-02T18:25:29Z</time>
      </trkpt>
      <trkpt lat="44.11076" lon="4.9599">
        <ele>84</ele>
        <time>2012-08-02T18:25:31Z</time>
      </trkpt>
      <trkpt lat="44.11079" lon="4.96">
        <ele>89</ele>
        <time>2012-08-02T18:25:35Z</time>
      </trkpt>
      <trkpt lat="44.1108" lon="4.96013">
        <ele>89</ele>
        <time>2012-08-02T18:25:38Z</time>
      </trkpt>
      <trkpt lat="44.11081" lon="4.96023">
        <ele>88</ele>
        <time>2012-08-02T18:25:40Z</time>
      </trkpt>
      <trkpt lat="44.11085" lon="4.96034">
        <ele>90</ele>
        <time>2012-08-02T18:25:42Z</time>
      </trkpt>
      <trkpt lat="44.11086" lon="4.96038">
        <ele>90</ele>
        <time>2012-08-02T18:25:43Z</time>
      </trkpt>
      <trkpt lat="44.11094" lon="4.96051">
        <ele>89</ele>
        <time>2012-08-02T18:25:44Z</time>
      </trkpt>
      <trkpt lat="44.1109" lon="4.9606">
        <ele>89</ele>
        <time>2012-08-02T18:25:46Z</time>
      </trkpt>
      <trkpt lat="44.11091" lon="4.9607">
        <ele>87</ele>
        <time>2012-08-02T18:25:48Z</time>
      </trkpt>
      <trkpt lat="44.1109" lon="4.96078">
        <ele>88</ele>
        <time>2012-08-02T18:25:50Z</time>
      </trkpt>
      <trkpt lat="44.11092" lon="4.96084">
        <ele>89</ele>
        <time>2012-08-02T18:25:51Z</time>
      </trkpt>
      <trkpt lat="44.11093" lon="4.96102">
        <ele>89</ele>
        <time>2012-08-02T18:25:56Z</time>
      </trkpt>
      <trkpt lat="44.11097" lon="4.96112">
        <ele>87</ele>
        <time>2012-08-02T18:25:58Z</time>
      </trkpt>
      <trkpt lat="44.11099" lon="4.96124">
        <ele>87</ele>
        <time>2012-08-02T18:26:00Z</time>
      </trkpt>
      <trkpt lat="44.11101" lon="4.96135">
        <ele>86</ele>
        <time>2012-08-02T18:26:02Z</time>
      </trkpt>
      <trkpt lat="44.11103" lon="4.96147">
        <ele>86</ele>
        <time>2012-08-02T18:26:04Z</time>
      </trkpt>
      <trkpt lat="44.11109" lon="4.96156">
        <ele>89</ele>
        <time>2012-08-02T18:26:05Z</time>
      </trkpt>
      <trkpt lat="44.11111" lon="4.96162">
        <ele>88</ele>
        <time>2012-08-02T18:26:06Z</time>
      </trkpt>
      <trkpt lat="44.11107" lon="4.96169">
        <ele>87</ele>
        <time>2012-08-02T18:26:07Z</time>
      </trkpt>
      <trkpt lat="44.11107" lon="4.96182">
        <ele>88</ele>
        <time>2012-08-02T18:26:09Z</time>
      </trkpt>
      <trkpt lat="44.11108" lon="4.96188">
        <ele>90</ele>
        <time>2012-08-02T18:26:10Z</time>
      </trkpt>
      <trkpt lat="44.11108" lon="4.96195">
        <ele>91</ele>
        <time>2012-08-02T18:26:11Z</time>
      </trkpt>
      <trkpt lat="44.11108" lon="4.96201">
        <ele>91</ele>
        <time>2012-08-02T18:26:12Z</time>
      </trkpt>
      <trkpt lat="44.11107" lon="4.96209">
        <ele>89</ele>
        <time>2012-08-02T18:26:13Z</time>
      </trkpt>
      <trkpt lat="44.11107" lon="4.96218">
        <ele>88</ele>
        <time>2012-08-02T18:26:14Z</time>
      </trkpt>
      <trkpt lat="44.11105" lon="4.96224">
        <ele>87</ele>
        <time>2012-08-02T18:26:15Z</time>
      </trkpt>
      <trkpt lat="44.11104" lon="4.96231">
        <ele>87</ele>
        <time>2012-08-02T18:26:16Z</time>
      </trkpt>
      <trkpt lat="44.11104" lon="4.96236">
        <ele>86</ele>
        <time>2012-08-02T18:26:17Z</time>
      </trkpt>
      <trkpt lat="44.11103" lon="4.96243">
        <ele>86</ele>
        <time>2012-08-02T18:26:18Z</time>
      </trkpt>
      <trkpt lat="44.11101" lon="4.96254">
        <ele>87</ele>
        <time>2012-08-02T18:26:20Z</time>
      </trkpt>
      <trkpt lat="44.11099" lon="4.96264">
        <ele>86</ele>
        <time>2012-08-02T18:26:22Z</time>
      </trkpt>
      <trkpt lat="44.111" lon="4.96276">
        <ele>85</ele>
        <time>2012-08-02T18:26:26Z</time>
      </trkpt>
      <trkpt lat="44.11103" lon="4.96287">
        <ele>85</ele>
        <time>2012-08-02T18:26:31Z</time>
      </trkpt>
      <trkpt lat="44.11107" lon="4.96298">
        <ele>83</ele>
        <time>2012-08-02T18:26:36Z</time>
      </trkpt>
      <trkpt lat="44.11115" lon="4.96304">
        <ele>84</ele>
        <time>2012-08-02T18:26:43Z</time>
      </trkpt>
      <trkpt lat="44.11123" lon="4.96302">
        <ele>83</ele>
        <time>2012-08-02T18:26:54Z</time>
      </trkpt>
      <trkpt lat="44.11124" lon="4.96302">
        <ele>83</ele>
        <time>2012-08-02T18:26:54Z</time>
      </trkpt>
      <trkpt lat="44.11139" lon="4.96297">
        <ele>84</ele>
        <time>2012-08-02T18:27:12Z</time>
      </trkpt>
      <trkpt lat="44.11145" lon="4.96305">
        <ele>85</ele>
        <time>2012-08-02T18:27:18Z</time>
      </trkpt>
      <trkpt lat="44.11149" lon="4.96312">
        <ele>84</ele>
        <time>2012-08-02T18:27:22Z</time>
      </trkpt>
      <trkpt lat="44.11152" lon="4.96321">
        <ele>83</ele>
        <time>2012-08-02T18:27:25Z</time>
      </trkpt>
      <trkpt lat="44.11154" lon="4.96331">
        <ele>82</ele>
        <time>2012-08-02T18:27:28Z</time>
      </trkpt>
      <trkpt lat="44.11157" lon="4.96341">
        <ele>82</ele>
        <time>2012-08-02T18:27:31Z</time>
      </trkpt>
      <trkpt lat="44.11159" lon="4.96353">
        <ele>82</ele>
        <time>2012-08-02T18:27:36Z</time>
      </trkpt>
      <trkpt lat="44.1116" lon="4.96365">
        <ele>80</ele>
        <time>2012-08-02T18:27:42Z</time>
      </trkpt>
      <trkpt lat="44.11161" lon="4.96376">
        <ele>82</ele>
        <time>2012-08-02T18:27:47Z</time>
      </trkpt>
      <trkpt lat="44.11163" lon="4.96388">
        <ele>79</ele>
        <time>2012-08-02T18:27:52Z</time>
      </trkpt>
      <trkpt lat="44.11166" lon="4.96398">
        <ele>80</ele>
        <time>2012-08-02T18:27:59Z</time>
      </trkpt>
      <trkpt lat="44.11168" lon="4.96399">
        <ele>80</ele>
        <time>2012-08-02T18:28:00Z</time>
      </trkpt>
      <trkpt lat="44.11178" lon="4.96413">
        <ele>75</ele>
        <time>2012-08-02T18:28:09Z</time>
      </trkpt>
      <trkpt lat="44.1118" lon="4.96421">
        <ele>74</ele>
        <time>2012-08-02T18:28:12Z</time>
      </trkpt>
      <trkpt lat="44.11188" lon="4.96425">
        <ele>73</ele>
        <time>2012-08-02T18:28:14Z</time>
      </trkpt>
      <trkpt lat="44.11204" lon="4.96426">
        <ele>74</ele>
        <time>2012-08-02T18:28:15Z</time>
      </trkpt>
      <trkpt lat="44.11209" lon="4.96427">
        <ele>74</ele>
        <time>2012-08-02T18:28:16Z</time>
      </trkpt>
      <trkpt lat="44.11218" lon="4.96429">
        <ele>75</ele>
        <time>2012-08-02T18:28:17Z</time>
      </trkpt>
      <trkpt lat="44.11219" lon="4.96433">
        <ele>76</ele>
        <time>2012-08-02T18:28:19Z</time>
      </trkpt>
      <trkpt lat="44.11209" lon="4.96437">
        <ele>77</ele>
        <time>2012-08-02T18:28:20Z</time>
      </trkpt>
      <trkpt lat="44.11204" lon="4.96445">
        <ele>79</ele>
        <time>2012-08-02T18:28:24Z</time>
      </trkpt>
      <trkpt lat="44.11198" lon="4.96452">
        <ele>80</ele>
        <time>2012-08-02T18:28:27Z</time>
      </trkpt>
      <trkpt lat="44.11194" lon="4.96461">
        <ele>78</ele>
        <time>2012-08-02T18:28:32Z</time>
      </trkpt>
      <trkpt lat="44.11189" lon="4.96469">
        <ele>78</ele>
        <time>2012-08-02T18:28:36Z</time>
      </trkpt>
      <trkpt lat="44.11181" lon="4.96473">
        <ele>78</ele>
        <time>2012-08-02T18:28:46Z</time>
      </trkpt>
      <trkpt lat="44.11181" lon="4.96481">
        <ele>77</ele>
        <time>2012-08-02T18:28:54Z</time>
      </trkpt>
      <trkpt lat="44.11178" lon="4.96489">
        <ele>74</ele>
        <time>2012-08-02T18:28:56Z</time>
      </trkpt>
      <trkpt lat="44.11173" lon="4.96499">
        <ele>73</ele>
        <time>2012-08-02T18:28:58Z</time>
      </trkpt>
      <trkpt lat="44.11166" lon="4.96504">
        <ele>74</ele>
        <time>2012-08-02T18:29:01Z</time>
      </trkpt>
      <trkpt lat="44.11163" lon="4.96503">
        <ele>75</ele>
        <time>2012-08-02T18:29:02Z</time>
      </trkpt>
      <trkpt lat="44.1115" lon="4.96499">
        <ele>76</ele>
        <time>2012-08-02T18:29:08Z</time>
      </trkpt>
      <trkpt lat="44.11142" lon="4.96499">
        <ele>76</ele>
        <time>2012-08-02T18:29:11Z</time>
      </trkpt>
      <trkpt lat="44.11133" lon="4.96501">
        <ele>79</ele>
        <time>2012-08-02T18:29:16Z</time>
      </trkpt>
      <trkpt lat="44.11124" lon="4.96501">
        <ele>80</ele>
        <time>2012-08-02T18:29:20Z</time>
      </trkpt>
      <trkpt lat="44.11116" lon="4.965">
        <ele>81</ele>
        <time>2012-08-02T18:29:23Z</time>
      </trkpt>
      <trkpt lat="44.11108" lon="4.965">
        <ele>81</ele>
        <time>2012-08-02T18:29:28Z</time>
      </trkpt>
      <trkpt lat="44.111" lon="4.96499">
        <ele>81</ele>
        <time>2012-08-02T18:29:33Z</time>
      </trkpt>
      <trkpt lat="44.11093" lon="4.96502">
        <ele>81</ele>
        <time>2012-08-02T18:29:40Z</time>
      </trkpt>
      <trkpt lat="44.11086" lon="4.96503">
        <ele>82</ele>
        <time>2012-08-02T18:29:45Z</time>
      </trkpt>
      <trkpt lat="44.11078" lon="4.96506">
        <ele>81</ele>
        <time>2012-08-02T18:29:51Z</time>
      </trkpt>
      <trkpt lat="44.1107" lon="4.96512">
        <ele>82</ele>
        <time>2012-08-02T18:29:55Z</time>
      </trkpt>
      <trkpt lat="44.11063" lon="4.96516">
        <ele>81</ele>
        <time>2012-08-02T18:29:57Z</time>
      </trkpt>
      <trkpt lat="44.11057" lon="4.96522">
        <ele>83</ele>
        <time>2012-08-02T18:29:59Z</time>
      </trkpt>
      <trkpt lat="44.1105" lon="4.96528">
        <ele>82</ele>
        <time>2012-08-02T18:30:01Z</time>
      </trkpt>
      <trkpt lat="44.11043" lon="4.96534">
        <ele>80</ele>
        <time>2012-08-02T18:30:03Z</time>
      </trkpt>
      <trkpt lat="44.11041" lon="4.96537">
        <ele>81</ele>
        <time>2012-08-02T18:30:04Z</time>
      </trkpt>
      <trkpt lat="44.11033" lon="4.96545">
        <ele>82</ele>
        <time>2012-08-02T18:30:07Z</time>
      </trkpt>
      <trkpt lat="44.11025" lon="4.96549">
        <ele>83</ele>
        <time>2012-08-02T18:30:09Z</time>
      </trkpt>
      <trkpt lat="44.11018" lon="4.96555">
        <ele>82</ele>
        <time>2012-08-02T18:30:11Z</time>
      </trkpt>
      <trkpt lat="44.11012" lon="4.9656">
        <ele>84</ele>
        <time>2012-08-02T18:30:13Z</time>
      </trkpt>
      <trkpt lat="44.11005" lon="4.96567">
        <ele>86</ele>
        <time>2012-08-02T18:30:16Z</time>
      </trkpt>
      <trkpt lat="44.10999" lon="4.96571">
        <ele>84</ele>
        <time>2012-08-02T18:30:18Z</time>
      </trkpt>
      <trkpt lat="44.10994" lon="4.96575">
        <ele>83</ele>
        <time>2012-08-02T18:30:20Z</time>
      </trkpt>
      <trkpt lat="44.10988" lon="4.96579">
        <ele>82</ele>
        <time>2012-08-02T18:30:22Z</time>
      </trkpt>
      <trkpt lat="44.1098" lon="4.96585">
        <ele>83</ele>
        <time>2012-08-02T18:30:25Z</time>
      </trkpt>
      <trkpt lat="44.10973" lon="4.96589">
        <ele>81</ele>
        <time>2012-08-02T18:30:29Z</time>
      </trkpt>
      <trkpt lat="44.10966" lon="4.96593">
        <ele>83</ele>
        <time>2012-08-02T18:30:33Z</time>
      </trkpt>
      <trkpt lat="44.10962" lon="4.96597">
        <ele>81</ele>
        <time>2012-08-02T18:30:35Z</time>
      </trkpt>
      <trkpt lat="44.10955" lon="4.96601">
        <ele>82</ele>
        <time>2012-08-02T18:30:37Z</time>
      </trkpt>
      <trkpt lat="44.10949" lon="4.96606">
        <ele>82</ele>
        <time>2012-08-02T18:30:39Z</time>
      </trkpt>
      <trkpt lat="44.10944" lon="4.96611">
        <ele>82</ele>
        <time>2012-08-02T18:30:41Z</time>
      </trkpt>
      <trkpt lat="44.10939" lon="4.96621">
        <ele>82</ele>
        <time>2012-08-02T18:30:44Z</time>
      </trkpt>
      <trkpt lat="44.10938" lon="4.9663">
        <ele>82</ele>
        <time>2012-08-02T18:30:47Z</time>
      </trkpt>
      <trkpt lat="44.10941" lon="4.9664">
        <ele>81</ele>
        <time>2012-08-02T18:30:50Z</time>
      </trkpt>
      <trkpt lat="44.10944" lon="4.9665">
        <ele>81</ele>
        <time>2012-08-02T18:30:53Z</time>
      </trkpt>
      <trkpt lat="44.10947" lon="4.96662">
        <ele>81</ele>
        <time>2012-08-02T18:30:56Z</time>
      </trkpt>
      <trkpt lat="44.10949" lon="4.96673">
        <ele>81</ele>
        <time>2012-08-02T18:30:59Z</time>
      </trkpt>
      <trkpt lat="44.1095" lon="4.96681">
        <ele>80</ele>
        <time>2012-08-02T18:31:01Z</time>
      </trkpt>
      <trkpt lat="44.1095" lon="4.9669">
        <ele>80</ele>
        <time>2012-08-02T18:31:03Z</time>
      </trkpt>
      <trkpt lat="44.10951" lon="4.96701">
        <ele>81</ele>
        <time>2012-08-02T18:31:05Z</time>
      </trkpt>
      <trkpt lat="44.10952" lon="4.96707">
        <ele>82</ele>
        <time>2012-08-02T18:31:06Z</time>
      </trkpt>
      <trkpt lat="44.10954" lon="4.96721">
        <ele>79</ele>
        <time>2012-08-02T18:31:09Z</time>
      </trkpt>
      <trkpt lat="44.10957" lon="4.96729">
        <ele>79</ele>
        <time>2012-08-02T18:31:11Z</time>
      </trkpt>
      <trkpt lat="44.10961" lon="4.96737">
        <ele>77</ele>
        <time>2012-08-02T18:31:13Z</time>
      </trkpt>
      <trkpt lat="44.10965" lon="4.96747">
        <ele>80</ele>
        <time>2012-08-02T18:31:16Z</time>
      </trkpt>
      <trkpt lat="44.10966" lon="4.96751">
        <ele>80</ele>
        <time>2012-08-02T18:31:17Z</time>
      </trkpt>
      <trkpt lat="44.10956" lon="4.96761">
        <ele>77</ele>
        <time>2012-08-02T18:31:18Z</time>
      </trkpt>
      <trkpt lat="44.10956" lon="4.96769">
        <ele>76</ele>
        <time>2012-08-02T18:31:20Z</time>
      </trkpt>
      <trkpt lat="44.10958" lon="4.96778">
        <ele>76</ele>
        <time>2012-08-02T18:31:22Z</time>
      </trkpt>
      <trkpt lat="44.10961" lon="4.96786">
        <ele>74</ele>
        <time>2012-08-02T18:31:24Z</time>
      </trkpt>
      <trkpt lat="44.10965" lon="4.96798">
        <ele>74</ele>
        <time>2012-08-02T18:31:27Z</time>
      </trkpt>
      <trkpt lat="44.10966" lon="4.96806">
        <ele>77</ele>
        <time>2012-08-02T18:31:29Z</time>
      </trkpt>
      <trkpt lat="44.10967" lon="4.96815">
        <ele>79</ele>
        <time>2012-08-02T18:31:31Z</time>
      </trkpt>
      <trkpt lat="44.10966" lon="4.96823">
        <ele>79</ele>
        <time>2012-08-02T18:31:33Z</time>
      </trkpt>
      <trkpt lat="44.10963" lon="4.96831">
        <ele>79</ele>
        <time>2012-08-02T18:31:35Z</time>
      </trkpt>
      <trkpt lat="44.10956" lon="4.96838">
        <ele>79</ele>
        <time>2012-08-02T18:31:37Z</time>
      </trkpt>
      <trkpt lat="44.10949" lon="4.96843">
        <ele>78</ele>
        <time>2012-08-02T18:31:39Z</time>
      </trkpt>
      <trkpt lat="44.10943" lon="4.96849">
        <ele>78</ele>
        <time>2012-08-02T18:31:41Z</time>
      </trkpt>
      <trkpt lat="44.10936" lon="4.96854">
        <ele>80</ele>
        <time>2012-08-02T18:31:43Z</time>
      </trkpt>
      <trkpt lat="44.10931" lon="4.9686">
        <ele>80</ele>
        <time>2012-08-02T18:31:45Z</time>
      </trkpt>
      <trkpt lat="44.10925" lon="4.96865">
        <ele>71</ele>
        <time>2012-08-02T18:31:47Z</time>
      </trkpt>
      <trkpt lat="44.10917" lon="4.96869">
        <ele>74</ele>
        <time>2012-08-02T18:31:49Z</time>
      </trkpt>
      <trkpt lat="44.1091" lon="4.96874">
        <ele>79</ele>
        <time>2012-08-02T18:31:52Z</time>
      </trkpt>
      <trkpt lat="44.10903" lon="4.96881">
        <ele>79</ele>
        <time>2012-08-02T18:31:55Z</time>
      </trkpt>
      <trkpt lat="44.10897" lon="4.96885">
        <ele>80</ele>
        <time>2012-08-02T18:31:57Z</time>
      </trkpt>
      <trkpt lat="44.10891" lon="4.96892">
        <ele>82</ele>
        <time>2012-08-02T18:32:00Z</time>
      </trkpt>
      <trkpt lat="44.10885" lon="4.96901">
        <ele>81</ele>
        <time>2012-08-02T18:32:03Z</time>
      </trkpt>
      <trkpt lat="44.1088" lon="4.96906">
        <ele>80</ele>
        <time>2012-08-02T18:32:05Z</time>
      </trkpt>
      <trkpt lat="44.10878" lon="4.96909">
        <ele>80</ele>
        <time>2012-08-02T18:32:06Z</time>
      </trkpt>
      <trkpt lat="44.10869" lon="4.96924">
        <ele>82</ele>
        <time>2012-08-02T18:32:11Z</time>
      </trkpt>
      <trkpt lat="44.10869" lon="4.96937">
        <ele>82</ele>
        <time>2012-08-02T18:32:14Z</time>
      </trkpt>
      <trkpt lat="44.10868" lon="4.96949">
        <ele>82</ele>
        <time>2012-08-02T18:32:17Z</time>
      </trkpt>
      <trkpt lat="44.10863" lon="4.96957">
        <ele>83</ele>
        <time>2012-08-02T18:32:19Z</time>
      </trkpt>
      <trkpt lat="44.10861" lon="4.96965">
        <ele>80</ele>
        <time>2012-08-02T18:32:21Z</time>
      </trkpt>
      <trkpt lat="44.10859" lon="4.96977">
        <ele>79</ele>
        <time>2012-08-02T18:32:24Z</time>
      </trkpt>
      <trkpt lat="44.10856" lon="4.96986">
        <ele>79</ele>
        <time>2012-08-02T18:32:27Z</time>
      </trkpt>
      <trkpt lat="44.10855" lon="4.96995">
        <ele>80</ele>
        <time>2012-08-02T18:32:30Z</time>
      </trkpt>
      <trkpt lat="44.10853" lon="4.97005">
        <ele>81</ele>
        <time>2012-08-02T18:32:33Z</time>
      </trkpt>
      <trkpt lat="44.10851" lon="4.97013">
        <ele>83</ele>
        <time>2012-08-02T18:32:35Z</time>
      </trkpt>
      <trkpt lat="44.10846" lon="4.97023">
        <ele>83</ele>
        <time>2012-08-02T18:32:38Z</time>
      </trkpt>
      <trkpt lat="44.10852" lon="4.97031">
        <ele>84</ele>
        <time>2012-08-02T18:32:49Z</time>
      </trkpt>
      <trkpt lat="44.10857" lon="4.97038">
        <ele>85</ele>
        <time>2012-08-02T18:32:52Z</time>
      </trkpt>
      <trkpt lat="44.10856" lon="4.9705">
        <ele>86</ele>
        <time>2012-08-02T18:32:57Z</time>
      </trkpt>
      <trkpt lat="44.10852" lon="4.97059">
        <ele>88</ele>
        <time>2012-08-02T18:33:03Z</time>
      </trkpt>
      <trkpt lat="44.10844" lon="4.97062">
        <ele>88</ele>
        <time>2012-08-02T18:33:07Z</time>
      </trkpt>
      <trkpt lat="44.10842" lon="4.97061">
        <ele>86</ele>
        <time>2012-08-02T18:33:08Z</time>
      </trkpt>
      <trkpt lat="44.10829" lon="4.9706">
        <ele>85</ele>
        <time>2012-08-02T18:33:13Z</time>
      </trkpt>
      <trkpt lat="44.10823" lon="4.97068">
        <ele>86</ele>
        <time>2012-08-02T18:33:19Z</time>
      </trkpt>
      <trkpt lat="44.10818" lon="4.97077">
        <ele>84</ele>
        <time>2012-08-02T18:33:28Z</time>
      </trkpt>
      <trkpt lat="44.10811" lon="4.97082">
        <ele>82</ele>
        <time>2012-08-02T18:33:37Z</time>
      </trkpt>
      <trkpt lat="44.10803" lon="4.97088">
        <ele>82</ele>
        <time>2012-08-02T18:33:40Z</time>
      </trkpt>
      <trkpt lat="44.10796" lon="4.97091">
        <ele>82</ele>
        <time>2012-08-02T18:33:43Z</time>
      </trkpt>
      <trkpt lat="44.10789" lon="4.97095">
        <ele>81</ele>
        <time>2012-08-02T18:33:47Z</time>
      </trkpt>
      <trkpt lat="44.10782" lon="4.97102">
        <ele>83</ele>
        <time>2012-08-02T18:33:53Z</time>
      </trkpt>
      <trkpt lat="44.10774" lon="4.97108">
        <ele>86</ele>
        <time>2012-08-02T18:34:00Z</time>
      </trkpt>
      <trkpt lat="44.10767" lon="4.97112">
        <ele>82</ele>
        <time>2012-08-02T18:34:06Z</time>
      </trkpt>
      <trkpt lat="44.10761" lon="4.9712">
        <ele>82</ele>
        <time>2012-08-02T18:34:21Z</time>
      </trkpt>
      <trkpt lat="44.1076" lon="4.97122">
        <ele>83</ele>
        <time>2012-08-02T18:34:22Z</time>
      </trkpt>
      <trkpt lat="44.10761" lon="4.97142">
        <ele>80</ele>
        <time>2012-08-02T18:34:32Z</time>
      </trkpt>
      <trkpt lat="44.10759" lon="4.97153">
        <ele>81</ele>
        <time>2012-08-02T18:34:39Z</time>
      </trkpt>
      <trkpt lat="44.10754" lon="4.97162">
        <ele>80</ele>
        <time>2012-08-02T18:34:44Z</time>
      </trkpt>
      <trkpt lat="44.10749" lon="4.97172">
        <ele>78</ele>
        <time>2012-08-02T18:34:50Z</time>
      </trkpt>
      <trkpt lat="44.10744" lon="4.97181">
        <ele>78</ele>
        <time>2012-08-02T18:34:55Z</time>
      </trkpt>
      <trkpt lat="44.10738" lon="4.97191">
        <ele>79</ele>
        <time>2012-08-02T18:35:01Z</time>
      </trkpt>
      <trkpt lat="44.10733" lon="4.972">
        <ele>80</ele>
        <time>2012-08-02T18:35:07Z</time>
      </trkpt>
      <trkpt lat="44.10727" lon="4.97208">
        <ele>84</ele>
        <time>2012-08-02T18:35:15Z</time>
      </trkpt>
      <trkpt lat="44.10724" lon="4.97219">
        <ele>85</ele>
        <time>2012-08-02T18:35:23Z</time>
      </trkpt>
      <trkpt lat="44.10725" lon="4.97221">
        <ele>85</ele>
        <time>2012-08-02T18:35:24Z</time>
      </trkpt>
      <trkpt lat="44.10727" lon="4.97242">
        <ele>84</ele>
        <time>2012-08-02T18:35:32Z</time>
      </trkpt>
      <trkpt lat="44.10728" lon="4.97252">
        <ele>84</ele>
        <time>2012-08-02T18:35:35Z</time>
      </trkpt>
      <trkpt lat="44.10728" lon="4.97262">
        <ele>81</ele>
        <time>2012-08-02T18:35:38Z</time>
      </trkpt>
      <trkpt lat="44.10727" lon="4.97274">
        <ele>82</ele>
        <time>2012-08-02T18:35:43Z</time>
      </trkpt>
      <trkpt lat="44.1073" lon="4.97286">
        <ele>84</ele>
        <time>2012-08-02T18:35:50Z</time>
      </trkpt>
      <trkpt lat="44.10731" lon="4.97298">
        <ele>84</ele>
        <time>2012-08-02T18:35:56Z</time>
      </trkpt>
      <trkpt lat="44.10734" lon="4.97309">
        <ele>88</ele>
        <time>2012-08-02T18:36:03Z</time>
      </trkpt>
      <trkpt lat="44.1074" lon="4.97318">
        <ele>87</ele>
        <time>2012-08-02T18:36:09Z</time>
      </trkpt>
      <trkpt lat="44.10743" lon="4.9733">
        <ele>88</ele>
        <time>2012-08-02T18:36:17Z</time>
      </trkpt>
      <trkpt lat="44.10742" lon="4.97339">
        <ele>84</ele>
        <time>2012-08-02T18:36:21Z</time>
      </trkpt>
      <trkpt lat="44.10742" lon="4.97351">
        <ele>82</ele>
        <time>2012-08-02T18:36:26Z</time>
      </trkpt>
      <trkpt lat="44.10742" lon="4.97353">
        <ele>83</ele>
        <time>2012-08-02T18:36:27Z</time>
      </trkpt>
      <trkpt lat="44.10741" lon="4.97374">
        <ele>88</ele>
        <time>2012-08-02T18:36:38Z</time>
      </trkpt>
      <trkpt lat="44.10741" lon="4.97385">
        <ele>86</ele>
        <time>2012-08-02T18:36:44Z</time>
      </trkpt>
      <trkpt lat="44.10742" lon="4.97396">
        <ele>85</ele>
        <time>2012-08-02T18:36:50Z</time>
      </trkpt>
      <trkpt lat="44.10744" lon="4.97408">
        <ele>82</ele>
        <time>2012-08-02T18:36:57Z</time>
      </trkpt>
      <trkpt lat="44.1075" lon="4.97416">
        <ele>81</ele>
        <time>2012-08-02T18:37:03Z</time>
      </trkpt>
      <trkpt lat="44.10755" lon="4.97423">
        <ele>81</ele>
        <time>2012-08-02T18:37:07Z</time>
      </trkpt>
      <trkpt lat="44.10762" lon="4.97431">
        <ele>81</ele>
        <time>2012-08-02T18:37:15Z</time>
      </trkpt>
      <trkpt lat="44.10763" lon="4.97443">
        <ele>87</ele>
        <time>2012-08-02T18:37:27Z</time>
      </trkpt>
      <trkpt lat="44.10763" lon="4.97445">
        <ele>87</ele>
        <time>2012-08-02T18:37:28Z</time>
      </trkpt>
      <trkpt lat="44.10765" lon="4.97466">
        <ele>82</ele>
        <time>2012-08-02T18:37:37Z</time>
      </trkpt>
      <trkpt lat="44.10766" lon="4.97476">
        <ele>83</ele>
        <time>2012-08-02T18:37:43Z</time>
      </trkpt>
      <trkpt lat="44.10769" lon="4.97487">
        <ele>83</ele>
        <time>2012-08-02T18:37:49Z</time>
      </trkpt>
      <trkpt lat="44.10771" lon="4.97499">
        <ele>83</ele>
        <time>2012-08-02T18:37:56Z</time>
      </trkpt>
      <trkpt lat="44.10767" lon="4.97509">
        <ele>85</ele>
        <time>2012-08-02T18:38:06Z</time>
      </trkpt>
      <trkpt lat="44.10771" lon="4.97519">
        <ele>85</ele>
        <time>2012-08-02T18:38:13Z</time>
      </trkpt>
      <trkpt lat="44.10774" lon="4.9753">
        <ele>86</ele>
        <time>2012-08-02T18:38:19Z</time>
      </trkpt>
      <trkpt lat="44.10782" lon="4.97535">
        <ele>91</ele>
        <time>2012-08-02T18:38:31Z</time>
      </trkpt>
      <trkpt lat="44.10783" lon="4.97537">
        <ele>91</ele>
        <time>2012-08-02T18:38:32Z</time>
      </trkpt>
      <trkpt lat="44.10789" lon="4.97555">
        <ele>88</ele>
        <time>2012-08-02T18:38:41Z</time>
      </trkpt>
      <trkpt lat="44.10789" lon="4.97567">
        <ele>84</ele>
        <time>2012-08-02T18:38:46Z</time>
      </trkpt>
      <trkpt lat="44.10794" lon="4.97573">
        <ele>84</ele>
        <time>2012-08-02T18:39:01Z</time>
      </trkpt>
      <trkpt lat="44.10801" lon="4.97579">
        <ele>79</ele>
        <time>2012-08-02T18:39:05Z</time>
      </trkpt>
      <trkpt lat="44.108" lon="4.97591">
        <ele>74</ele>
        <time>2012-08-02T18:39:12Z</time>
      </trkpt>
      <trkpt lat="44.10794" lon="4.97599">
        <ele>72</ele>
        <time>2012-08-02T18:39:16Z</time>
      </trkpt>
      <trkpt lat="44.10792" lon="4.97611">
        <ele>73</ele>
        <time>2012-08-02T18:39:22Z</time>
      </trkpt>
      <trkpt lat="44.10789" lon="4.97621">
        <ele>76</ele>
        <time>2012-08-02T18:39:27Z</time>
      </trkpt>
      <trkpt lat="44.10782" lon="4.97627">
        <ele>76</ele>
        <time>2012-08-02T18:39:32Z</time>
      </trkpt>
      <trkpt lat="44.10781" lon="4.97627">
        <ele>73</ele>
        <time>2012-08-02T18:39:33Z</time>
      </trkpt>
      <trkpt lat="44.1077" lon="4.97641">
        <ele>76</ele>
        <time>2012-08-02T18:39:45Z</time>
      </trkpt>
      <trkpt lat="44.10763" lon="4.97647">
        <ele>81</ele>
        <time>2012-08-02T18:39:51Z</time>
      </trkpt>
      <trkpt lat="44.1077" lon="4.97652">
        <ele>77</ele>
        <time>2012-08-02T18:40:00Z</time>
      </trkpt>
      <trkpt lat="44.10779" lon="4.97653">
        <ele>75</ele>
        <time>2012-08-02T18:40:04Z</time>
      </trkpt>
      <trkpt lat="44.10783" lon="4.97662">
        <ele>69</ele>
        <time>2012-08-02T18:40:12Z</time>
      </trkpt>
      <trkpt lat="44.10782" lon="4.97673">
        <ele>66</ele>
        <time>2012-08-02T18:40:17Z</time>
      </trkpt>
      <trkpt lat="44.10782" lon="4.97684">
        <ele>64</ele>
        <time>2012-08-02T18:40:28Z</time>
      </trkpt>
      <trkpt lat="44.10784" lon="4.97695">
        <ele>62</ele>
        <time>2012-08-02T18:40:34Z</time>
      </trkpt>
      <trkpt lat="44.10784" lon="4.97697">
        <ele>61</ele>
        <time>2012-08-02T18:40:35Z</time>
      </trkpt>
      <trkpt lat="44.10787" lon="4.97719">
        <ele>60</ele>
        <time>2012-08-02T18:40:46Z</time>
      </trkpt>
      <trkpt lat="44.1079" lon="4.97729">
        <ele>59</ele>
        <time>2012-08-02T18:40:51Z</time>
      </trkpt>
      <trkpt lat="44.10796" lon="4.97737">
        <ele>58</ele>
        <time>2012-08-02T18:40:57Z</time>
      </trkpt>
      <trkpt lat="44.10805" lon="4.97735">
        <ele>58</ele>
        <time>2012-08-02T18:41:03Z</time>
      </trkpt>
      <trkpt lat="44.10813" lon="4.97737">
        <ele>57</ele>
        <time>2012-08-02T18:41:08Z</time>
      </trkpt>
      <trkpt lat="44.10822" lon="4.97737">
        <ele>55</ele>
        <time>2012-08-02T18:41:18Z</time>
      </trkpt>
      <trkpt lat="44.1083" lon="4.97736">
        <ele>56</ele>
        <time>2012-08-02T18:41:24Z</time>
      </trkpt>
      <trkpt lat="44.10838" lon="4.97733">
        <ele>54</ele>
        <time>2012-08-02T18:41:31Z</time>
      </trkpt>
      <trkpt lat="44.10845" lon="4.97737">
        <ele>54</ele>
        <time>2012-08-02T18:41:37Z</time>
      </trkpt>
      <trkpt lat="44.10847" lon="4.97738">
        <ele>53</ele>
        <time>2012-08-02T18:41:38Z</time>
      </trkpt>
      <trkpt lat="44.10858" lon="4.9775">
        <ele>52</ele>
        <time>2012-08-02T18:41:49Z</time>
      </trkpt>
      <trkpt lat="44.10862" lon="4.97759">
        <ele>50</ele>
        <time>2012-08-02T18:41:53Z</time>
      </trkpt>
      <trkpt lat="44.10862" lon="4.9777">
        <ele>50</ele>
        <time>2012-08-02T18:41:57Z</time>
      </trkpt>
      <trkpt lat="44.10865" lon="4.9778">
        <ele>50</ele>
        <time>2012-08-02T18:42:03Z</time>
      </trkpt>
      <trkpt lat="44.10867" lon="4.97791">
        <ele>46</ele>
        <time>2012-08-02T18:42:08Z</time>
      </trkpt>
      <trkpt lat="44.10869" lon="4.97802">
        <ele>52</ele>
        <time>2012-08-02T18:42:14Z</time>
      </trkpt>
      <trkpt lat="44.10868" lon="4.97813">
        <ele>51</ele>
        <time>2012-08-02T18:42:20Z</time>
      </trkpt>
      <trkpt lat="44.10868" lon="4.97824">
        <ele>50</ele>
        <time>2012-08-02T18:42:26Z</time>
      </trkpt>
      <trkpt lat="44.10872" lon="4.97835">
        <ele>51</ele>
        <time>2012-08-02T18:42:44Z</time>
      </trkpt>
      <trkpt lat="44.10872" lon="4.97838">
        <ele>51</ele>
        <time>2012-08-02T18:42:45Z</time>
      </trkpt>
      <trkpt lat="44.10876" lon="4.97855">
        <ele>49</ele>
        <time>2012-08-02T18:43:05Z</time>
      </trkpt>
      <trkpt lat="44.10876" lon="4.97866">
        <ele>50</ele>
        <time>2012-08-02T18:43:10Z</time>
      </trkpt>
      <trkpt lat="44.10878" lon="4.97876">
        <ele>50</ele>
        <time>2012-08-02T18:43:14Z</time>
      </trkpt>
      <trkpt lat="44.10881" lon="4.97886">
        <ele>48</ele>
        <time>2012-08-02T18:43:18Z</time>
      </trkpt>
      <trkpt lat="44.10884" lon="4.97896">
        <ele>48</ele>
        <time>2012-08-02T18:43:22Z</time>
      </trkpt>
      <trkpt lat="44.10886" lon="4.97908">
        <ele>47</ele>
        <time>2012-08-02T18:43:27Z</time>
      </trkpt>
      <trkpt lat="44.10887" lon="4.97918">
        <ele>47</ele>
        <time>2012-08-02T18:43:32Z</time>
      </trkpt>
      <trkpt lat="44.10889" lon="4.9793">
        <ele>47</ele>
        <time>2012-08-02T18:43:37Z</time>
      </trkpt>
      <trkpt lat="44.10891" lon="4.97941">
        <ele>48</ele>
        <time>2012-08-02T18:43:44Z</time>
      </trkpt>
      <trkpt lat="44.10894" lon="4.97951">
        <ele>49</ele>
        <time>2012-08-02T18:43:50Z</time>
      </trkpt>
      <trkpt lat="44.10895" lon="4.97953">
        <ele>49</ele>
        <time>2012-08-02T18:43:51Z</time>
      </trkpt>
      <trkpt lat="44.10899" lon="4.97974">
        <ele>48</ele>
        <time>2012-08-02T18:44:02Z</time>
      </trkpt>
      <trkpt lat="44.10901" lon="4.97985">
        <ele>48</ele>
        <time>2012-08-02T18:44:08Z</time>
      </trkpt>
      <trkpt lat="44.10901" lon="4.97995">
        <ele>51</ele>
        <time>2012-08-02T18:44:14Z</time>
      </trkpt>
      <trkpt lat="44.10901" lon="4.98007">
        <ele>51</ele>
        <time>2012-08-02T18:44:20Z</time>
      </trkpt>
      <trkpt lat="44.10902" lon="4.98019">
        <ele>49</ele>
        <time>2012-08-02T18:44:25Z</time>
      </trkpt>
      <trkpt lat="44.10907" lon="4.98026">
        <ele>54</ele>
        <time>2012-08-02T18:44:37Z</time>
      </trkpt>
      <trkpt lat="44.10905" lon="4.98036">
        <ele>54</ele>
        <time>2012-08-02T18:44:39Z</time>
      </trkpt>
      <trkpt lat="44.10905" lon="4.98048">
        <ele>53</ele>
        <time>2012-08-02T18:44:43Z</time>
      </trkpt>
      <trkpt lat="44.10909" lon="4.98058">
        <ele>53</ele>
        <time>2012-08-02T18:44:50Z</time>
      </trkpt>
      <trkpt lat="44.10912" lon="4.98067">
        <ele>53</ele>
        <time>2012-08-02T18:44:55Z</time>
      </trkpt>
      <trkpt lat="44.10914" lon="4.98069">
        <ele>52</ele>
        <time>2012-08-02T18:44:56Z</time>
      </trkpt>
      <trkpt lat="44.1092" lon="4.98085">
        <ele>55</ele>
        <time>2012-08-02T18:45:03Z</time>
      </trkpt>
      <trkpt lat="44.10919" lon="4.98097">
        <ele>52</ele>
        <time>2012-08-02T18:45:16Z</time>
      </trkpt>
      <trkpt lat="44.1092" lon="4.98107">
        <ele>53</ele>
        <time>2012-08-02T18:45:23Z</time>
      </trkpt>
      <trkpt lat="44.10923" lon="4.98118">
        <ele>55</ele>
        <time>2012-08-02T18:45:29Z</time>
      </trkpt>
      <trkpt lat="44.10924" lon="4.98129">
        <ele>54</ele>
        <time>2012-08-02T18:45:33Z</time>
      </trkpt>
      <trkpt lat="44.10927" lon="4.9814">
        <ele>54</ele>
        <time>2012-08-02T18:45:39Z</time>
      </trkpt>
      <trkpt lat="44.1093" lon="4.98152">
        <ele>52</ele>
        <time>2012-08-02T18:45:43Z</time>
      </trkpt>
      <trkpt lat="44.10931" lon="4.98163">
        <ele>51</ele>
        <time>2012-08-02T18:45:49Z</time>
      </trkpt>
      <trkpt lat="44.10933" lon="4.98174">
        <ele>50</ele>
        <time>2012-08-02T18:45:56Z</time>
      </trkpt>
      <trkpt lat="44.10934" lon="4.98176">
        <ele>50</ele>
        <time>2012-08-02T18:45:57Z</time>
      </trkpt>
      <trkpt lat="44.10935" lon="4.98188">
        <ele>48</ele>
        <time>2012-08-02T18:47:03Z</time>
      </trkpt>
      <trkpt lat="44.10939" lon="4.98209">
        <ele>52</ele>
        <time>2012-08-02T18:47:18Z</time>
      </trkpt>
      <trkpt lat="44.10939" lon="4.9822">
        <ele>52</ele>
        <time>2012-08-02T18:47:25Z</time>
      </trkpt>
      <trkpt lat="44.10942" lon="4.98231">
        <ele>53</ele>
        <time>2012-08-02T18:47:30Z</time>
      </trkpt>
      <trkpt lat="44.10944" lon="4.98242">
        <ele>50</ele>
        <time>2012-08-02T18:47:41Z</time>
      </trkpt>
      <trkpt lat="44.10945" lon="4.98255">
        <ele>51</ele>
        <time>2012-08-02T18:47:50Z</time>
      </trkpt>
      <trkpt lat="44.10943" lon="4.98267">
        <ele>47</ele>
        <time>2012-08-02T18:47:58Z</time>
      </trkpt>
      <trkpt lat="44.10935" lon="4.98271">
        <ele>47</ele>
        <time>2012-08-02T18:48:02Z</time>
      </trkpt>
      <trkpt lat="44.10927" lon="4.98274">
        <ele>47</ele>
        <time>2012-08-02T18:48:05Z</time>
      </trkpt>
      <trkpt lat="44.10923" lon="4.98276">
        <ele>47</ele>
        <time>2012-08-02T18:48:06Z</time>
      </trkpt>
      <trkpt lat="44.10913" lon="4.98282">
        <ele>48</ele>
        <time>2012-08-02T18:48:10Z</time>
      </trkpt>
      <trkpt lat="44.10907" lon="4.98289">
        <ele>53</ele>
        <time>2012-08-02T18:48:20Z</time>
      </trkpt>
      <trkpt lat="44.109" lon="4.98293">
        <ele>53</ele>
        <time>2012-08-02T18:48:25Z</time>
      </trkpt>
      <trkpt lat="44.10892" lon="4.98299">
        <ele>54</ele>
        <time>2012-08-02T18:48:37Z</time>
      </trkpt>
      <trkpt lat="44.10885" lon="4.98303">
        <ele>55</ele>
        <time>2012-08-02T18:48:41Z</time>
      </trkpt>
      <trkpt lat="44.10878" lon="4.98307">
        <ele>54</ele>
        <time>2012-08-02T18:48:46Z</time>
      </trkpt>
      <trkpt lat="44.10871" lon="4.98315">
        <ele>53</ele>
        <time>2012-08-02T18:48:52Z</time>
      </trkpt>
      <trkpt lat="44.10866" lon="4.98324">
        <ele>52</ele>
        <time>2012-08-02T18:48:58Z</time>
      </trkpt>
      <trkpt lat="44.10869" lon="4.98335">
        <ele>51</ele>
        <time>2012-08-02T18:49:04Z</time>
      </trkpt>
      <trkpt lat="44.10871" lon="4.98345">
        <ele>50</ele>
        <time>2012-08-02T18:49:10Z</time>
      </trkpt>
      <trkpt lat="44.10871" lon="4.98347">
        <ele>49</ele>
        <time>2012-08-02T18:49:12Z</time>
      </trkpt>
      <trkpt lat="44.10875" lon="4.98368">
        <ele>53</ele>
        <time>2012-08-02T18:49:27Z</time>
      </trkpt>
      <trkpt lat="44.10875" lon="4.9838">
        <ele>54</ele>
        <time>2012-08-02T18:49:34Z</time>
      </trkpt>
      <trkpt lat="44.10876" lon="4.98392">
        <ele>54</ele>
        <time>2012-08-02T18:49:40Z</time>
      </trkpt>
      <trkpt lat="44.10877" lon="4.98404">
        <ele>49</ele>
        <time>2012-08-02T18:49:46Z</time>
      </trkpt>
      <trkpt lat="44.10881" lon="4.98415">
        <ele>52</ele>
        <time>2012-08-02T18:49:54Z</time>
      </trkpt>
      <trkpt lat="44.10883" lon="4.98426">
        <ele>52</ele>
        <time>2012-08-02T18:49:59Z</time>
      </trkpt>
      <trkpt lat="44.10885" lon="4.98437">
        <ele>53</ele>
        <time>2012-08-02T18:50:05Z</time>
      </trkpt>
      <trkpt lat="44.10887" lon="4.98449">
        <ele>49</ele>
        <time>2012-08-02T18:50:13Z</time>
      </trkpt>
      <trkpt lat="44.10886" lon="4.98451">
        <ele>49</ele>
        <time>2012-08-02T18:50:14Z</time>
      </trkpt>
      <trkpt lat="44.10889" lon="4.98471">
        <ele>53</ele>
        <time>2012-08-02T18:50:26Z</time>
      </trkpt>
      <trkpt lat="44.10891" lon="4.98483">
        <ele>52</ele>
        <time>2012-08-02T18:50:33Z</time>
      </trkpt>
      <trkpt lat="44.10897" lon="4.9849">
        <ele>54</ele>
        <time>2012-08-02T18:50:39Z</time>
      </trkpt>
      <trkpt lat="44.109" lon="4.98502">
        <ele>49</ele>
        <time>2012-08-02T18:50:45Z</time>
      </trkpt>
      <trkpt lat="44.10899" lon="4.98514">
        <ele>51</ele>
        <time>2012-08-02T18:50:51Z</time>
      </trkpt>
      <trkpt lat="44.10891" lon="4.9852">
        <ele>49</ele>
        <time>2012-08-02T18:50:58Z</time>
      </trkpt>
      <trkpt lat="44.10884" lon="4.98514">
        <ele>52</ele>
        <time>2012-08-02T18:51:04Z</time>
      </trkpt>
      <trkpt lat="44.10877" lon="4.98508">
        <ele>54</ele>
        <time>2012-08-02T18:51:13Z</time>
      </trkpt>
      <trkpt lat="44.1087" lon="4.98502">
        <ele>55</ele>
        <time>2012-08-02T18:51:21Z</time>
      </trkpt>
      <trkpt lat="44.10869" lon="4.98501">
        <ele>54</ele>
        <time>2012-08-02T18:51:21Z</time>
      </trkpt>
      <trkpt lat="44.10858" lon="4.98515">
        <ele>52</ele>
        <time>2012-08-02T18:51:41Z</time>
      </trkpt>
      <trkpt lat="44.10857" lon="4.98523">
        <ele>64</ele>
        <time>2012-08-02T18:52:56Z</time>
      </trkpt>
      <trkpt lat="44.10854" lon="4.98527">
        <ele>57</ele>
        <time>2012-08-02T18:52:57Z</time>
      </trkpt>
      <trkpt lat="44.10854" lon="4.98545">
        <ele>58</ele>
        <time>2012-08-02T18:53:16Z</time>
      </trkpt>
      <trkpt lat="44.10853" lon="4.98557">
        <ele>55</ele>
        <time>2012-08-02T18:53:24Z</time>
      </trkpt>
      <trkpt lat="44.10852" lon="4.98568">
        <ele>58</ele>
        <time>2012-08-02T18:53:31Z</time>
      </trkpt>
      <trkpt lat="44.10849" lon="4.98577">
        <ele>57</ele>
        <time>2012-08-02T18:53:36Z</time>
      </trkpt>
      <trkpt lat="44.10846" lon="4.98589">
        <ele>52</ele>
        <time>2012-08-02T18:53:45Z</time>
      </trkpt>
      <trkpt lat="44.10841" lon="4.98598">
        <ele>50</ele>
        <time>2012-08-02T18:53:49Z</time>
      </trkpt>
      <trkpt lat="44.10841" lon="4.9861">
        <ele>49</ele>
        <time>2012-08-02T18:53:54Z</time>
      </trkpt>
      <trkpt lat="44.10846" lon="4.98619">
        <ele>52</ele>
        <time>2012-08-02T18:54:00Z</time>
      </trkpt>
      <trkpt lat="44.10847" lon="4.9862">
        <ele>53</ele>
        <time>2012-08-02T18:54:01Z</time>
      </trkpt>
      <trkpt lat="44.10845" lon="4.98643">
        <ele>52</ele>
        <time>2012-08-02T18:54:20Z</time>
      </trkpt>
      <trkpt lat="44.10839" lon="4.98652">
        <ele>54</ele>
        <time>2012-08-02T18:54:28Z</time>
      </trkpt>
      <trkpt lat="44.10841" lon="4.98665">
        <ele>56</ele>
        <time>2012-08-02T18:54:35Z</time>
      </trkpt>
      <trkpt lat="44.10843" lon="4.98675">
        <ele>57</ele>
        <time>2012-08-02T18:54:40Z</time>
      </trkpt>
      <trkpt lat="44.10843" lon="4.98686">
        <ele>55</ele>
        <time>2012-08-02T18:54:47Z</time>
      </trkpt>
      <trkpt lat="44.10843" lon="4.98697">
        <ele>58</ele>
        <time>2012-08-02T18:54:52Z</time>
      </trkpt>
      <trkpt lat="44.10844" lon="4.98709">
        <ele>52</ele>
        <time>2012-08-02T18:55:01Z</time>
      </trkpt>
      <trkpt lat="44.10844" lon="4.9871">
        <ele>52</ele>
        <time>2012-08-02T18:55:02Z</time>
      </trkpt>
      <trkpt lat="44.10837" lon="4.98724">
        <ele>51</ele>
        <time>2012-08-02T18:56:48Z</time>
      </trkpt>
      <trkpt lat="44.10836" lon="4.98724">
        <ele>51</ele>
        <time>2012-08-02T18:56:49Z</time>
      </trkpt>
      <trkpt lat="44.10834" lon="4.98747">
        <ele>56</ele>
        <time>2012-08-02T18:57:01Z</time>
      </trkpt>
      <trkpt lat="44.10832" lon="4.98758">
        <ele>56</ele>
        <time>2012-08-02T18:57:09Z</time>
      </trkpt>
      <trkpt lat="44.1084" lon="4.98754">
        <ele>50</ele>
        <time>2012-08-02T18:57:27Z</time>
      </trkpt>
      <trkpt lat="44.10842" lon="4.98742">
        <ele>50</ele>
        <time>2012-08-02T18:57:41Z</time>
      </trkpt>
      <trkpt lat="44.10844" lon="4.9873">
        <ele>48</ele>
        <time>2012-08-02T18:57:49Z</time>
      </trkpt>
      <trkpt lat="44.10845" lon="4.98729">
        <ele>47</ele>
        <time>2012-08-02T18:57:50Z</time>
      </trkpt>
      <trkpt lat="44.10834" lon="4.9874">
        <ele>54</ele>
        <time>2012-08-02T18:58:20Z</time>
      </trkpt>
      <trkpt lat="44.10837" lon="4.98729">
        <ele>54</ele>
        <time>2012-08-02T18:58:41Z</time>
      </trkpt>
      <trkpt lat="44.10843" lon="4.98724">
        <ele>54</ele>
        <time>2012-08-02T18:58:51Z</time>
      </trkpt>
      <trkpt lat="44.10845" lon="4.98724">
        <ele>54</ele>
        <time>2012-08-02T18:58:52Z</time>
      </trkpt>
      <trkpt lat="44.1084" lon="4.98727">
        <ele>54</ele>
        <time>2012-08-02T19:00:29Z</time>
      </trkpt>
      <trkpt lat="44.10841" lon="4.98724">
        <ele>52</ele>
        <time>2012-08-02T19:00:29Z</time>
      </trkpt>
      <trkpt lat="44.10844" lon="4.98704">
        <ele>51</ele>
        <time>2012-08-02T19:00:37Z</time>
      </trkpt>
      <trkpt lat="44.10845" lon="4.98692">
        <ele>49</ele>
        <time>2012-08-02T19:00:48Z</time>
      </trkpt>
      <trkpt lat="44.10839" lon="4.98683">
        <ele>57</ele>
        <time>2012-08-02T19:01:37Z</time>
      </trkpt>
      <trkpt lat="44.10839" lon="4.98682">
        <ele>57</ele>
        <time>2012-08-02T19:01:38Z</time>
      </trkpt>
      <trkpt lat="44.10838" lon="4.98686">
        <ele>54</ele>
        <time>2012-08-02T19:03:01Z</time>
      </trkpt>
      <trkpt lat="44.10837" lon="4.98684">
        <ele>55</ele>
        <time>2012-08-02T19:03:02Z</time>
      </trkpt>
      <trkpt lat="44.10838" lon="4.98687">
        <ele>49</ele>
        <time>2012-08-02T19:03:24Z</time>
      </trkpt>
      <trkpt lat="44.10841" lon="4.98698">
        <ele>51</ele>
        <time>2012-08-02T19:04:18Z</time>
      </trkpt>
      <trkpt lat="44.10841" lon="4.98698">
        <ele>51</ele>
        <time>2012-08-02T19:04:19Z</time>
      </trkpt>
    </trkseg>
  </trk>
</gpx>